<?xml version="1.0" encoding="UTF-8" standalone="no" ?>
<gpx xmlns="http://www.topografix.com/GPX/1/1" xmlns:xsi="http://www.w3.org/2001/XMLSchema-instance" xsi:schemaLocation="http://www.topografix.com/GPX/1/1 http://www.topografix.com/GPX/1/1/gpx.xsd" version="1.1" creator="VisuGPX - https://www.visugpx.com">
  <metadata>
    <name>2013 08 17 La pigne Bargemon</name>
    <desc><![CDATA[2013 08 17 La pigne Bargemon
vélo de montagne]]></desc>
  </metadata>
  <trk>
    <name><![CDATA[20180619075535-Bdvkl]]></name>
    <trkseg>
      <trkpt lat="43.6195" lon="6.55284">
        <ele>457</ele>
        <time>2013-08-17T06:16:56Z</time>
      </trkpt>
      <trkpt lat="43.61948" lon="6.55286">
        <ele>457</ele>
        <time>2013-08-17T06:17:13Z</time>
      </trkpt>
      <trkpt lat="43.61948" lon="6.55285">
        <ele>457</ele>
        <time>2013-08-17T06:17:26Z</time>
      </trkpt>
      <trkpt lat="43.61947" lon="6.55286">
        <ele>457</ele>
        <time>2013-08-17T06:17:36Z</time>
      </trkpt>
      <trkpt lat="43.61947" lon="6.55286">
        <ele>457</ele>
        <time>2013-08-17T06:17:37Z</time>
      </trkpt>
      <trkpt lat="43.61947" lon="6.55289">
        <ele>456</ele>
        <time>2013-08-17T06:18:08Z</time>
      </trkpt>
      <trkpt lat="43.61945" lon="6.5529">
        <ele>456</ele>
        <time>2013-08-17T06:18:30Z</time>
      </trkpt>
      <trkpt lat="43.61945" lon="6.55287">
        <ele>457</ele>
        <time>2013-08-17T06:18:50Z</time>
      </trkpt>
      <trkpt lat="43.61941" lon="6.55285">
        <ele>457</ele>
        <time>2013-08-17T06:18:53Z</time>
      </trkpt>
      <trkpt lat="43.61916" lon="6.55295">
        <ele>454</ele>
        <time>2013-08-17T06:19:06Z</time>
      </trkpt>
      <trkpt lat="43.61914" lon="6.55288">
        <ele>455</ele>
        <time>2013-08-17T06:19:13Z</time>
      </trkpt>
      <trkpt lat="43.61921" lon="6.55283">
        <ele>458</ele>
        <time>2013-08-17T06:19:16Z</time>
      </trkpt>
      <trkpt lat="43.61945" lon="6.55244">
        <ele>467</ele>
        <time>2013-08-17T06:19:29Z</time>
      </trkpt>
      <trkpt lat="43.61962" lon="6.55203">
        <ele>469</ele>
        <time>2013-08-17T06:19:41Z</time>
      </trkpt>
      <trkpt lat="43.61971" lon="6.55191">
        <ele>471</ele>
        <time>2013-08-17T06:19:45Z</time>
      </trkpt>
      <trkpt lat="43.61986" lon="6.5515">
        <ele>476</ele>
        <time>2013-08-17T06:19:56Z</time>
      </trkpt>
      <trkpt lat="43.61987" lon="6.55146">
        <ele>476</ele>
        <time>2013-08-17T06:19:58Z</time>
      </trkpt>
      <trkpt lat="43.61988" lon="6.55145">
        <ele>476</ele>
        <time>2013-08-17T06:20:01Z</time>
      </trkpt>
      <trkpt lat="43.62015" lon="6.55163">
        <ele>479</ele>
        <time>2013-08-17T06:20:12Z</time>
      </trkpt>
      <trkpt lat="43.62052" lon="6.55188">
        <ele>475</ele>
        <time>2013-08-17T06:20:25Z</time>
      </trkpt>
      <trkpt lat="43.62091" lon="6.55219">
        <ele>477</ele>
        <time>2013-08-17T06:20:37Z</time>
      </trkpt>
      <trkpt lat="43.6213" lon="6.55247">
        <ele>478</ele>
        <time>2013-08-17T06:20:47Z</time>
      </trkpt>
      <trkpt lat="43.62134" lon="6.5525">
        <ele>478</ele>
        <time>2013-08-17T06:20:48Z</time>
      </trkpt>
      <trkpt lat="43.62138" lon="6.55252">
        <ele>470</ele>
        <time>2013-08-17T06:20:49Z</time>
      </trkpt>
      <trkpt lat="43.62167" lon="6.55261">
        <ele>473</ele>
        <time>2013-08-17T06:20:57Z</time>
      </trkpt>
      <trkpt lat="43.62213" lon="6.55253">
        <ele>470</ele>
        <time>2013-08-17T06:21:08Z</time>
      </trkpt>
      <trkpt lat="43.62272" lon="6.55249">
        <ele>479</ele>
        <time>2013-08-17T06:21:21Z</time>
      </trkpt>
      <trkpt lat="43.62323" lon="6.55239">
        <ele>478</ele>
        <time>2013-08-17T06:21:32Z</time>
      </trkpt>
      <trkpt lat="43.62327" lon="6.55237">
        <ele>478</ele>
        <time>2013-08-17T06:21:33Z</time>
      </trkpt>
      <trkpt lat="43.62332" lon="6.55235">
        <ele>478</ele>
        <time>2013-08-17T06:21:34Z</time>
      </trkpt>
      <trkpt lat="43.62345" lon="6.55226">
        <ele>475</ele>
        <time>2013-08-17T06:21:37Z</time>
      </trkpt>
      <trkpt lat="43.62348" lon="6.55222">
        <ele>475</ele>
        <time>2013-08-17T06:21:38Z</time>
      </trkpt>
      <trkpt lat="43.62351" lon="6.55217">
        <ele>475</ele>
        <time>2013-08-17T06:21:39Z</time>
      </trkpt>
      <trkpt lat="43.62393" lon="6.55151">
        <ele>482</ele>
        <time>2013-08-17T06:21:53Z</time>
      </trkpt>
      <trkpt lat="43.62414" lon="6.55111">
        <ele>485</ele>
        <time>2013-08-17T06:22:01Z</time>
      </trkpt>
      <trkpt lat="43.62438" lon="6.55069">
        <ele>492</ele>
        <time>2013-08-17T06:22:12Z</time>
      </trkpt>
      <trkpt lat="43.62461" lon="6.55056">
        <ele>495</ele>
        <time>2013-08-17T06:22:19Z</time>
      </trkpt>
      <trkpt lat="43.62466" lon="6.55055">
        <ele>495</ele>
        <time>2013-08-17T06:22:20Z</time>
      </trkpt>
      <trkpt lat="43.62472" lon="6.55056">
        <ele>495</ele>
        <time>2013-08-17T06:22:21Z</time>
      </trkpt>
      <trkpt lat="43.62477" lon="6.55058">
        <ele>495</ele>
        <time>2013-08-17T06:22:22Z</time>
      </trkpt>
      <trkpt lat="43.6248" lon="6.55062">
        <ele>494</ele>
        <time>2013-08-17T06:22:23Z</time>
      </trkpt>
      <trkpt lat="43.62484" lon="6.55067">
        <ele>494</ele>
        <time>2013-08-17T06:22:24Z</time>
      </trkpt>
      <trkpt lat="43.62485" lon="6.55072">
        <ele>493</ele>
        <time>2013-08-17T06:22:25Z</time>
      </trkpt>
      <trkpt lat="43.62487" lon="6.55078">
        <ele>493</ele>
        <time>2013-08-17T06:22:26Z</time>
      </trkpt>
      <trkpt lat="43.62487" lon="6.55084">
        <ele>488</ele>
        <time>2013-08-17T06:22:27Z</time>
      </trkpt>
      <trkpt lat="43.62487" lon="6.5509">
        <ele>488</ele>
        <time>2013-08-17T06:22:28Z</time>
      </trkpt>
      <trkpt lat="43.62487" lon="6.55095">
        <ele>487</ele>
        <time>2013-08-17T06:22:29Z</time>
      </trkpt>
      <trkpt lat="43.62485" lon="6.55127">
        <ele>484</ele>
        <time>2013-08-17T06:22:35Z</time>
      </trkpt>
      <trkpt lat="43.62486" lon="6.55133">
        <ele>484</ele>
        <time>2013-08-17T06:22:36Z</time>
      </trkpt>
      <trkpt lat="43.62486" lon="6.55138">
        <ele>484</ele>
        <time>2013-08-17T06:22:37Z</time>
      </trkpt>
      <trkpt lat="43.62487" lon="6.55144">
        <ele>484</ele>
        <time>2013-08-17T06:22:38Z</time>
      </trkpt>
      <trkpt lat="43.62487" lon="6.5515">
        <ele>484</ele>
        <time>2013-08-17T06:22:39Z</time>
      </trkpt>
      <trkpt lat="43.62486" lon="6.55156">
        <ele>484</ele>
        <time>2013-08-17T06:22:40Z</time>
      </trkpt>
      <trkpt lat="43.62487" lon="6.55161">
        <ele>484</ele>
        <time>2013-08-17T06:22:41Z</time>
      </trkpt>
      <trkpt lat="43.62487" lon="6.55167">
        <ele>480</ele>
        <time>2013-08-17T06:22:42Z</time>
      </trkpt>
      <trkpt lat="43.62486" lon="6.55173">
        <ele>480</ele>
        <time>2013-08-17T06:22:43Z</time>
      </trkpt>
      <trkpt lat="43.62486" lon="6.55179">
        <ele>479</ele>
        <time>2013-08-17T06:22:44Z</time>
      </trkpt>
      <trkpt lat="43.62485" lon="6.55184">
        <ele>478</ele>
        <time>2013-08-17T06:22:45Z</time>
      </trkpt>
      <trkpt lat="43.62485" lon="6.5519">
        <ele>478</ele>
        <time>2013-08-17T06:22:46Z</time>
      </trkpt>
      <trkpt lat="43.62486" lon="6.55207">
        <ele>476</ele>
        <time>2013-08-17T06:22:49Z</time>
      </trkpt>
      <trkpt lat="43.62487" lon="6.55213">
        <ele>476</ele>
        <time>2013-08-17T06:22:50Z</time>
      </trkpt>
      <trkpt lat="43.62488" lon="6.55219">
        <ele>476</ele>
        <time>2013-08-17T06:22:51Z</time>
      </trkpt>
      <trkpt lat="43.62489" lon="6.55224">
        <ele>476</ele>
        <time>2013-08-17T06:22:52Z</time>
      </trkpt>
      <trkpt lat="43.62491" lon="6.55229">
        <ele>476</ele>
        <time>2013-08-17T06:22:53Z</time>
      </trkpt>
      <trkpt lat="43.62494" lon="6.55233">
        <ele>476</ele>
        <time>2013-08-17T06:22:54Z</time>
      </trkpt>
      <trkpt lat="43.62496" lon="6.55237">
        <ele>476</ele>
        <time>2013-08-17T06:22:55Z</time>
      </trkpt>
      <trkpt lat="43.62499" lon="6.55241">
        <ele>477</ele>
        <time>2013-08-17T06:22:56Z</time>
      </trkpt>
      <trkpt lat="43.62503" lon="6.55244">
        <ele>482</ele>
        <time>2013-08-17T06:22:57Z</time>
      </trkpt>
      <trkpt lat="43.62532" lon="6.55267">
        <ele>487</ele>
        <time>2013-08-17T06:23:05Z</time>
      </trkpt>
      <trkpt lat="43.62534" lon="6.55272">
        <ele>488</ele>
        <time>2013-08-17T06:23:06Z</time>
      </trkpt>
      <trkpt lat="43.62537" lon="6.55276">
        <ele>488</ele>
        <time>2013-08-17T06:23:07Z</time>
      </trkpt>
      <trkpt lat="43.62538" lon="6.55282">
        <ele>488</ele>
        <time>2013-08-17T06:23:08Z</time>
      </trkpt>
      <trkpt lat="43.62539" lon="6.55287">
        <ele>488</ele>
        <time>2013-08-17T06:23:09Z</time>
      </trkpt>
      <trkpt lat="43.6254" lon="6.55293">
        <ele>488</ele>
        <time>2013-08-17T06:23:10Z</time>
      </trkpt>
      <trkpt lat="43.6254" lon="6.55298">
        <ele>488</ele>
        <time>2013-08-17T06:23:11Z</time>
      </trkpt>
      <trkpt lat="43.6254" lon="6.55303">
        <ele>488</ele>
        <time>2013-08-17T06:23:12Z</time>
      </trkpt>
      <trkpt lat="43.62539" lon="6.55309">
        <ele>487</ele>
        <time>2013-08-17T06:23:13Z</time>
      </trkpt>
      <trkpt lat="43.62539" lon="6.55314">
        <ele>487</ele>
        <time>2013-08-17T06:23:14Z</time>
      </trkpt>
      <trkpt lat="43.62555" lon="6.55376">
        <ele>481</ele>
        <time>2013-08-17T06:23:26Z</time>
      </trkpt>
      <trkpt lat="43.62563" lon="6.55399">
        <ele>482</ele>
        <time>2013-08-17T06:23:31Z</time>
      </trkpt>
      <trkpt lat="43.62568" lon="6.55409">
        <ele>483</ele>
        <time>2013-08-17T06:23:33Z</time>
      </trkpt>
      <trkpt lat="43.6257" lon="6.55415">
        <ele>484</ele>
        <time>2013-08-17T06:23:34Z</time>
      </trkpt>
      <trkpt lat="43.62572" lon="6.55421">
        <ele>482</ele>
        <time>2013-08-17T06:23:35Z</time>
      </trkpt>
      <trkpt lat="43.62577" lon="6.55456">
        <ele>480</ele>
        <time>2013-08-17T06:23:41Z</time>
      </trkpt>
      <trkpt lat="43.62577" lon="6.55462">
        <ele>480</ele>
        <time>2013-08-17T06:23:42Z</time>
      </trkpt>
      <trkpt lat="43.62577" lon="6.55468">
        <ele>480</ele>
        <time>2013-08-17T06:23:43Z</time>
      </trkpt>
      <trkpt lat="43.62576" lon="6.55499">
        <ele>485</ele>
        <time>2013-08-17T06:23:48Z</time>
      </trkpt>
      <trkpt lat="43.62575" lon="6.55505">
        <ele>485</ele>
        <time>2013-08-17T06:23:49Z</time>
      </trkpt>
      <trkpt lat="43.62571" lon="6.55569">
        <ele>485</ele>
        <time>2013-08-17T06:24:00Z</time>
      </trkpt>
      <trkpt lat="43.62566" lon="6.55637">
        <ele>485</ele>
        <time>2013-08-17T06:24:12Z</time>
      </trkpt>
      <trkpt lat="43.62561" lon="6.55688">
        <ele>484</ele>
        <time>2013-08-17T06:24:21Z</time>
      </trkpt>
      <trkpt lat="43.62561" lon="6.55694">
        <ele>484</ele>
        <time>2013-08-17T06:24:22Z</time>
      </trkpt>
      <trkpt lat="43.62561" lon="6.55699">
        <ele>483</ele>
        <time>2013-08-17T06:24:23Z</time>
      </trkpt>
      <trkpt lat="43.62561" lon="6.55705">
        <ele>483</ele>
        <time>2013-08-17T06:24:24Z</time>
      </trkpt>
      <trkpt lat="43.62561" lon="6.55711">
        <ele>483</ele>
        <time>2013-08-17T06:24:25Z</time>
      </trkpt>
      <trkpt lat="43.62582" lon="6.55756">
        <ele>488</ele>
        <time>2013-08-17T06:24:35Z</time>
      </trkpt>
      <trkpt lat="43.62597" lon="6.55774">
        <ele>494</ele>
        <time>2013-08-17T06:24:40Z</time>
      </trkpt>
      <trkpt lat="43.626" lon="6.55778">
        <ele>494</ele>
        <time>2013-08-17T06:24:41Z</time>
      </trkpt>
      <trkpt lat="43.62604" lon="6.55783">
        <ele>494</ele>
        <time>2013-08-17T06:24:42Z</time>
      </trkpt>
      <trkpt lat="43.62608" lon="6.55788">
        <ele>494</ele>
        <time>2013-08-17T06:24:43Z</time>
      </trkpt>
      <trkpt lat="43.62611" lon="6.55794">
        <ele>494</ele>
        <time>2013-08-17T06:24:44Z</time>
      </trkpt>
      <trkpt lat="43.62613" lon="6.55799">
        <ele>494</ele>
        <time>2013-08-17T06:24:45Z</time>
      </trkpt>
      <trkpt lat="43.62615" lon="6.55805">
        <ele>494</ele>
        <time>2013-08-17T06:24:46Z</time>
      </trkpt>
      <trkpt lat="43.62617" lon="6.55811">
        <ele>494</ele>
        <time>2013-08-17T06:24:47Z</time>
      </trkpt>
      <trkpt lat="43.62618" lon="6.55817">
        <ele>494</ele>
        <time>2013-08-17T06:24:48Z</time>
      </trkpt>
      <trkpt lat="43.62619" lon="6.55829">
        <ele>493</ele>
        <time>2013-08-17T06:24:50Z</time>
      </trkpt>
      <trkpt lat="43.62622" lon="6.55847">
        <ele>488</ele>
        <time>2013-08-17T06:24:53Z</time>
      </trkpt>
      <trkpt lat="43.62624" lon="6.55871">
        <ele>488</ele>
        <time>2013-08-17T06:24:57Z</time>
      </trkpt>
      <trkpt lat="43.62627" lon="6.55882">
        <ele>488</ele>
        <time>2013-08-17T06:24:59Z</time>
      </trkpt>
      <trkpt lat="43.62629" lon="6.55887">
        <ele>488</ele>
        <time>2013-08-17T06:25:00Z</time>
      </trkpt>
      <trkpt lat="43.62631" lon="6.55892">
        <ele>488</ele>
        <time>2013-08-17T06:25:01Z</time>
      </trkpt>
      <trkpt lat="43.62634" lon="6.55896">
        <ele>488</ele>
        <time>2013-08-17T06:25:02Z</time>
      </trkpt>
      <trkpt lat="43.62637" lon="6.55901">
        <ele>488</ele>
        <time>2013-08-17T06:25:03Z</time>
      </trkpt>
      <trkpt lat="43.62641" lon="6.55905">
        <ele>489</ele>
        <time>2013-08-17T06:25:04Z</time>
      </trkpt>
      <trkpt lat="43.62647" lon="6.55914">
        <ele>490</ele>
        <time>2013-08-17T06:25:06Z</time>
      </trkpt>
      <trkpt lat="43.6265" lon="6.55919">
        <ele>488</ele>
        <time>2013-08-17T06:25:07Z</time>
      </trkpt>
      <trkpt lat="43.62651" lon="6.55925">
        <ele>488</ele>
        <time>2013-08-17T06:25:08Z</time>
      </trkpt>
      <trkpt lat="43.62652" lon="6.55931">
        <ele>487</ele>
        <time>2013-08-17T06:25:09Z</time>
      </trkpt>
      <trkpt lat="43.62652" lon="6.55937">
        <ele>487</ele>
        <time>2013-08-17T06:25:10Z</time>
      </trkpt>
      <trkpt lat="43.62651" lon="6.55943">
        <ele>486</ele>
        <time>2013-08-17T06:25:11Z</time>
      </trkpt>
      <trkpt lat="43.6265" lon="6.55949">
        <ele>486</ele>
        <time>2013-08-17T06:25:12Z</time>
      </trkpt>
      <trkpt lat="43.62649" lon="6.55954">
        <ele>485</ele>
        <time>2013-08-17T06:25:13Z</time>
      </trkpt>
      <trkpt lat="43.62637" lon="6.56006">
        <ele>485</ele>
        <time>2013-08-17T06:25:23Z</time>
      </trkpt>
      <trkpt lat="43.62639" lon="6.56029">
        <ele>485</ele>
        <time>2013-08-17T06:25:27Z</time>
      </trkpt>
      <trkpt lat="43.62639" lon="6.56035">
        <ele>485</ele>
        <time>2013-08-17T06:25:28Z</time>
      </trkpt>
      <trkpt lat="43.62644" lon="6.56127">
        <ele>489</ele>
        <time>2013-08-17T06:25:44Z</time>
      </trkpt>
      <trkpt lat="43.62641" lon="6.56143">
        <ele>489</ele>
        <time>2013-08-17T06:25:47Z</time>
      </trkpt>
      <trkpt lat="43.62637" lon="6.56165">
        <ele>489</ele>
        <time>2013-08-17T06:25:51Z</time>
      </trkpt>
      <trkpt lat="43.62636" lon="6.56171">
        <ele>491</ele>
        <time>2013-08-17T06:25:52Z</time>
      </trkpt>
      <trkpt lat="43.62635" lon="6.56176">
        <ele>491</ele>
        <time>2013-08-17T06:25:53Z</time>
      </trkpt>
      <trkpt lat="43.62631" lon="6.56218">
        <ele>491</ele>
        <time>2013-08-17T06:26:00Z</time>
      </trkpt>
      <trkpt lat="43.62619" lon="6.56252">
        <ele>490</ele>
        <time>2013-08-17T06:26:06Z</time>
      </trkpt>
      <trkpt lat="43.62616" lon="6.56256">
        <ele>489</ele>
        <time>2013-08-17T06:26:07Z</time>
      </trkpt>
      <trkpt lat="43.62613" lon="6.56261">
        <ele>489</ele>
        <time>2013-08-17T06:26:08Z</time>
      </trkpt>
      <trkpt lat="43.62604" lon="6.56283">
        <ele>488</ele>
        <time>2013-08-17T06:26:12Z</time>
      </trkpt>
      <trkpt lat="43.62603" lon="6.56289">
        <ele>488</ele>
        <time>2013-08-17T06:26:13Z</time>
      </trkpt>
      <trkpt lat="43.62602" lon="6.56301">
        <ele>487</ele>
        <time>2013-08-17T06:26:15Z</time>
      </trkpt>
      <trkpt lat="43.62602" lon="6.56306">
        <ele>487</ele>
        <time>2013-08-17T06:26:16Z</time>
      </trkpt>
      <trkpt lat="43.62604" lon="6.56316">
        <ele>486</ele>
        <time>2013-08-17T06:26:18Z</time>
      </trkpt>
      <trkpt lat="43.62607" lon="6.5632">
        <ele>487</ele>
        <time>2013-08-17T06:26:19Z</time>
      </trkpt>
      <trkpt lat="43.6261" lon="6.56323">
        <ele>487</ele>
        <time>2013-08-17T06:26:20Z</time>
      </trkpt>
      <trkpt lat="43.62615" lon="6.56325">
        <ele>488</ele>
        <time>2013-08-17T06:26:21Z</time>
      </trkpt>
      <trkpt lat="43.62619" lon="6.56327">
        <ele>489</ele>
        <time>2013-08-17T06:26:22Z</time>
      </trkpt>
      <trkpt lat="43.62624" lon="6.56329">
        <ele>490</ele>
        <time>2013-08-17T06:26:23Z</time>
      </trkpt>
      <trkpt lat="43.62665" lon="6.56358">
        <ele>490</ele>
        <time>2013-08-17T06:26:32Z</time>
      </trkpt>
      <trkpt lat="43.62668" lon="6.56362">
        <ele>508</ele>
        <time>2013-08-17T06:26:33Z</time>
      </trkpt>
      <trkpt lat="43.62677" lon="6.56376">
        <ele>509</ele>
        <time>2013-08-17T06:26:36Z</time>
      </trkpt>
      <trkpt lat="43.6268" lon="6.56382">
        <ele>508</ele>
        <time>2013-08-17T06:26:37Z</time>
      </trkpt>
      <trkpt lat="43.62689" lon="6.56415">
        <ele>505</ele>
        <time>2013-08-17T06:26:43Z</time>
      </trkpt>
      <trkpt lat="43.62689" lon="6.56455">
        <ele>506</ele>
        <time>2013-08-17T06:26:50Z</time>
      </trkpt>
      <trkpt lat="43.62688" lon="6.56461">
        <ele>505</ele>
        <time>2013-08-17T06:26:51Z</time>
      </trkpt>
      <trkpt lat="43.62687" lon="6.56467">
        <ele>505</ele>
        <time>2013-08-17T06:26:52Z</time>
      </trkpt>
      <trkpt lat="43.62683" lon="6.56491">
        <ele>500</ele>
        <time>2013-08-17T06:26:56Z</time>
      </trkpt>
      <trkpt lat="43.62683" lon="6.56497">
        <ele>499</ele>
        <time>2013-08-17T06:26:57Z</time>
      </trkpt>
      <trkpt lat="43.62682" lon="6.56503">
        <ele>501</ele>
        <time>2013-08-17T06:26:58Z</time>
      </trkpt>
      <trkpt lat="43.62679" lon="6.56528">
        <ele>507</ele>
        <time>2013-08-17T06:27:02Z</time>
      </trkpt>
      <trkpt lat="43.62678" lon="6.56534">
        <ele>508</ele>
        <time>2013-08-17T06:27:03Z</time>
      </trkpt>
      <trkpt lat="43.62677" lon="6.5654">
        <ele>509</ele>
        <time>2013-08-17T06:27:04Z</time>
      </trkpt>
      <trkpt lat="43.62676" lon="6.56546">
        <ele>509</ele>
        <time>2013-08-17T06:27:05Z</time>
      </trkpt>
      <trkpt lat="43.62674" lon="6.56553">
        <ele>509</ele>
        <time>2013-08-17T06:27:06Z</time>
      </trkpt>
      <trkpt lat="43.62672" lon="6.5656">
        <ele>509</ele>
        <time>2013-08-17T06:27:07Z</time>
      </trkpt>
      <trkpt lat="43.62668" lon="6.56572">
        <ele>506</ele>
        <time>2013-08-17T06:27:09Z</time>
      </trkpt>
      <trkpt lat="43.62664" lon="6.56578">
        <ele>497</ele>
        <time>2013-08-17T06:27:10Z</time>
      </trkpt>
      <trkpt lat="43.62661" lon="6.56582">
        <ele>497</ele>
        <time>2013-08-17T06:27:11Z</time>
      </trkpt>
      <trkpt lat="43.62638" lon="6.56613">
        <ele>495</ele>
        <time>2013-08-17T06:27:18Z</time>
      </trkpt>
      <trkpt lat="43.62637" lon="6.56619">
        <ele>495</ele>
        <time>2013-08-17T06:27:19Z</time>
      </trkpt>
      <trkpt lat="43.62636" lon="6.56632">
        <ele>495</ele>
        <time>2013-08-17T06:27:21Z</time>
      </trkpt>
      <trkpt lat="43.62637" lon="6.56657">
        <ele>498</ele>
        <time>2013-08-17T06:27:25Z</time>
      </trkpt>
      <trkpt lat="43.62637" lon="6.56663">
        <ele>499</ele>
        <time>2013-08-17T06:27:26Z</time>
      </trkpt>
      <trkpt lat="43.6264" lon="6.56682">
        <ele>498</ele>
        <time>2013-08-17T06:27:29Z</time>
      </trkpt>
      <trkpt lat="43.62641" lon="6.56688">
        <ele>498</ele>
        <time>2013-08-17T06:27:30Z</time>
      </trkpt>
      <trkpt lat="43.62641" lon="6.56694">
        <ele>497</ele>
        <time>2013-08-17T06:27:31Z</time>
      </trkpt>
      <trkpt lat="43.62643" lon="6.56717">
        <ele>496</ele>
        <time>2013-08-17T06:27:35Z</time>
      </trkpt>
      <trkpt lat="43.62644" lon="6.56723">
        <ele>497</ele>
        <time>2013-08-17T06:27:36Z</time>
      </trkpt>
      <trkpt lat="43.62646" lon="6.56727">
        <ele>497</ele>
        <time>2013-08-17T06:27:37Z</time>
      </trkpt>
      <trkpt lat="43.62649" lon="6.56731">
        <ele>498</ele>
        <time>2013-08-17T06:27:38Z</time>
      </trkpt>
      <trkpt lat="43.62651" lon="6.56734">
        <ele>499</ele>
        <time>2013-08-17T06:27:39Z</time>
      </trkpt>
      <trkpt lat="43.62657" lon="6.56747">
        <ele>503</ele>
        <time>2013-08-17T06:27:41Z</time>
      </trkpt>
      <trkpt lat="43.62659" lon="6.56754">
        <ele>500</ele>
        <time>2013-08-17T06:27:42Z</time>
      </trkpt>
      <trkpt lat="43.62661" lon="6.56761">
        <ele>498</ele>
        <time>2013-08-17T06:27:43Z</time>
      </trkpt>
      <trkpt lat="43.62665" lon="6.56772">
        <ele>493</ele>
        <time>2013-08-17T06:27:45Z</time>
      </trkpt>
      <trkpt lat="43.62699" lon="6.56825">
        <ele>506</ele>
        <time>2013-08-17T06:27:57Z</time>
      </trkpt>
      <trkpt lat="43.62729" lon="6.56843">
        <ele>498</ele>
        <time>2013-08-17T06:28:06Z</time>
      </trkpt>
      <trkpt lat="43.6278" lon="6.56826">
        <ele>517</ele>
        <time>2013-08-17T06:28:17Z</time>
      </trkpt>
      <trkpt lat="43.62784" lon="6.56825">
        <ele>518</ele>
        <time>2013-08-17T06:28:18Z</time>
      </trkpt>
      <trkpt lat="43.62789" lon="6.56826">
        <ele>518</ele>
        <time>2013-08-17T06:28:19Z</time>
      </trkpt>
      <trkpt lat="43.62793" lon="6.56826">
        <ele>518</ele>
        <time>2013-08-17T06:28:20Z</time>
      </trkpt>
      <trkpt lat="43.62798" lon="6.56827">
        <ele>518</ele>
        <time>2013-08-17T06:28:21Z</time>
      </trkpt>
      <trkpt lat="43.62801" lon="6.56829">
        <ele>518</ele>
        <time>2013-08-17T06:28:22Z</time>
      </trkpt>
      <trkpt lat="43.62807" lon="6.56836">
        <ele>506</ele>
        <time>2013-08-17T06:28:24Z</time>
      </trkpt>
      <trkpt lat="43.62811" lon="6.56841">
        <ele>506</ele>
        <time>2013-08-17T06:28:25Z</time>
      </trkpt>
      <trkpt lat="43.62813" lon="6.56848">
        <ele>506</ele>
        <time>2013-08-17T06:28:26Z</time>
      </trkpt>
      <trkpt lat="43.62816" lon="6.5686">
        <ele>505</ele>
        <time>2013-08-17T06:28:28Z</time>
      </trkpt>
      <trkpt lat="43.62817" lon="6.56866">
        <ele>504</ele>
        <time>2013-08-17T06:28:29Z</time>
      </trkpt>
      <trkpt lat="43.62819" lon="6.56873">
        <ele>503</ele>
        <time>2013-08-17T06:28:30Z</time>
      </trkpt>
      <trkpt lat="43.62825" lon="6.5689">
        <ele>502</ele>
        <time>2013-08-17T06:28:33Z</time>
      </trkpt>
      <trkpt lat="43.62835" lon="6.5691">
        <ele>504</ele>
        <time>2013-08-17T06:28:37Z</time>
      </trkpt>
      <trkpt lat="43.62839" lon="6.56913">
        <ele>504</ele>
        <time>2013-08-17T06:28:38Z</time>
      </trkpt>
      <trkpt lat="43.62843" lon="6.56916">
        <ele>505</ele>
        <time>2013-08-17T06:28:39Z</time>
      </trkpt>
      <trkpt lat="43.62848" lon="6.56919">
        <ele>502</ele>
        <time>2013-08-17T06:28:40Z</time>
      </trkpt>
      <trkpt lat="43.62853" lon="6.56921">
        <ele>502</ele>
        <time>2013-08-17T06:28:41Z</time>
      </trkpt>
      <trkpt lat="43.62886" lon="6.56939">
        <ele>506</ele>
        <time>2013-08-17T06:28:48Z</time>
      </trkpt>
      <trkpt lat="43.62891" lon="6.56943">
        <ele>506</ele>
        <time>2013-08-17T06:28:49Z</time>
      </trkpt>
      <trkpt lat="43.62894" lon="6.56948">
        <ele>506</ele>
        <time>2013-08-17T06:28:50Z</time>
      </trkpt>
      <trkpt lat="43.62898" lon="6.56954">
        <ele>506</ele>
        <time>2013-08-17T06:28:51Z</time>
      </trkpt>
      <trkpt lat="43.629" lon="6.56959">
        <ele>506</ele>
        <time>2013-08-17T06:28:52Z</time>
      </trkpt>
      <trkpt lat="43.62902" lon="6.56965">
        <ele>506</ele>
        <time>2013-08-17T06:28:53Z</time>
      </trkpt>
      <trkpt lat="43.62903" lon="6.56971">
        <ele>505</ele>
        <time>2013-08-17T06:28:54Z</time>
      </trkpt>
      <trkpt lat="43.62903" lon="6.56977">
        <ele>506</ele>
        <time>2013-08-17T06:28:55Z</time>
      </trkpt>
      <trkpt lat="43.62908" lon="6.57024">
        <ele>502</ele>
        <time>2013-08-17T06:29:03Z</time>
      </trkpt>
      <trkpt lat="43.62908" lon="6.5703">
        <ele>501</ele>
        <time>2013-08-17T06:29:04Z</time>
      </trkpt>
      <trkpt lat="43.62908" lon="6.57036">
        <ele>501</ele>
        <time>2013-08-17T06:29:05Z</time>
      </trkpt>
      <trkpt lat="43.62907" lon="6.57042">
        <ele>500</ele>
        <time>2013-08-17T06:29:06Z</time>
      </trkpt>
      <trkpt lat="43.62905" lon="6.57048">
        <ele>500</ele>
        <time>2013-08-17T06:29:07Z</time>
      </trkpt>
      <trkpt lat="43.62902" lon="6.57118">
        <ele>498</ele>
        <time>2013-08-17T06:29:20Z</time>
      </trkpt>
      <trkpt lat="43.62935" lon="6.5717">
        <ele>506</ele>
        <time>2013-08-17T06:29:31Z</time>
      </trkpt>
      <trkpt lat="43.62946" lon="6.57183">
        <ele>506</ele>
        <time>2013-08-17T06:29:34Z</time>
      </trkpt>
      <trkpt lat="43.62981" lon="6.57212">
        <ele>508</ele>
        <time>2013-08-17T06:29:43Z</time>
      </trkpt>
      <trkpt lat="43.62984" lon="6.57217">
        <ele>508</ele>
        <time>2013-08-17T06:29:44Z</time>
      </trkpt>
      <trkpt lat="43.62988" lon="6.57222">
        <ele>508</ele>
        <time>2013-08-17T06:29:45Z</time>
      </trkpt>
      <trkpt lat="43.62996" lon="6.57235">
        <ele>509</ele>
        <time>2013-08-17T06:29:48Z</time>
      </trkpt>
      <trkpt lat="43.63024" lon="6.57286">
        <ele>518</ele>
        <time>2013-08-17T06:29:58Z</time>
      </trkpt>
      <trkpt lat="43.63033" lon="6.5731">
        <ele>517</ele>
        <time>2013-08-17T06:30:02Z</time>
      </trkpt>
      <trkpt lat="43.63034" lon="6.57316">
        <ele>517</ele>
        <time>2013-08-17T06:30:03Z</time>
      </trkpt>
      <trkpt lat="43.63035" lon="6.57322">
        <ele>517</ele>
        <time>2013-08-17T06:30:04Z</time>
      </trkpt>
      <trkpt lat="43.63035" lon="6.57329">
        <ele>517</ele>
        <time>2013-08-17T06:30:05Z</time>
      </trkpt>
      <trkpt lat="43.63035" lon="6.57336">
        <ele>512</ele>
        <time>2013-08-17T06:30:06Z</time>
      </trkpt>
      <trkpt lat="43.63035" lon="6.57343">
        <ele>512</ele>
        <time>2013-08-17T06:30:07Z</time>
      </trkpt>
      <trkpt lat="43.63037" lon="6.57378">
        <ele>512</ele>
        <time>2013-08-17T06:30:12Z</time>
      </trkpt>
      <trkpt lat="43.63038" lon="6.57385">
        <ele>512</ele>
        <time>2013-08-17T06:30:13Z</time>
      </trkpt>
      <trkpt lat="43.63051" lon="6.57442">
        <ele>509</ele>
        <time>2013-08-17T06:30:21Z</time>
      </trkpt>
      <trkpt lat="43.63055" lon="6.57455">
        <ele>509</ele>
        <time>2013-08-17T06:30:23Z</time>
      </trkpt>
      <trkpt lat="43.63057" lon="6.57462">
        <ele>509</ele>
        <time>2013-08-17T06:30:24Z</time>
      </trkpt>
      <trkpt lat="43.63059" lon="6.57468">
        <ele>509</ele>
        <time>2013-08-17T06:30:25Z</time>
      </trkpt>
      <trkpt lat="43.63067" lon="6.57495">
        <ele>512</ele>
        <time>2013-08-17T06:30:29Z</time>
      </trkpt>
      <trkpt lat="43.63069" lon="6.57501">
        <ele>509</ele>
        <time>2013-08-17T06:30:30Z</time>
      </trkpt>
      <trkpt lat="43.63071" lon="6.57508">
        <ele>509</ele>
        <time>2013-08-17T06:30:31Z</time>
      </trkpt>
      <trkpt lat="43.63072" lon="6.57514">
        <ele>507</ele>
        <time>2013-08-17T06:30:32Z</time>
      </trkpt>
      <trkpt lat="43.63073" lon="6.57521">
        <ele>506</ele>
        <time>2013-08-17T06:30:33Z</time>
      </trkpt>
      <trkpt lat="43.63074" lon="6.57528">
        <ele>505</ele>
        <time>2013-08-17T06:30:34Z</time>
      </trkpt>
      <trkpt lat="43.63075" lon="6.57535">
        <ele>504</ele>
        <time>2013-08-17T06:30:35Z</time>
      </trkpt>
      <trkpt lat="43.63076" lon="6.57542">
        <ele>503</ele>
        <time>2013-08-17T06:30:36Z</time>
      </trkpt>
      <trkpt lat="43.63077" lon="6.57549">
        <ele>503</ele>
        <time>2013-08-17T06:30:37Z</time>
      </trkpt>
      <trkpt lat="43.63078" lon="6.57556">
        <ele>503</ele>
        <time>2013-08-17T06:30:38Z</time>
      </trkpt>
      <trkpt lat="43.63088" lon="6.5759">
        <ele>513</ele>
        <time>2013-08-17T06:30:43Z</time>
      </trkpt>
      <trkpt lat="43.63097" lon="6.57608">
        <ele>517</ele>
        <time>2013-08-17T06:30:46Z</time>
      </trkpt>
      <trkpt lat="43.631" lon="6.57614">
        <ele>518</ele>
        <time>2013-08-17T06:30:47Z</time>
      </trkpt>
      <trkpt lat="43.63109" lon="6.5763">
        <ele>519</ele>
        <time>2013-08-17T06:30:50Z</time>
      </trkpt>
      <trkpt lat="43.63112" lon="6.57636">
        <ele>519</ele>
        <time>2013-08-17T06:30:51Z</time>
      </trkpt>
      <trkpt lat="43.63114" lon="6.57641">
        <ele>519</ele>
        <time>2013-08-17T06:30:52Z</time>
      </trkpt>
      <trkpt lat="43.63116" lon="6.57647">
        <ele>519</ele>
        <time>2013-08-17T06:30:53Z</time>
      </trkpt>
      <trkpt lat="43.63119" lon="6.57653">
        <ele>519</ele>
        <time>2013-08-17T06:30:54Z</time>
      </trkpt>
      <trkpt lat="43.6312" lon="6.57658">
        <ele>520</ele>
        <time>2013-08-17T06:30:55Z</time>
      </trkpt>
      <trkpt lat="43.63122" lon="6.57664">
        <ele>520</ele>
        <time>2013-08-17T06:30:56Z</time>
      </trkpt>
      <trkpt lat="43.63124" lon="6.57669">
        <ele>517</ele>
        <time>2013-08-17T06:30:57Z</time>
      </trkpt>
      <trkpt lat="43.63126" lon="6.57675">
        <ele>518</ele>
        <time>2013-08-17T06:30:58Z</time>
      </trkpt>
      <trkpt lat="43.63127" lon="6.57681">
        <ele>518</ele>
        <time>2013-08-17T06:30:59Z</time>
      </trkpt>
      <trkpt lat="43.63128" lon="6.57686">
        <ele>518</ele>
        <time>2013-08-17T06:31:00Z</time>
      </trkpt>
      <trkpt lat="43.63129" lon="6.57691">
        <ele>518</ele>
        <time>2013-08-17T06:31:01Z</time>
      </trkpt>
      <trkpt lat="43.6313" lon="6.57696">
        <ele>518</ele>
        <time>2013-08-17T06:31:02Z</time>
      </trkpt>
      <trkpt lat="43.63131" lon="6.57701">
        <ele>518</ele>
        <time>2013-08-17T06:31:03Z</time>
      </trkpt>
      <trkpt lat="43.63136" lon="6.57724">
        <ele>519</ele>
        <time>2013-08-17T06:31:07Z</time>
      </trkpt>
      <trkpt lat="43.63137" lon="6.57731">
        <ele>520</ele>
        <time>2013-08-17T06:31:08Z</time>
      </trkpt>
      <trkpt lat="43.63137" lon="6.57737">
        <ele>521</ele>
        <time>2013-08-17T06:31:09Z</time>
      </trkpt>
      <trkpt lat="43.63138" lon="6.57744">
        <ele>521</ele>
        <time>2013-08-17T06:31:10Z</time>
      </trkpt>
      <trkpt lat="43.63137" lon="6.57751">
        <ele>519</ele>
        <time>2013-08-17T06:31:11Z</time>
      </trkpt>
      <trkpt lat="43.63137" lon="6.57758">
        <ele>519</ele>
        <time>2013-08-17T06:31:12Z</time>
      </trkpt>
      <trkpt lat="43.63136" lon="6.57771">
        <ele>517</ele>
        <time>2013-08-17T06:31:14Z</time>
      </trkpt>
      <trkpt lat="43.63136" lon="6.57778">
        <ele>517</ele>
        <time>2013-08-17T06:31:15Z</time>
      </trkpt>
      <trkpt lat="43.63136" lon="6.57791">
        <ele>516</ele>
        <time>2013-08-17T06:31:17Z</time>
      </trkpt>
      <trkpt lat="43.63137" lon="6.57804">
        <ele>516</ele>
        <time>2013-08-17T06:31:19Z</time>
      </trkpt>
      <trkpt lat="43.63139" lon="6.57822">
        <ele>518</ele>
        <time>2013-08-17T06:31:22Z</time>
      </trkpt>
      <trkpt lat="43.63139" lon="6.57828">
        <ele>518</ele>
        <time>2013-08-17T06:31:23Z</time>
      </trkpt>
      <trkpt lat="43.6314" lon="6.57835">
        <ele>517</ele>
        <time>2013-08-17T06:31:24Z</time>
      </trkpt>
      <trkpt lat="43.63141" lon="6.57841">
        <ele>517</ele>
        <time>2013-08-17T06:31:25Z</time>
      </trkpt>
      <trkpt lat="43.63141" lon="6.57847">
        <ele>517</ele>
        <time>2013-08-17T06:31:26Z</time>
      </trkpt>
      <trkpt lat="43.63142" lon="6.57853">
        <ele>516</ele>
        <time>2013-08-17T06:31:27Z</time>
      </trkpt>
      <trkpt lat="43.63143" lon="6.57859">
        <ele>516</ele>
        <time>2013-08-17T06:31:28Z</time>
      </trkpt>
      <trkpt lat="43.63145" lon="6.57871">
        <ele>515</ele>
        <time>2013-08-17T06:31:30Z</time>
      </trkpt>
      <trkpt lat="43.63145" lon="6.57877">
        <ele>515</ele>
        <time>2013-08-17T06:31:31Z</time>
      </trkpt>
      <trkpt lat="43.63152" lon="6.57911">
        <ele>519</ele>
        <time>2013-08-17T06:31:37Z</time>
      </trkpt>
      <trkpt lat="43.63153" lon="6.57917">
        <ele>518</ele>
        <time>2013-08-17T06:31:38Z</time>
      </trkpt>
      <trkpt lat="43.63158" lon="6.57934">
        <ele>517</ele>
        <time>2013-08-17T06:31:41Z</time>
      </trkpt>
      <trkpt lat="43.6316" lon="6.5794">
        <ele>516</ele>
        <time>2013-08-17T06:31:42Z</time>
      </trkpt>
      <trkpt lat="43.63167" lon="6.57957">
        <ele>514</ele>
        <time>2013-08-17T06:31:45Z</time>
      </trkpt>
      <trkpt lat="43.63176" lon="6.57976">
        <ele>531</ele>
        <time>2013-08-17T06:31:49Z</time>
      </trkpt>
      <trkpt lat="43.63183" lon="6.57991">
        <ele>529</ele>
        <time>2013-08-17T06:31:52Z</time>
      </trkpt>
      <trkpt lat="43.63209" lon="6.58043">
        <ele>529</ele>
        <time>2013-08-17T06:32:03Z</time>
      </trkpt>
      <trkpt lat="43.63208" lon="6.58098">
        <ele>531</ele>
        <time>2013-08-17T06:32:14Z</time>
      </trkpt>
      <trkpt lat="43.63204" lon="6.58103">
        <ele>531</ele>
        <time>2013-08-17T06:32:15Z</time>
      </trkpt>
      <trkpt lat="43.63201" lon="6.58106">
        <ele>531</ele>
        <time>2013-08-17T06:32:16Z</time>
      </trkpt>
      <trkpt lat="43.63198" lon="6.58109">
        <ele>531</ele>
        <time>2013-08-17T06:32:17Z</time>
      </trkpt>
      <trkpt lat="43.63195" lon="6.58112">
        <ele>531</ele>
        <time>2013-08-17T06:32:18Z</time>
      </trkpt>
      <trkpt lat="43.63193" lon="6.58115">
        <ele>531</ele>
        <time>2013-08-17T06:32:19Z</time>
      </trkpt>
      <trkpt lat="43.6319" lon="6.58118">
        <ele>532</ele>
        <time>2013-08-17T06:32:20Z</time>
      </trkpt>
      <trkpt lat="43.63149" lon="6.58136">
        <ele>530</ele>
        <time>2013-08-17T06:32:32Z</time>
      </trkpt>
      <trkpt lat="43.63092" lon="6.58129">
        <ele>530</ele>
        <time>2013-08-17T06:32:46Z</time>
      </trkpt>
      <trkpt lat="43.63046" lon="6.58114">
        <ele>535</ele>
        <time>2013-08-17T06:32:58Z</time>
      </trkpt>
      <trkpt lat="43.62999" lon="6.58102">
        <ele>539</ele>
        <time>2013-08-17T06:33:10Z</time>
      </trkpt>
      <trkpt lat="43.62961" lon="6.58097">
        <ele>541</ele>
        <time>2013-08-17T06:33:22Z</time>
      </trkpt>
      <trkpt lat="43.62929" lon="6.58092">
        <ele>540</ele>
        <time>2013-08-17T06:33:32Z</time>
      </trkpt>
      <trkpt lat="43.62889" lon="6.58074">
        <ele>533</ele>
        <time>2013-08-17T06:33:44Z</time>
      </trkpt>
      <trkpt lat="43.62861" lon="6.58036">
        <ele>531</ele>
        <time>2013-08-17T06:33:55Z</time>
      </trkpt>
      <trkpt lat="43.6283" lon="6.58029">
        <ele>528</ele>
        <time>2013-08-17T06:34:06Z</time>
      </trkpt>
      <trkpt lat="43.62816" lon="6.58081">
        <ele>531</ele>
        <time>2013-08-17T06:34:18Z</time>
      </trkpt>
      <trkpt lat="43.62812" lon="6.58133">
        <ele>533</ele>
        <time>2013-08-17T06:34:29Z</time>
      </trkpt>
      <trkpt lat="43.62815" lon="6.58177">
        <ele>540</ele>
        <time>2013-08-17T06:34:39Z</time>
      </trkpt>
      <trkpt lat="43.62803" lon="6.58212">
        <ele>538</ele>
        <time>2013-08-17T06:34:49Z</time>
      </trkpt>
      <trkpt lat="43.62794" lon="6.58268">
        <ele>543</ele>
        <time>2013-08-17T06:35:00Z</time>
      </trkpt>
      <trkpt lat="43.62792" lon="6.58326">
        <ele>545</ele>
        <time>2013-08-17T06:35:12Z</time>
      </trkpt>
      <trkpt lat="43.62785" lon="6.5837">
        <ele>551</ele>
        <time>2013-08-17T06:35:22Z</time>
      </trkpt>
      <trkpt lat="43.62772" lon="6.58417">
        <ele>550</ele>
        <time>2013-08-17T06:35:32Z</time>
      </trkpt>
      <trkpt lat="43.6277" lon="6.58426">
        <ele>550</ele>
        <time>2013-08-17T06:35:34Z</time>
      </trkpt>
      <trkpt lat="43.62772" lon="6.58432">
        <ele>550</ele>
        <time>2013-08-17T06:35:35Z</time>
      </trkpt>
      <trkpt lat="43.62774" lon="6.58437">
        <ele>551</ele>
        <time>2013-08-17T06:35:36Z</time>
      </trkpt>
      <trkpt lat="43.62775" lon="6.58442">
        <ele>552</ele>
        <time>2013-08-17T06:35:37Z</time>
      </trkpt>
      <trkpt lat="43.62776" lon="6.58447">
        <ele>552</ele>
        <time>2013-08-17T06:35:38Z</time>
      </trkpt>
      <trkpt lat="43.62777" lon="6.58452">
        <ele>552</ele>
        <time>2013-08-17T06:35:39Z</time>
      </trkpt>
      <trkpt lat="43.62779" lon="6.58457">
        <ele>553</ele>
        <time>2013-08-17T06:35:40Z</time>
      </trkpt>
      <trkpt lat="43.62804" lon="6.58515">
        <ele>557</ele>
        <time>2013-08-17T06:35:53Z</time>
      </trkpt>
      <trkpt lat="43.62808" lon="6.58554">
        <ele>556</ele>
        <time>2013-08-17T06:36:02Z</time>
      </trkpt>
      <trkpt lat="43.62808" lon="6.58558">
        <ele>557</ele>
        <time>2013-08-17T06:36:03Z</time>
      </trkpt>
      <trkpt lat="43.62808" lon="6.58561">
        <ele>557</ele>
        <time>2013-08-17T06:36:04Z</time>
      </trkpt>
      <trkpt lat="43.62807" lon="6.58566">
        <ele>557</ele>
        <time>2013-08-17T06:36:05Z</time>
      </trkpt>
      <trkpt lat="43.62806" lon="6.5857">
        <ele>557</ele>
        <time>2013-08-17T06:36:06Z</time>
      </trkpt>
      <trkpt lat="43.62806" lon="6.58575">
        <ele>557</ele>
        <time>2013-08-17T06:36:07Z</time>
      </trkpt>
      <trkpt lat="43.62805" lon="6.5858">
        <ele>557</ele>
        <time>2013-08-17T06:36:08Z</time>
      </trkpt>
      <trkpt lat="43.62806" lon="6.58585">
        <ele>558</ele>
        <time>2013-08-17T06:36:09Z</time>
      </trkpt>
      <trkpt lat="43.62807" lon="6.5859">
        <ele>558</ele>
        <time>2013-08-17T06:36:10Z</time>
      </trkpt>
      <trkpt lat="43.62811" lon="6.58634">
        <ele>559</ele>
        <time>2013-08-17T06:36:19Z</time>
      </trkpt>
      <trkpt lat="43.62809" lon="6.5864">
        <ele>559</ele>
        <time>2013-08-17T06:36:20Z</time>
      </trkpt>
      <trkpt lat="43.62808" lon="6.58645">
        <ele>559</ele>
        <time>2013-08-17T06:36:21Z</time>
      </trkpt>
      <trkpt lat="43.62806" lon="6.58649">
        <ele>559</ele>
        <time>2013-08-17T06:36:22Z</time>
      </trkpt>
      <trkpt lat="43.62773" lon="6.58697">
        <ele>561</ele>
        <time>2013-08-17T06:36:35Z</time>
      </trkpt>
      <trkpt lat="43.62745" lon="6.58737">
        <ele>551</ele>
        <time>2013-08-17T06:36:46Z</time>
      </trkpt>
      <trkpt lat="43.62745" lon="6.58789">
        <ele>549</ele>
        <time>2013-08-17T06:36:57Z</time>
      </trkpt>
      <trkpt lat="43.62753" lon="6.58847">
        <ele>566</ele>
        <time>2013-08-17T06:37:09Z</time>
      </trkpt>
      <trkpt lat="43.62755" lon="6.58876">
        <ele>568</ele>
        <time>2013-08-17T06:37:15Z</time>
      </trkpt>
      <trkpt lat="43.62756" lon="6.58881">
        <ele>568</ele>
        <time>2013-08-17T06:37:16Z</time>
      </trkpt>
      <trkpt lat="43.62763" lon="6.58914">
        <ele>564</ele>
        <time>2013-08-17T06:37:25Z</time>
      </trkpt>
      <trkpt lat="43.62761" lon="6.58928">
        <ele>564</ele>
        <time>2013-08-17T06:37:27Z</time>
      </trkpt>
      <trkpt lat="43.62766" lon="6.59022">
        <ele>562</ele>
        <time>2013-08-17T06:37:43Z</time>
      </trkpt>
      <trkpt lat="43.62788" lon="6.59073">
        <ele>563</ele>
        <time>2013-08-17T06:37:56Z</time>
      </trkpt>
      <trkpt lat="43.62813" lon="6.59118">
        <ele>557</ele>
        <time>2013-08-17T06:38:09Z</time>
      </trkpt>
      <trkpt lat="43.62854" lon="6.5914">
        <ele>573</ele>
        <time>2013-08-17T06:38:23Z</time>
      </trkpt>
      <trkpt lat="43.62882" lon="6.59198">
        <ele>569</ele>
        <time>2013-08-17T06:38:38Z</time>
      </trkpt>
      <trkpt lat="43.62896" lon="6.5926">
        <ele>569</ele>
        <time>2013-08-17T06:38:52Z</time>
      </trkpt>
      <trkpt lat="43.62895" lon="6.59318">
        <ele>568</ele>
        <time>2013-08-17T06:39:04Z</time>
      </trkpt>
      <trkpt lat="43.62904" lon="6.59383">
        <ele>565</ele>
        <time>2013-08-17T06:39:18Z</time>
      </trkpt>
      <trkpt lat="43.62926" lon="6.59422">
        <ele>572</ele>
        <time>2013-08-17T06:39:30Z</time>
      </trkpt>
      <trkpt lat="43.62956" lon="6.59446">
        <ele>576</ele>
        <time>2013-08-17T06:39:41Z</time>
      </trkpt>
      <trkpt lat="43.62999" lon="6.59476">
        <ele>578</ele>
        <time>2013-08-17T06:39:55Z</time>
      </trkpt>
      <trkpt lat="43.63021" lon="6.59534">
        <ele>583</ele>
        <time>2013-08-17T06:40:09Z</time>
      </trkpt>
      <trkpt lat="43.63045" lon="6.59582">
        <ele>584</ele>
        <time>2013-08-17T06:40:23Z</time>
      </trkpt>
      <trkpt lat="43.63085" lon="6.59601">
        <ele>590</ele>
        <time>2013-08-17T06:40:36Z</time>
      </trkpt>
      <trkpt lat="43.63125" lon="6.59624">
        <ele>590</ele>
        <time>2013-08-17T06:40:49Z</time>
      </trkpt>
      <trkpt lat="43.63168" lon="6.59666">
        <ele>591</ele>
        <time>2013-08-17T06:41:04Z</time>
      </trkpt>
      <trkpt lat="43.63204" lon="6.597">
        <ele>597</ele>
        <time>2013-08-17T06:41:17Z</time>
      </trkpt>
      <trkpt lat="43.63221" lon="6.59739">
        <ele>597</ele>
        <time>2013-08-17T06:41:27Z</time>
      </trkpt>
      <trkpt lat="43.63243" lon="6.5978">
        <ele>587</ele>
        <time>2013-08-17T06:41:38Z</time>
      </trkpt>
      <trkpt lat="43.63269" lon="6.59822">
        <ele>601</ele>
        <time>2013-08-17T06:41:51Z</time>
      </trkpt>
      <trkpt lat="43.63309" lon="6.59857">
        <ele>597</ele>
        <time>2013-08-17T06:42:06Z</time>
      </trkpt>
      <trkpt lat="43.63344" lon="6.59891">
        <ele>608</ele>
        <time>2013-08-17T06:42:20Z</time>
      </trkpt>
      <trkpt lat="43.6338" lon="6.59918">
        <ele>599</ele>
        <time>2013-08-17T06:42:34Z</time>
      </trkpt>
      <trkpt lat="43.63414" lon="6.59933">
        <ele>605</ele>
        <time>2013-08-17T06:42:47Z</time>
      </trkpt>
      <trkpt lat="43.63452" lon="6.59958">
        <ele>615</ele>
        <time>2013-08-17T06:43:00Z</time>
      </trkpt>
      <trkpt lat="43.63466" lon="6.60001">
        <ele>613</ele>
        <time>2013-08-17T06:43:12Z</time>
      </trkpt>
      <trkpt lat="43.63465" lon="6.60008">
        <ele>613</ele>
        <time>2013-08-17T06:43:23Z</time>
      </trkpt>
      <trkpt lat="43.63464" lon="6.60011">
        <ele>613</ele>
        <time>2013-08-17T06:43:24Z</time>
      </trkpt>
      <trkpt lat="43.63445" lon="6.60054">
        <ele>615</ele>
        <time>2013-08-17T06:43:36Z</time>
      </trkpt>
      <trkpt lat="43.63416" lon="6.60058">
        <ele>607</ele>
        <time>2013-08-17T06:43:46Z</time>
      </trkpt>
      <trkpt lat="43.63378" lon="6.60064">
        <ele>603</ele>
        <time>2013-08-17T06:43:58Z</time>
      </trkpt>
      <trkpt lat="43.63341" lon="6.60103">
        <ele>617</ele>
        <time>2013-08-17T06:44:13Z</time>
      </trkpt>
      <trkpt lat="43.63307" lon="6.60138">
        <ele>616</ele>
        <time>2013-08-17T06:44:29Z</time>
      </trkpt>
      <trkpt lat="43.63278" lon="6.60169">
        <ele>633</ele>
        <time>2013-08-17T06:44:43Z</time>
      </trkpt>
      <trkpt lat="43.63251" lon="6.60182">
        <ele>629</ele>
        <time>2013-08-17T06:44:54Z</time>
      </trkpt>
      <trkpt lat="43.63223" lon="6.60189">
        <ele>629</ele>
        <time>2013-08-17T06:45:05Z</time>
      </trkpt>
      <trkpt lat="43.63189" lon="6.60182">
        <ele>628</ele>
        <time>2013-08-17T06:45:18Z</time>
      </trkpt>
      <trkpt lat="43.6316" lon="6.60166">
        <ele>620</ele>
        <time>2013-08-17T06:45:30Z</time>
      </trkpt>
      <trkpt lat="43.63123" lon="6.6016">
        <ele>616</ele>
        <time>2013-08-17T06:45:45Z</time>
      </trkpt>
      <trkpt lat="43.63103" lon="6.60191">
        <ele>629</ele>
        <time>2013-08-17T06:45:56Z</time>
      </trkpt>
      <trkpt lat="43.6308" lon="6.60224">
        <ele>629</ele>
        <time>2013-08-17T06:46:09Z</time>
      </trkpt>
      <trkpt lat="43.63046" lon="6.60248">
        <ele>628</ele>
        <time>2013-08-17T06:46:23Z</time>
      </trkpt>
      <trkpt lat="43.63021" lon="6.60264">
        <ele>636</ele>
        <time>2013-08-17T06:46:34Z</time>
      </trkpt>
      <trkpt lat="43.63" lon="6.60297">
        <ele>633</ele>
        <time>2013-08-17T06:46:46Z</time>
      </trkpt>
      <trkpt lat="43.6298" lon="6.60316">
        <ele>635</ele>
        <time>2013-08-17T06:46:56Z</time>
      </trkpt>
      <trkpt lat="43.62952" lon="6.60315">
        <ele>632</ele>
        <time>2013-08-17T06:47:08Z</time>
      </trkpt>
      <trkpt lat="43.62924" lon="6.60344">
        <ele>639</ele>
        <time>2013-08-17T06:47:21Z</time>
      </trkpt>
      <trkpt lat="43.62899" lon="6.60382">
        <ele>637</ele>
        <time>2013-08-17T06:47:35Z</time>
      </trkpt>
      <trkpt lat="43.62875" lon="6.60422">
        <ele>651</ele>
        <time>2013-08-17T06:47:48Z</time>
      </trkpt>
      <trkpt lat="43.62844" lon="6.60449">
        <ele>650</ele>
        <time>2013-08-17T06:48:01Z</time>
      </trkpt>
      <trkpt lat="43.6283" lon="6.60454">
        <ele>639</ele>
        <time>2013-08-17T06:48:06Z</time>
      </trkpt>
      <trkpt lat="43.62828" lon="6.60454">
        <ele>639</ele>
        <time>2013-08-17T06:48:07Z</time>
      </trkpt>
      <trkpt lat="43.62824" lon="6.60454">
        <ele>639</ele>
        <time>2013-08-17T06:48:08Z</time>
      </trkpt>
      <trkpt lat="43.6279" lon="6.6048">
        <ele>639</ele>
        <time>2013-08-17T06:48:21Z</time>
      </trkpt>
      <trkpt lat="43.62779" lon="6.60524">
        <ele>651</ele>
        <time>2013-08-17T06:48:32Z</time>
      </trkpt>
      <trkpt lat="43.62788" lon="6.60577">
        <ele>655</ele>
        <time>2013-08-17T06:48:45Z</time>
      </trkpt>
      <trkpt lat="43.62792" lon="6.60639">
        <ele>661</ele>
        <time>2013-08-17T06:48:59Z</time>
      </trkpt>
      <trkpt lat="43.62782" lon="6.60694">
        <ele>663</ele>
        <time>2013-08-17T06:49:12Z</time>
      </trkpt>
      <trkpt lat="43.62774" lon="6.6075">
        <ele>665</ele>
        <time>2013-08-17T06:49:24Z</time>
      </trkpt>
      <trkpt lat="43.62767" lon="6.60792">
        <ele>664</ele>
        <time>2013-08-17T06:49:32Z</time>
      </trkpt>
      <trkpt lat="43.62767" lon="6.60798">
        <ele>664</ele>
        <time>2013-08-17T06:49:33Z</time>
      </trkpt>
      <trkpt lat="43.62766" lon="6.60804">
        <ele>664</ele>
        <time>2013-08-17T06:49:34Z</time>
      </trkpt>
      <trkpt lat="43.62758" lon="6.60848">
        <ele>662</ele>
        <time>2013-08-17T06:49:41Z</time>
      </trkpt>
      <trkpt lat="43.62752" lon="6.60877">
        <ele>661</ele>
        <time>2013-08-17T06:49:47Z</time>
      </trkpt>
      <trkpt lat="43.62749" lon="6.60879">
        <ele>668</ele>
        <time>2013-08-17T06:49:48Z</time>
      </trkpt>
      <trkpt lat="43.62747" lon="6.60879">
        <ele>668</ele>
        <time>2013-08-17T06:49:49Z</time>
      </trkpt>
      <trkpt lat="43.62745" lon="6.60879">
        <ele>668</ele>
        <time>2013-08-17T06:49:50Z</time>
      </trkpt>
      <trkpt lat="43.62744" lon="6.60877">
        <ele>668</ele>
        <time>2013-08-17T06:50:02Z</time>
      </trkpt>
      <trkpt lat="43.62744" lon="6.60877">
        <ele>668</ele>
        <time>2013-08-17T06:50:25Z</time>
      </trkpt>
      <trkpt lat="43.62744" lon="6.60878">
        <ele>668</ele>
        <time>2013-08-17T06:51:03Z</time>
      </trkpt>
      <trkpt lat="43.62746" lon="6.60879">
        <ele>668</ele>
        <time>2013-08-17T06:51:32Z</time>
      </trkpt>
      <trkpt lat="43.62747" lon="6.60879">
        <ele>668</ele>
        <time>2013-08-17T06:51:33Z</time>
      </trkpt>
      <trkpt lat="43.62753" lon="6.6088">
        <ele>660</ele>
        <time>2013-08-17T06:51:41Z</time>
      </trkpt>
      <trkpt lat="43.62755" lon="6.60881">
        <ele>660</ele>
        <time>2013-08-17T06:51:42Z</time>
      </trkpt>
      <trkpt lat="43.62757" lon="6.60882">
        <ele>660</ele>
        <time>2013-08-17T06:51:44Z</time>
      </trkpt>
      <trkpt lat="43.62761" lon="6.60885">
        <ele>660</ele>
        <time>2013-08-17T06:51:50Z</time>
      </trkpt>
      <trkpt lat="43.6276" lon="6.60885">
        <ele>660</ele>
        <time>2013-08-17T06:51:51Z</time>
      </trkpt>
      <trkpt lat="43.62759" lon="6.60885">
        <ele>660</ele>
        <time>2013-08-17T06:51:52Z</time>
      </trkpt>
      <trkpt lat="43.62757" lon="6.60884">
        <ele>660</ele>
        <time>2013-08-17T06:51:53Z</time>
      </trkpt>
      <trkpt lat="43.62755" lon="6.60884">
        <ele>660</ele>
        <time>2013-08-17T06:51:54Z</time>
      </trkpt>
      <trkpt lat="43.62754" lon="6.60883">
        <ele>660</ele>
        <time>2013-08-17T06:51:55Z</time>
      </trkpt>
      <trkpt lat="43.62752" lon="6.60881">
        <ele>660</ele>
        <time>2013-08-17T06:51:56Z</time>
      </trkpt>
      <trkpt lat="43.62751" lon="6.6088">
        <ele>660</ele>
        <time>2013-08-17T06:51:57Z</time>
      </trkpt>
      <trkpt lat="43.62749" lon="6.60879">
        <ele>668</ele>
        <time>2013-08-17T06:51:58Z</time>
      </trkpt>
      <trkpt lat="43.62748" lon="6.60878">
        <ele>668</ele>
        <time>2013-08-17T06:51:59Z</time>
      </trkpt>
      <trkpt lat="43.62747" lon="6.60878">
        <ele>668</ele>
        <time>2013-08-17T06:52:00Z</time>
      </trkpt>
      <trkpt lat="43.62746" lon="6.60878">
        <ele>668</ele>
        <time>2013-08-17T06:52:01Z</time>
      </trkpt>
      <trkpt lat="43.62745" lon="6.60877">
        <ele>668</ele>
        <time>2013-08-17T06:52:02Z</time>
      </trkpt>
      <trkpt lat="43.62744" lon="6.60876">
        <ele>669</ele>
        <time>2013-08-17T06:52:03Z</time>
      </trkpt>
      <trkpt lat="43.62743" lon="6.60871">
        <ele>669</ele>
        <time>2013-08-17T06:52:15Z</time>
      </trkpt>
      <trkpt lat="43.62742" lon="6.60867">
        <ele>669</ele>
        <time>2013-08-17T06:52:18Z</time>
      </trkpt>
      <trkpt lat="43.62743" lon="6.60866">
        <ele>669</ele>
        <time>2013-08-17T06:52:19Z</time>
      </trkpt>
      <trkpt lat="43.62743" lon="6.60864">
        <ele>669</ele>
        <time>2013-08-17T06:52:20Z</time>
      </trkpt>
      <trkpt lat="43.62743" lon="6.60862">
        <ele>669</ele>
        <time>2013-08-17T06:52:21Z</time>
      </trkpt>
      <trkpt lat="43.62743" lon="6.60859">
        <ele>668</ele>
        <time>2013-08-17T06:52:22Z</time>
      </trkpt>
      <trkpt lat="43.62743" lon="6.60857">
        <ele>668</ele>
        <time>2013-08-17T06:52:23Z</time>
      </trkpt>
      <trkpt lat="43.62738" lon="6.60833">
        <ele>668</ele>
        <time>2013-08-17T06:52:35Z</time>
      </trkpt>
      <trkpt lat="43.62731" lon="6.60813">
        <ele>673</ele>
        <time>2013-08-17T06:52:46Z</time>
      </trkpt>
      <trkpt lat="43.62731" lon="6.60812">
        <ele>673</ele>
        <time>2013-08-17T06:52:47Z</time>
      </trkpt>
      <trkpt lat="43.6273" lon="6.6081">
        <ele>674</ele>
        <time>2013-08-17T06:52:48Z</time>
      </trkpt>
      <trkpt lat="43.6273" lon="6.60808">
        <ele>674</ele>
        <time>2013-08-17T06:52:49Z</time>
      </trkpt>
      <trkpt lat="43.62729" lon="6.60806">
        <ele>674</ele>
        <time>2013-08-17T06:52:50Z</time>
      </trkpt>
      <trkpt lat="43.62729" lon="6.60804">
        <ele>674</ele>
        <time>2013-08-17T06:52:51Z</time>
      </trkpt>
      <trkpt lat="43.62729" lon="6.60802">
        <ele>675</ele>
        <time>2013-08-17T06:52:52Z</time>
      </trkpt>
      <trkpt lat="43.62729" lon="6.60799">
        <ele>675</ele>
        <time>2013-08-17T06:52:53Z</time>
      </trkpt>
      <trkpt lat="43.62728" lon="6.60797">
        <ele>675</ele>
        <time>2013-08-17T06:52:54Z</time>
      </trkpt>
      <trkpt lat="43.62732" lon="6.6077">
        <ele>674</ele>
        <time>2013-08-17T06:53:08Z</time>
      </trkpt>
      <trkpt lat="43.62737" lon="6.60747">
        <ele>671</ele>
        <time>2013-08-17T06:53:21Z</time>
      </trkpt>
      <trkpt lat="43.62734" lon="6.60734">
        <ele>673</ele>
        <time>2013-08-17T06:53:29Z</time>
      </trkpt>
      <trkpt lat="43.62733" lon="6.60731">
        <ele>673</ele>
        <time>2013-08-17T06:53:31Z</time>
      </trkpt>
      <trkpt lat="43.62732" lon="6.60729">
        <ele>673</ele>
        <time>2013-08-17T06:53:32Z</time>
      </trkpt>
      <trkpt lat="43.62731" lon="6.60728">
        <ele>674</ele>
        <time>2013-08-17T06:53:33Z</time>
      </trkpt>
      <trkpt lat="43.62731" lon="6.60726">
        <ele>674</ele>
        <time>2013-08-17T06:53:34Z</time>
      </trkpt>
      <trkpt lat="43.62721" lon="6.60704">
        <ele>675</ele>
        <time>2013-08-17T06:53:49Z</time>
      </trkpt>
      <trkpt lat="43.62721" lon="6.60702">
        <ele>675</ele>
        <time>2013-08-17T06:53:51Z</time>
      </trkpt>
      <trkpt lat="43.6272" lon="6.607">
        <ele>675</ele>
        <time>2013-08-17T06:53:52Z</time>
      </trkpt>
      <trkpt lat="43.62708" lon="6.60683">
        <ele>676</ele>
        <time>2013-08-17T06:54:06Z</time>
      </trkpt>
      <trkpt lat="43.62701" lon="6.60677">
        <ele>677</ele>
        <time>2013-08-17T06:54:14Z</time>
      </trkpt>
      <trkpt lat="43.627" lon="6.60676">
        <ele>678</ele>
        <time>2013-08-17T06:54:15Z</time>
      </trkpt>
      <trkpt lat="43.62699" lon="6.60675">
        <ele>678</ele>
        <time>2013-08-17T06:54:16Z</time>
      </trkpt>
      <trkpt lat="43.62698" lon="6.60674">
        <ele>678</ele>
        <time>2013-08-17T06:54:17Z</time>
      </trkpt>
      <trkpt lat="43.62697" lon="6.60672">
        <ele>678</ele>
        <time>2013-08-17T06:54:18Z</time>
      </trkpt>
      <trkpt lat="43.62696" lon="6.60671">
        <ele>678</ele>
        <time>2013-08-17T06:54:19Z</time>
      </trkpt>
      <trkpt lat="43.62695" lon="6.6067">
        <ele>678</ele>
        <time>2013-08-17T06:54:20Z</time>
      </trkpt>
      <trkpt lat="43.62679" lon="6.60657">
        <ele>678</ele>
        <time>2013-08-17T06:54:35Z</time>
      </trkpt>
      <trkpt lat="43.62663" lon="6.60647">
        <ele>688</ele>
        <time>2013-08-17T06:54:50Z</time>
      </trkpt>
      <trkpt lat="43.62663" lon="6.60646">
        <ele>688</ele>
        <time>2013-08-17T06:54:51Z</time>
      </trkpt>
      <trkpt lat="43.62658" lon="6.60641">
        <ele>688</ele>
        <time>2013-08-17T06:54:56Z</time>
      </trkpt>
      <trkpt lat="43.62657" lon="6.60641">
        <ele>688</ele>
        <time>2013-08-17T06:54:57Z</time>
      </trkpt>
      <trkpt lat="43.62656" lon="6.6064">
        <ele>688</ele>
        <time>2013-08-17T06:54:58Z</time>
      </trkpt>
      <trkpt lat="43.62655" lon="6.60639">
        <ele>688</ele>
        <time>2013-08-17T06:54:59Z</time>
      </trkpt>
      <trkpt lat="43.62654" lon="6.60639">
        <ele>688</ele>
        <time>2013-08-17T06:55:00Z</time>
      </trkpt>
      <trkpt lat="43.62653" lon="6.60638">
        <ele>689</ele>
        <time>2013-08-17T06:55:01Z</time>
      </trkpt>
      <trkpt lat="43.62633" lon="6.60634">
        <ele>690</ele>
        <time>2013-08-17T06:55:16Z</time>
      </trkpt>
      <trkpt lat="43.62628" lon="6.60633">
        <ele>691</ele>
        <time>2013-08-17T06:55:20Z</time>
      </trkpt>
      <trkpt lat="43.62627" lon="6.60633">
        <ele>691</ele>
        <time>2013-08-17T06:55:21Z</time>
      </trkpt>
      <trkpt lat="43.62625" lon="6.60633">
        <ele>691</ele>
        <time>2013-08-17T06:55:22Z</time>
      </trkpt>
      <trkpt lat="43.62624" lon="6.60632">
        <ele>692</ele>
        <time>2013-08-17T06:55:23Z</time>
      </trkpt>
      <trkpt lat="43.62623" lon="6.60632">
        <ele>692</ele>
        <time>2013-08-17T06:55:24Z</time>
      </trkpt>
      <trkpt lat="43.62621" lon="6.60631">
        <ele>692</ele>
        <time>2013-08-17T06:55:25Z</time>
      </trkpt>
      <trkpt lat="43.6262" lon="6.60631">
        <ele>692</ele>
        <time>2013-08-17T06:55:26Z</time>
      </trkpt>
      <trkpt lat="43.62619" lon="6.6063">
        <ele>692</ele>
        <time>2013-08-17T06:55:27Z</time>
      </trkpt>
      <trkpt lat="43.62617" lon="6.6063">
        <ele>692</ele>
        <time>2013-08-17T06:55:28Z</time>
      </trkpt>
      <trkpt lat="43.62616" lon="6.6063">
        <ele>692</ele>
        <time>2013-08-17T06:55:29Z</time>
      </trkpt>
      <trkpt lat="43.62615" lon="6.60629">
        <ele>692</ele>
        <time>2013-08-17T06:55:30Z</time>
      </trkpt>
      <trkpt lat="43.62614" lon="6.60628">
        <ele>692</ele>
        <time>2013-08-17T06:55:31Z</time>
      </trkpt>
      <trkpt lat="43.62612" lon="6.60627">
        <ele>693</ele>
        <time>2013-08-17T06:55:32Z</time>
      </trkpt>
      <trkpt lat="43.62611" lon="6.60626">
        <ele>693</ele>
        <time>2013-08-17T06:55:33Z</time>
      </trkpt>
      <trkpt lat="43.6261" lon="6.60625">
        <ele>693</ele>
        <time>2013-08-17T06:55:34Z</time>
      </trkpt>
      <trkpt lat="43.62608" lon="6.60624">
        <ele>693</ele>
        <time>2013-08-17T06:55:35Z</time>
      </trkpt>
      <trkpt lat="43.62589" lon="6.60607">
        <ele>693</ele>
        <time>2013-08-17T06:55:50Z</time>
      </trkpt>
      <trkpt lat="43.62569" lon="6.60595">
        <ele>702</ele>
        <time>2013-08-17T06:56:06Z</time>
      </trkpt>
      <trkpt lat="43.62563" lon="6.60594">
        <ele>704</ele>
        <time>2013-08-17T06:56:10Z</time>
      </trkpt>
      <trkpt lat="43.62562" lon="6.60594">
        <ele>704</ele>
        <time>2013-08-17T06:56:11Z</time>
      </trkpt>
      <trkpt lat="43.62561" lon="6.60593">
        <ele>704</ele>
        <time>2013-08-17T06:56:12Z</time>
      </trkpt>
      <trkpt lat="43.6256" lon="6.60592">
        <ele>704</ele>
        <time>2013-08-17T06:56:13Z</time>
      </trkpt>
      <trkpt lat="43.62558" lon="6.60592">
        <ele>705</ele>
        <time>2013-08-17T06:56:14Z</time>
      </trkpt>
      <trkpt lat="43.62557" lon="6.60591">
        <ele>705</ele>
        <time>2013-08-17T06:56:15Z</time>
      </trkpt>
      <trkpt lat="43.62555" lon="6.60591">
        <ele>705</ele>
        <time>2013-08-17T06:56:16Z</time>
      </trkpt>
      <trkpt lat="43.62554" lon="6.6059">
        <ele>705</ele>
        <time>2013-08-17T06:56:17Z</time>
      </trkpt>
      <trkpt lat="43.62549" lon="6.60588">
        <ele>706</ele>
        <time>2013-08-17T06:56:21Z</time>
      </trkpt>
      <trkpt lat="43.62532" lon="6.60585">
        <ele>709</ele>
        <time>2013-08-17T06:56:33Z</time>
      </trkpt>
      <trkpt lat="43.62529" lon="6.60584">
        <ele>709</ele>
        <time>2013-08-17T06:56:35Z</time>
      </trkpt>
      <trkpt lat="43.62528" lon="6.60583">
        <ele>698</ele>
        <time>2013-08-17T06:56:36Z</time>
      </trkpt>
      <trkpt lat="43.62519" lon="6.60577">
        <ele>700</ele>
        <time>2013-08-17T06:56:48Z</time>
      </trkpt>
      <trkpt lat="43.6251" lon="6.60575">
        <ele>703</ele>
        <time>2013-08-17T06:56:57Z</time>
      </trkpt>
      <trkpt lat="43.62496" lon="6.60571">
        <ele>712</ele>
        <time>2013-08-17T06:57:11Z</time>
      </trkpt>
      <trkpt lat="43.6249" lon="6.60569">
        <ele>712</ele>
        <time>2013-08-17T06:57:18Z</time>
      </trkpt>
      <trkpt lat="43.62486" lon="6.60564">
        <ele>712</ele>
        <time>2013-08-17T06:57:31Z</time>
      </trkpt>
      <trkpt lat="43.62483" lon="6.6056">
        <ele>712</ele>
        <time>2013-08-17T06:57:34Z</time>
      </trkpt>
      <trkpt lat="43.62482" lon="6.60557">
        <ele>712</ele>
        <time>2013-08-17T06:57:36Z</time>
      </trkpt>
      <trkpt lat="43.62463" lon="6.60539">
        <ele>712</ele>
        <time>2013-08-17T06:57:50Z</time>
      </trkpt>
      <trkpt lat="43.6244" lon="6.60516">
        <ele>714</ele>
        <time>2013-08-17T06:58:03Z</time>
      </trkpt>
      <trkpt lat="43.62418" lon="6.60492">
        <ele>711</ele>
        <time>2013-08-17T06:58:16Z</time>
      </trkpt>
      <trkpt lat="43.62401" lon="6.60474">
        <ele>719</ele>
        <time>2013-08-17T06:58:26Z</time>
      </trkpt>
      <trkpt lat="43.62378" lon="6.60449">
        <ele>720</ele>
        <time>2013-08-17T06:58:38Z</time>
      </trkpt>
      <trkpt lat="43.6236" lon="6.60427">
        <ele>721</ele>
        <time>2013-08-17T06:58:48Z</time>
      </trkpt>
      <trkpt lat="43.62357" lon="6.60425">
        <ele>721</ele>
        <time>2013-08-17T06:58:49Z</time>
      </trkpt>
      <trkpt lat="43.6233" lon="6.60402">
        <ele>726</ele>
        <time>2013-08-17T06:59:00Z</time>
      </trkpt>
      <trkpt lat="43.62303" lon="6.60377">
        <ele>728</ele>
        <time>2013-08-17T06:59:12Z</time>
      </trkpt>
      <trkpt lat="43.62287" lon="6.60354">
        <ele>729</ele>
        <time>2013-08-17T06:59:24Z</time>
      </trkpt>
      <trkpt lat="43.6227" lon="6.60319">
        <ele>723</ele>
        <time>2013-08-17T06:59:39Z</time>
      </trkpt>
      <trkpt lat="43.62267" lon="6.60307">
        <ele>721</ele>
        <time>2013-08-17T06:59:44Z</time>
      </trkpt>
      <trkpt lat="43.62266" lon="6.60304">
        <ele>721</ele>
        <time>2013-08-17T06:59:45Z</time>
      </trkpt>
      <trkpt lat="43.62256" lon="6.60284">
        <ele>720</ele>
        <time>2013-08-17T06:59:56Z</time>
      </trkpt>
      <trkpt lat="43.6225" lon="6.60274">
        <ele>732</ele>
        <time>2013-08-17T07:00:02Z</time>
      </trkpt>
      <trkpt lat="43.62248" lon="6.60272">
        <ele>731</ele>
        <time>2013-08-17T07:00:04Z</time>
      </trkpt>
      <trkpt lat="43.62238" lon="6.60261">
        <ele>730</ele>
        <time>2013-08-17T07:00:15Z</time>
      </trkpt>
      <trkpt lat="43.62237" lon="6.6026">
        <ele>730</ele>
        <time>2013-08-17T07:00:16Z</time>
      </trkpt>
      <trkpt lat="43.62236" lon="6.60259">
        <ele>730</ele>
        <time>2013-08-17T07:00:17Z</time>
      </trkpt>
      <trkpt lat="43.62234" lon="6.60258">
        <ele>731</ele>
        <time>2013-08-17T07:00:18Z</time>
      </trkpt>
      <trkpt lat="43.62233" lon="6.60257">
        <ele>731</ele>
        <time>2013-08-17T07:00:19Z</time>
      </trkpt>
      <trkpt lat="43.62215" lon="6.60249">
        <ele>726</ele>
        <time>2013-08-17T07:00:34Z</time>
      </trkpt>
      <trkpt lat="43.622" lon="6.60244">
        <ele>728</ele>
        <time>2013-08-17T07:00:47Z</time>
      </trkpt>
      <trkpt lat="43.62198" lon="6.60243">
        <ele>729</ele>
        <time>2013-08-17T07:00:49Z</time>
      </trkpt>
      <trkpt lat="43.62184" lon="6.60238">
        <ele>731</ele>
        <time>2013-08-17T07:01:01Z</time>
      </trkpt>
      <trkpt lat="43.62176" lon="6.60237">
        <ele>733</ele>
        <time>2013-08-17T07:01:08Z</time>
      </trkpt>
      <trkpt lat="43.62173" lon="6.60237">
        <ele>733</ele>
        <time>2013-08-17T07:01:11Z</time>
      </trkpt>
      <trkpt lat="43.62172" lon="6.60236">
        <ele>733</ele>
        <time>2013-08-17T07:01:12Z</time>
      </trkpt>
      <trkpt lat="43.6217" lon="6.60236">
        <ele>733</ele>
        <time>2013-08-17T07:01:13Z</time>
      </trkpt>
      <trkpt lat="43.62167" lon="6.60235">
        <ele>733</ele>
        <time>2013-08-17T07:01:16Z</time>
      </trkpt>
      <trkpt lat="43.62166" lon="6.60234">
        <ele>738</ele>
        <time>2013-08-17T07:01:17Z</time>
      </trkpt>
      <trkpt lat="43.62165" lon="6.60233">
        <ele>738</ele>
        <time>2013-08-17T07:01:18Z</time>
      </trkpt>
      <trkpt lat="43.62162" lon="6.60232">
        <ele>738</ele>
        <time>2013-08-17T07:01:21Z</time>
      </trkpt>
      <trkpt lat="43.62147" lon="6.60216">
        <ele>736</ele>
        <time>2013-08-17T07:01:37Z</time>
      </trkpt>
      <trkpt lat="43.62139" lon="6.60209">
        <ele>736</ele>
        <time>2013-08-17T07:01:45Z</time>
      </trkpt>
      <trkpt lat="43.62138" lon="6.60209">
        <ele>736</ele>
        <time>2013-08-17T07:01:46Z</time>
      </trkpt>
      <trkpt lat="43.62137" lon="6.60208">
        <ele>736</ele>
        <time>2013-08-17T07:01:47Z</time>
      </trkpt>
      <trkpt lat="43.62129" lon="6.60201">
        <ele>736</ele>
        <time>2013-08-17T07:01:55Z</time>
      </trkpt>
      <trkpt lat="43.62128" lon="6.602">
        <ele>736</ele>
        <time>2013-08-17T07:01:56Z</time>
      </trkpt>
      <trkpt lat="43.62127" lon="6.60199">
        <ele>736</ele>
        <time>2013-08-17T07:01:57Z</time>
      </trkpt>
      <trkpt lat="43.62125" lon="6.60199">
        <ele>737</ele>
        <time>2013-08-17T07:01:58Z</time>
      </trkpt>
      <trkpt lat="43.62124" lon="6.60198">
        <ele>737</ele>
        <time>2013-08-17T07:01:59Z</time>
      </trkpt>
      <trkpt lat="43.62123" lon="6.60197">
        <ele>737</ele>
        <time>2013-08-17T07:02:00Z</time>
      </trkpt>
      <trkpt lat="43.62122" lon="6.60196">
        <ele>737</ele>
        <time>2013-08-17T07:02:01Z</time>
      </trkpt>
      <trkpt lat="43.62121" lon="6.60196">
        <ele>737</ele>
        <time>2013-08-17T07:02:02Z</time>
      </trkpt>
      <trkpt lat="43.62119" lon="6.60196">
        <ele>737</ele>
        <time>2013-08-17T07:02:03Z</time>
      </trkpt>
      <trkpt lat="43.62102" lon="6.60189">
        <ele>738</ele>
        <time>2013-08-17T07:02:18Z</time>
      </trkpt>
      <trkpt lat="43.62081" lon="6.60174">
        <ele>739</ele>
        <time>2013-08-17T07:02:30Z</time>
      </trkpt>
      <trkpt lat="43.6208" lon="6.60172">
        <ele>740</ele>
        <time>2013-08-17T07:02:31Z</time>
      </trkpt>
      <trkpt lat="43.62079" lon="6.60171">
        <ele>740</ele>
        <time>2013-08-17T07:02:32Z</time>
      </trkpt>
      <trkpt lat="43.62079" lon="6.60169">
        <ele>740</ele>
        <time>2013-08-17T07:02:33Z</time>
      </trkpt>
      <trkpt lat="43.62078" lon="6.60167">
        <ele>740</ele>
        <time>2013-08-17T07:02:34Z</time>
      </trkpt>
      <trkpt lat="43.62078" lon="6.60165">
        <ele>741</ele>
        <time>2013-08-17T07:02:35Z</time>
      </trkpt>
      <trkpt lat="43.62078" lon="6.60163">
        <ele>741</ele>
        <time>2013-08-17T07:02:36Z</time>
      </trkpt>
      <trkpt lat="43.62078" lon="6.60161">
        <ele>741</ele>
        <time>2013-08-17T07:02:37Z</time>
      </trkpt>
      <trkpt lat="43.62078" lon="6.60159">
        <ele>740</ele>
        <time>2013-08-17T07:02:38Z</time>
      </trkpt>
      <trkpt lat="43.62074" lon="6.60131">
        <ele>737</ele>
        <time>2013-08-17T07:02:49Z</time>
      </trkpt>
      <trkpt lat="43.62059" lon="6.60098">
        <ele>737</ele>
        <time>2013-08-17T07:03:02Z</time>
      </trkpt>
      <trkpt lat="43.62044" lon="6.60073">
        <ele>738</ele>
        <time>2013-08-17T07:03:15Z</time>
      </trkpt>
      <trkpt lat="43.62031" lon="6.60048">
        <ele>738</ele>
        <time>2013-08-17T07:03:27Z</time>
      </trkpt>
      <trkpt lat="43.62018" lon="6.60024">
        <ele>740</ele>
        <time>2013-08-17T07:03:41Z</time>
      </trkpt>
      <trkpt lat="43.62017" lon="6.6002">
        <ele>741</ele>
        <time>2013-08-17T07:03:43Z</time>
      </trkpt>
      <trkpt lat="43.62016" lon="6.60018">
        <ele>741</ele>
        <time>2013-08-17T07:03:44Z</time>
      </trkpt>
      <trkpt lat="43.62015" lon="6.60016">
        <ele>742</ele>
        <time>2013-08-17T07:03:45Z</time>
      </trkpt>
      <trkpt lat="43.62014" lon="6.60015">
        <ele>742</ele>
        <time>2013-08-17T07:03:46Z</time>
      </trkpt>
      <trkpt lat="43.62013" lon="6.60013">
        <ele>743</ele>
        <time>2013-08-17T07:03:47Z</time>
      </trkpt>
      <trkpt lat="43.61999" lon="6.59991">
        <ele>746</ele>
        <time>2013-08-17T07:04:02Z</time>
      </trkpt>
      <trkpt lat="43.61996" lon="6.59986">
        <ele>745</ele>
        <time>2013-08-17T07:04:06Z</time>
      </trkpt>
      <trkpt lat="43.61987" lon="6.59975">
        <ele>743</ele>
        <time>2013-08-17T07:04:16Z</time>
      </trkpt>
      <trkpt lat="43.61986" lon="6.59974">
        <ele>743</ele>
        <time>2013-08-17T07:04:17Z</time>
      </trkpt>
      <trkpt lat="43.61981" lon="6.59967">
        <ele>743</ele>
        <time>2013-08-17T07:04:23Z</time>
      </trkpt>
      <trkpt lat="43.6198" lon="6.59966">
        <ele>742</ele>
        <time>2013-08-17T07:04:24Z</time>
      </trkpt>
      <trkpt lat="43.61979" lon="6.59964">
        <ele>742</ele>
        <time>2013-08-17T07:04:25Z</time>
      </trkpt>
      <trkpt lat="43.61972" lon="6.59949">
        <ele>742</ele>
        <time>2013-08-17T07:04:36Z</time>
      </trkpt>
      <trkpt lat="43.61968" lon="6.59944">
        <ele>742</ele>
        <time>2013-08-17T07:04:46Z</time>
      </trkpt>
      <trkpt lat="43.61966" lon="6.59943">
        <ele>741</ele>
        <time>2013-08-17T07:04:56Z</time>
      </trkpt>
      <trkpt lat="43.61966" lon="6.59943">
        <ele>741</ele>
        <time>2013-08-17T07:05:27Z</time>
      </trkpt>
      <trkpt lat="43.61965" lon="6.59943">
        <ele>741</ele>
        <time>2013-08-17T07:06:03Z</time>
      </trkpt>
      <trkpt lat="43.61965" lon="6.59943">
        <ele>741</ele>
        <time>2013-08-17T07:06:40Z</time>
      </trkpt>
      <trkpt lat="43.61965" lon="6.59943">
        <ele>741</ele>
        <time>2013-08-17T07:07:18Z</time>
      </trkpt>
      <trkpt lat="43.61965" lon="6.59944">
        <ele>741</ele>
        <time>2013-08-17T07:07:58Z</time>
      </trkpt>
      <trkpt lat="43.61965" lon="6.59943">
        <ele>741</ele>
        <time>2013-08-17T07:08:16Z</time>
      </trkpt>
      <trkpt lat="43.61968" lon="6.59945">
        <ele>742</ele>
        <time>2013-08-17T07:08:27Z</time>
      </trkpt>
      <trkpt lat="43.61982" lon="6.59971">
        <ele>743</ele>
        <time>2013-08-17T07:08:39Z</time>
      </trkpt>
      <trkpt lat="43.61991" lon="6.59979">
        <ele>744</ele>
        <time>2013-08-17T07:08:42Z</time>
      </trkpt>
      <trkpt lat="43.61998" lon="6.59987">
        <ele>746</ele>
        <time>2013-08-17T07:08:44Z</time>
      </trkpt>
      <trkpt lat="43.62012" lon="6.6001">
        <ele>743</ele>
        <time>2013-08-17T07:08:48Z</time>
      </trkpt>
      <trkpt lat="43.62028" lon="6.6004">
        <ele>739</ele>
        <time>2013-08-17T07:08:52Z</time>
      </trkpt>
      <trkpt lat="43.62036" lon="6.60058">
        <ele>738</ele>
        <time>2013-08-17T07:08:54Z</time>
      </trkpt>
      <trkpt lat="43.6205" lon="6.60081">
        <ele>738</ele>
        <time>2013-08-17T07:08:57Z</time>
      </trkpt>
      <trkpt lat="43.62073" lon="6.60123">
        <ele>737</ele>
        <time>2013-08-17T07:09:03Z</time>
      </trkpt>
      <trkpt lat="43.62076" lon="6.6013">
        <ele>737</ele>
        <time>2013-08-17T07:09:04Z</time>
      </trkpt>
      <trkpt lat="43.62077" lon="6.60136">
        <ele>737</ele>
        <time>2013-08-17T07:09:05Z</time>
      </trkpt>
      <trkpt lat="43.62078" lon="6.60142">
        <ele>738</ele>
        <time>2013-08-17T07:09:06Z</time>
      </trkpt>
      <trkpt lat="43.62079" lon="6.60148">
        <ele>739</ele>
        <time>2013-08-17T07:09:07Z</time>
      </trkpt>
      <trkpt lat="43.62079" lon="6.60154">
        <ele>739</ele>
        <time>2013-08-17T07:09:08Z</time>
      </trkpt>
      <trkpt lat="43.62079" lon="6.6016">
        <ele>741</ele>
        <time>2013-08-17T07:09:09Z</time>
      </trkpt>
      <trkpt lat="43.6208" lon="6.60175">
        <ele>738</ele>
        <time>2013-08-17T07:09:15Z</time>
      </trkpt>
      <trkpt lat="43.62081" lon="6.60177">
        <ele>738</ele>
        <time>2013-08-17T07:09:16Z</time>
      </trkpt>
      <trkpt lat="43.62081" lon="6.60179">
        <ele>737</ele>
        <time>2013-08-17T07:09:17Z</time>
      </trkpt>
      <trkpt lat="43.62081" lon="6.60181">
        <ele>737</ele>
        <time>2013-08-17T07:09:18Z</time>
      </trkpt>
      <trkpt lat="43.62081" lon="6.60182">
        <ele>736</ele>
        <time>2013-08-17T07:09:19Z</time>
      </trkpt>
      <trkpt lat="43.6208" lon="6.60185">
        <ele>736</ele>
        <time>2013-08-17T07:09:20Z</time>
      </trkpt>
      <trkpt lat="43.6208" lon="6.60188">
        <ele>735</ele>
        <time>2013-08-17T07:09:21Z</time>
      </trkpt>
      <trkpt lat="43.62079" lon="6.60192">
        <ele>734</ele>
        <time>2013-08-17T07:09:22Z</time>
      </trkpt>
      <trkpt lat="43.62078" lon="6.60196">
        <ele>733</ele>
        <time>2013-08-17T07:09:23Z</time>
      </trkpt>
      <trkpt lat="43.62078" lon="6.602">
        <ele>733</ele>
        <time>2013-08-17T07:09:24Z</time>
      </trkpt>
      <trkpt lat="43.62078" lon="6.60204">
        <ele>732</ele>
        <time>2013-08-17T07:09:25Z</time>
      </trkpt>
      <trkpt lat="43.62078" lon="6.60208">
        <ele>732</ele>
        <time>2013-08-17T07:09:26Z</time>
      </trkpt>
      <trkpt lat="43.62078" lon="6.60226">
        <ele>732</ele>
        <time>2013-08-17T07:09:30Z</time>
      </trkpt>
      <trkpt lat="43.62077" lon="6.60257">
        <ele>732</ele>
        <time>2013-08-17T07:09:35Z</time>
      </trkpt>
      <trkpt lat="43.62078" lon="6.60305">
        <ele>726</ele>
        <time>2013-08-17T07:09:42Z</time>
      </trkpt>
      <trkpt lat="43.62078" lon="6.60313">
        <ele>727</ele>
        <time>2013-08-17T07:09:43Z</time>
      </trkpt>
      <trkpt lat="43.62078" lon="6.60321">
        <ele>728</ele>
        <time>2013-08-17T07:09:44Z</time>
      </trkpt>
      <trkpt lat="43.62077" lon="6.60371">
        <ele>722</ele>
        <time>2013-08-17T07:09:50Z</time>
      </trkpt>
      <trkpt lat="43.62078" lon="6.60413">
        <ele>727</ele>
        <time>2013-08-17T07:09:58Z</time>
      </trkpt>
      <trkpt lat="43.62084" lon="6.60441">
        <ele>736</ele>
        <time>2013-08-17T07:10:04Z</time>
      </trkpt>
      <trkpt lat="43.62089" lon="6.60468">
        <ele>736</ele>
        <time>2013-08-17T07:10:08Z</time>
      </trkpt>
      <trkpt lat="43.62089" lon="6.60475">
        <ele>735</ele>
        <time>2013-08-17T07:10:09Z</time>
      </trkpt>
      <trkpt lat="43.62089" lon="6.60481">
        <ele>733</ele>
        <time>2013-08-17T07:10:10Z</time>
      </trkpt>
      <trkpt lat="43.62087" lon="6.60516">
        <ele>731</ele>
        <time>2013-08-17T07:10:16Z</time>
      </trkpt>
      <trkpt lat="43.62086" lon="6.60518">
        <ele>732</ele>
        <time>2013-08-17T07:10:17Z</time>
      </trkpt>
      <trkpt lat="43.62085" lon="6.60519">
        <ele>732</ele>
        <time>2013-08-17T07:10:18Z</time>
      </trkpt>
      <trkpt lat="43.62084" lon="6.6052">
        <ele>732</ele>
        <time>2013-08-17T07:10:19Z</time>
      </trkpt>
      <trkpt lat="43.62082" lon="6.60521">
        <ele>715</ele>
        <time>2013-08-17T07:10:20Z</time>
      </trkpt>
      <trkpt lat="43.62081" lon="6.60521">
        <ele>715</ele>
        <time>2013-08-17T07:10:21Z</time>
      </trkpt>
      <trkpt lat="43.62079" lon="6.6052">
        <ele>715</ele>
        <time>2013-08-17T07:10:22Z</time>
      </trkpt>
      <trkpt lat="43.62078" lon="6.60519">
        <ele>715</ele>
        <time>2013-08-17T07:10:23Z</time>
      </trkpt>
      <trkpt lat="43.62077" lon="6.60517">
        <ele>715</ele>
        <time>2013-08-17T07:10:24Z</time>
      </trkpt>
      <trkpt lat="43.62077" lon="6.60515">
        <ele>716</ele>
        <time>2013-08-17T07:10:25Z</time>
      </trkpt>
      <trkpt lat="43.62076" lon="6.60477">
        <ele>717</ele>
        <time>2013-08-17T07:10:35Z</time>
      </trkpt>
      <trkpt lat="43.62057" lon="6.60414">
        <ele>720</ele>
        <time>2013-08-17T07:10:49Z</time>
      </trkpt>
      <trkpt lat="43.62045" lon="6.60366">
        <ele>718</ele>
        <time>2013-08-17T07:10:59Z</time>
      </trkpt>
      <trkpt lat="43.62044" lon="6.60361">
        <ele>718</ele>
        <time>2013-08-17T07:11:00Z</time>
      </trkpt>
      <trkpt lat="43.62036" lon="6.60323">
        <ele>720</ele>
        <time>2013-08-17T07:11:10Z</time>
      </trkpt>
      <trkpt lat="43.62026" lon="6.60267">
        <ele>719</ele>
        <time>2013-08-17T07:11:21Z</time>
      </trkpt>
      <trkpt lat="43.6201" lon="6.60221">
        <ele>722</ele>
        <time>2013-08-17T07:11:32Z</time>
      </trkpt>
      <trkpt lat="43.61998" lon="6.6018">
        <ele>712</ele>
        <time>2013-08-17T07:11:42Z</time>
      </trkpt>
      <trkpt lat="43.61974" lon="6.60124">
        <ele>718</ele>
        <time>2013-08-17T07:11:54Z</time>
      </trkpt>
      <trkpt lat="43.61968" lon="6.60114">
        <ele>718</ele>
        <time>2013-08-17T07:11:56Z</time>
      </trkpt>
      <trkpt lat="43.61965" lon="6.60111">
        <ele>718</ele>
        <time>2013-08-17T07:11:57Z</time>
      </trkpt>
      <trkpt lat="43.61951" lon="6.60096">
        <ele>717</ele>
        <time>2013-08-17T07:12:02Z</time>
      </trkpt>
      <trkpt lat="43.61927" lon="6.6007">
        <ele>723</ele>
        <time>2013-08-17T07:12:12Z</time>
      </trkpt>
      <trkpt lat="43.61922" lon="6.60059">
        <ele>725</ele>
        <time>2013-08-17T07:12:15Z</time>
      </trkpt>
      <trkpt lat="43.6192" lon="6.60057">
        <ele>725</ele>
        <time>2013-08-17T07:12:16Z</time>
      </trkpt>
      <trkpt lat="43.61918" lon="6.60055">
        <ele>726</ele>
        <time>2013-08-17T07:12:17Z</time>
      </trkpt>
      <trkpt lat="43.61915" lon="6.60051">
        <ele>710</ele>
        <time>2013-08-17T07:12:18Z</time>
      </trkpt>
      <trkpt lat="43.61913" lon="6.60047">
        <ele>710</ele>
        <time>2013-08-17T07:12:19Z</time>
      </trkpt>
      <trkpt lat="43.61912" lon="6.60043">
        <ele>710</ele>
        <time>2013-08-17T07:12:20Z</time>
      </trkpt>
      <trkpt lat="43.61889" lon="6.59989">
        <ele>719</ele>
        <time>2013-08-17T07:12:32Z</time>
      </trkpt>
      <trkpt lat="43.61887" lon="6.59984">
        <ele>718</ele>
        <time>2013-08-17T07:12:33Z</time>
      </trkpt>
      <trkpt lat="43.61885" lon="6.59978">
        <ele>717</ele>
        <time>2013-08-17T07:12:34Z</time>
      </trkpt>
      <trkpt lat="43.61864" lon="6.59912">
        <ele>716</ele>
        <time>2013-08-17T07:12:48Z</time>
      </trkpt>
      <trkpt lat="43.61856" lon="6.59851">
        <ele>715</ele>
        <time>2013-08-17T07:13:01Z</time>
      </trkpt>
      <trkpt lat="43.61853" lon="6.59803">
        <ele>713</ele>
        <time>2013-08-17T07:13:12Z</time>
      </trkpt>
      <trkpt lat="43.61853" lon="6.59799">
        <ele>713</ele>
        <time>2013-08-17T07:13:13Z</time>
      </trkpt>
      <trkpt lat="43.61853" lon="6.59795">
        <ele>713</ele>
        <time>2013-08-17T07:13:14Z</time>
      </trkpt>
      <trkpt lat="43.61852" lon="6.59791">
        <ele>713</ele>
        <time>2013-08-17T07:13:15Z</time>
      </trkpt>
      <trkpt lat="43.61851" lon="6.59786">
        <ele>713</ele>
        <time>2013-08-17T07:13:20Z</time>
      </trkpt>
      <trkpt lat="43.6185" lon="6.59782">
        <ele>713</ele>
        <time>2013-08-17T07:13:21Z</time>
      </trkpt>
      <trkpt lat="43.6185" lon="6.59779">
        <ele>713</ele>
        <time>2013-08-17T07:13:22Z</time>
      </trkpt>
      <trkpt lat="43.6185" lon="6.59775">
        <ele>713</ele>
        <time>2013-08-17T07:13:23Z</time>
      </trkpt>
      <trkpt lat="43.6185" lon="6.59771">
        <ele>713</ele>
        <time>2013-08-17T07:13:24Z</time>
      </trkpt>
      <trkpt lat="43.6185" lon="6.59767">
        <ele>712</ele>
        <time>2013-08-17T07:13:25Z</time>
      </trkpt>
      <trkpt lat="43.6185" lon="6.59763">
        <ele>712</ele>
        <time>2013-08-17T07:13:26Z</time>
      </trkpt>
      <trkpt lat="43.6185" lon="6.59759">
        <ele>712</ele>
        <time>2013-08-17T07:13:27Z</time>
      </trkpt>
      <trkpt lat="43.61849" lon="6.59754">
        <ele>712</ele>
        <time>2013-08-17T07:13:28Z</time>
      </trkpt>
      <trkpt lat="43.61848" lon="6.5975">
        <ele>712</ele>
        <time>2013-08-17T07:13:29Z</time>
      </trkpt>
      <trkpt lat="43.6185" lon="6.597">
        <ele>710</ele>
        <time>2013-08-17T07:13:40Z</time>
      </trkpt>
      <trkpt lat="43.6187" lon="6.59646">
        <ele>703</ele>
        <time>2013-08-17T07:13:53Z</time>
      </trkpt>
      <trkpt lat="43.61876" lon="6.59639">
        <ele>703</ele>
        <time>2013-08-17T07:13:56Z</time>
      </trkpt>
      <trkpt lat="43.61892" lon="6.59637">
        <ele>703</ele>
        <time>2013-08-17T07:14:07Z</time>
      </trkpt>
      <trkpt lat="43.61913" lon="6.59641">
        <ele>705</ele>
        <time>2013-08-17T07:14:15Z</time>
      </trkpt>
      <trkpt lat="43.61917" lon="6.59644">
        <ele>704</ele>
        <time>2013-08-17T07:14:16Z</time>
      </trkpt>
      <trkpt lat="43.61921" lon="6.59647">
        <ele>704</ele>
        <time>2013-08-17T07:14:17Z</time>
      </trkpt>
      <trkpt lat="43.61925" lon="6.59651">
        <ele>705</ele>
        <time>2013-08-17T07:14:18Z</time>
      </trkpt>
      <trkpt lat="43.61928" lon="6.59656">
        <ele>706</ele>
        <time>2013-08-17T07:14:19Z</time>
      </trkpt>
      <trkpt lat="43.6193" lon="6.59662">
        <ele>706</ele>
        <time>2013-08-17T07:14:20Z</time>
      </trkpt>
      <trkpt lat="43.61932" lon="6.59669">
        <ele>711</ele>
        <time>2013-08-17T07:14:21Z</time>
      </trkpt>
      <trkpt lat="43.61934" lon="6.59683">
        <ele>711</ele>
        <time>2013-08-17T07:14:23Z</time>
      </trkpt>
      <trkpt lat="43.61935" lon="6.59691">
        <ele>711</ele>
        <time>2013-08-17T07:14:24Z</time>
      </trkpt>
      <trkpt lat="43.61935" lon="6.59697">
        <ele>711</ele>
        <time>2013-08-17T07:14:25Z</time>
      </trkpt>
      <trkpt lat="43.61934" lon="6.59703">
        <ele>711</ele>
        <time>2013-08-17T07:14:26Z</time>
      </trkpt>
      <trkpt lat="43.61932" lon="6.59709">
        <ele>712</ele>
        <time>2013-08-17T07:14:27Z</time>
      </trkpt>
      <trkpt lat="43.61929" lon="6.59719">
        <ele>712</ele>
        <time>2013-08-17T07:14:29Z</time>
      </trkpt>
      <trkpt lat="43.61929" lon="6.59724">
        <ele>712</ele>
        <time>2013-08-17T07:14:30Z</time>
      </trkpt>
      <trkpt lat="43.6193" lon="6.59729">
        <ele>713</ele>
        <time>2013-08-17T07:14:31Z</time>
      </trkpt>
      <trkpt lat="43.61931" lon="6.59734">
        <ele>713</ele>
        <time>2013-08-17T07:14:32Z</time>
      </trkpt>
      <trkpt lat="43.61933" lon="6.59738">
        <ele>713</ele>
        <time>2013-08-17T07:14:33Z</time>
      </trkpt>
      <trkpt lat="43.61936" lon="6.5974">
        <ele>713</ele>
        <time>2013-08-17T07:14:34Z</time>
      </trkpt>
      <trkpt lat="43.61938" lon="6.59741">
        <ele>713</ele>
        <time>2013-08-17T07:14:35Z</time>
      </trkpt>
      <trkpt lat="43.61941" lon="6.59741">
        <ele>713</ele>
        <time>2013-08-17T07:14:36Z</time>
      </trkpt>
      <trkpt lat="43.61943" lon="6.59741">
        <ele>713</ele>
        <time>2013-08-17T07:14:37Z</time>
      </trkpt>
      <trkpt lat="43.61963" lon="6.59724">
        <ele>711</ele>
        <time>2013-08-17T07:14:47Z</time>
      </trkpt>
      <trkpt lat="43.61969" lon="6.59712">
        <ele>710</ele>
        <time>2013-08-17T07:14:50Z</time>
      </trkpt>
      <trkpt lat="43.61979" lon="6.59681">
        <ele>707</ele>
        <time>2013-08-17T07:14:58Z</time>
      </trkpt>
      <trkpt lat="43.61975" lon="6.59674">
        <ele>707</ele>
        <time>2013-08-17T07:15:01Z</time>
      </trkpt>
      <trkpt lat="43.61973" lon="6.59672">
        <ele>707</ele>
        <time>2013-08-17T07:15:02Z</time>
      </trkpt>
      <trkpt lat="43.61971" lon="6.59672">
        <ele>708</ele>
        <time>2013-08-17T07:15:03Z</time>
      </trkpt>
      <trkpt lat="43.61962" lon="6.59673">
        <ele>709</ele>
        <time>2013-08-17T07:15:08Z</time>
      </trkpt>
      <trkpt lat="43.61957" lon="6.59665">
        <ele>701</ele>
        <time>2013-08-17T07:15:13Z</time>
      </trkpt>
      <trkpt lat="43.61957" lon="6.59664">
        <ele>701</ele>
        <time>2013-08-17T07:15:14Z</time>
      </trkpt>
      <trkpt lat="43.61957" lon="6.59661">
        <ele>701</ele>
        <time>2013-08-17T07:15:15Z</time>
      </trkpt>
      <trkpt lat="43.61958" lon="6.59659">
        <ele>701</ele>
        <time>2013-08-17T07:15:16Z</time>
      </trkpt>
      <trkpt lat="43.61957" lon="6.59657">
        <ele>701</ele>
        <time>2013-08-17T07:15:17Z</time>
      </trkpt>
      <trkpt lat="43.61953" lon="6.59624">
        <ele>698</ele>
        <time>2013-08-17T07:15:25Z</time>
      </trkpt>
      <trkpt lat="43.61951" lon="6.59618">
        <ele>698</ele>
        <time>2013-08-17T07:15:26Z</time>
      </trkpt>
      <trkpt lat="43.61948" lon="6.59613">
        <ele>697</ele>
        <time>2013-08-17T07:15:27Z</time>
      </trkpt>
      <trkpt lat="43.61946" lon="6.59608">
        <ele>697</ele>
        <time>2013-08-17T07:15:28Z</time>
      </trkpt>
      <trkpt lat="43.61943" lon="6.59604">
        <ele>697</ele>
        <time>2013-08-17T07:15:29Z</time>
      </trkpt>
      <trkpt lat="43.61936" lon="6.59595">
        <ele>696</ele>
        <time>2013-08-17T07:15:31Z</time>
      </trkpt>
      <trkpt lat="43.61932" lon="6.59591">
        <ele>696</ele>
        <time>2013-08-17T07:15:32Z</time>
      </trkpt>
      <trkpt lat="43.61919" lon="6.59574">
        <ele>691</ele>
        <time>2013-08-17T07:15:35Z</time>
      </trkpt>
      <trkpt lat="43.61915" lon="6.59569">
        <ele>691</ele>
        <time>2013-08-17T07:15:36Z</time>
      </trkpt>
      <trkpt lat="43.6191" lon="6.59566">
        <ele>690</ele>
        <time>2013-08-17T07:15:37Z</time>
      </trkpt>
      <trkpt lat="43.61906" lon="6.59563">
        <ele>690</ele>
        <time>2013-08-17T07:15:38Z</time>
      </trkpt>
      <trkpt lat="43.61901" lon="6.5956">
        <ele>689</ele>
        <time>2013-08-17T07:15:39Z</time>
      </trkpt>
      <trkpt lat="43.61873" lon="6.59549">
        <ele>687</ele>
        <time>2013-08-17T07:15:45Z</time>
      </trkpt>
      <trkpt lat="43.61868" lon="6.59548">
        <ele>687</ele>
        <time>2013-08-17T07:15:46Z</time>
      </trkpt>
      <trkpt lat="43.61858" lon="6.59548">
        <ele>687</ele>
        <time>2013-08-17T07:15:48Z</time>
      </trkpt>
      <trkpt lat="43.61839" lon="6.59551">
        <ele>688</ele>
        <time>2013-08-17T07:15:52Z</time>
      </trkpt>
      <trkpt lat="43.61824" lon="6.59553">
        <ele>682</ele>
        <time>2013-08-17T07:15:55Z</time>
      </trkpt>
      <trkpt lat="43.61818" lon="6.59554">
        <ele>682</ele>
        <time>2013-08-17T07:15:56Z</time>
      </trkpt>
      <trkpt lat="43.61792" lon="6.59562">
        <ele>679</ele>
        <time>2013-08-17T07:16:01Z</time>
      </trkpt>
      <trkpt lat="43.61783" lon="6.59565">
        <ele>677</ele>
        <time>2013-08-17T07:16:03Z</time>
      </trkpt>
      <trkpt lat="43.61779" lon="6.59567">
        <ele>677</ele>
        <time>2013-08-17T07:16:04Z</time>
      </trkpt>
      <trkpt lat="43.61774" lon="6.5957">
        <ele>676</ele>
        <time>2013-08-17T07:16:05Z</time>
      </trkpt>
      <trkpt lat="43.61751" lon="6.59589">
        <ele>674</ele>
        <time>2013-08-17T07:16:10Z</time>
      </trkpt>
      <trkpt lat="43.61736" lon="6.59616">
        <ele>664</ele>
        <time>2013-08-17T07:16:18Z</time>
      </trkpt>
      <trkpt lat="43.61734" lon="6.59636">
        <ele>664</ele>
        <time>2013-08-17T07:16:21Z</time>
      </trkpt>
      <trkpt lat="43.61735" lon="6.59658">
        <ele>667</ele>
        <time>2013-08-17T07:16:24Z</time>
      </trkpt>
      <trkpt lat="43.61736" lon="6.59672">
        <ele>668</ele>
        <time>2013-08-17T07:16:26Z</time>
      </trkpt>
      <trkpt lat="43.61735" lon="6.59677">
        <ele>667</ele>
        <time>2013-08-17T07:16:27Z</time>
      </trkpt>
      <trkpt lat="43.61734" lon="6.59681">
        <ele>666</ele>
        <time>2013-08-17T07:16:28Z</time>
      </trkpt>
      <trkpt lat="43.61733" lon="6.59683">
        <ele>665</ele>
        <time>2013-08-17T07:16:29Z</time>
      </trkpt>
      <trkpt lat="43.6173" lon="6.59684">
        <ele>665</ele>
        <time>2013-08-17T07:16:30Z</time>
      </trkpt>
      <trkpt lat="43.61728" lon="6.59684">
        <ele>664</ele>
        <time>2013-08-17T07:16:31Z</time>
      </trkpt>
      <trkpt lat="43.61726" lon="6.59684">
        <ele>664</ele>
        <time>2013-08-17T07:16:32Z</time>
      </trkpt>
      <trkpt lat="43.61724" lon="6.59682">
        <ele>663</ele>
        <time>2013-08-17T07:16:33Z</time>
      </trkpt>
      <trkpt lat="43.61722" lon="6.5968">
        <ele>663</ele>
        <time>2013-08-17T07:16:34Z</time>
      </trkpt>
      <trkpt lat="43.61721" lon="6.59677">
        <ele>663</ele>
        <time>2013-08-17T07:16:35Z</time>
      </trkpt>
      <trkpt lat="43.6172" lon="6.59673">
        <ele>663</ele>
        <time>2013-08-17T07:16:36Z</time>
      </trkpt>
      <trkpt lat="43.61719" lon="6.59669">
        <ele>663</ele>
        <time>2013-08-17T07:16:37Z</time>
      </trkpt>
      <trkpt lat="43.61719" lon="6.59664">
        <ele>663</ele>
        <time>2013-08-17T07:16:38Z</time>
      </trkpt>
      <trkpt lat="43.61719" lon="6.59659">
        <ele>663</ele>
        <time>2013-08-17T07:16:39Z</time>
      </trkpt>
      <trkpt lat="43.6172" lon="6.59654">
        <ele>663</ele>
        <time>2013-08-17T07:16:40Z</time>
      </trkpt>
      <trkpt lat="43.61721" lon="6.59638">
        <ele>662</ele>
        <time>2013-08-17T07:16:43Z</time>
      </trkpt>
      <trkpt lat="43.6172" lon="6.59632">
        <ele>662</ele>
        <time>2013-08-17T07:16:44Z</time>
      </trkpt>
      <trkpt lat="43.61719" lon="6.5961">
        <ele>662</ele>
        <time>2013-08-17T07:16:47Z</time>
      </trkpt>
      <trkpt lat="43.61716" lon="6.5959">
        <ele>661</ele>
        <time>2013-08-17T07:16:50Z</time>
      </trkpt>
      <trkpt lat="43.61712" lon="6.59552">
        <ele>658</ele>
        <time>2013-08-17T07:16:56Z</time>
      </trkpt>
      <trkpt lat="43.61712" lon="6.59546">
        <ele>658</ele>
        <time>2013-08-17T07:16:57Z</time>
      </trkpt>
      <trkpt lat="43.61711" lon="6.59541">
        <ele>657</ele>
        <time>2013-08-17T07:16:58Z</time>
      </trkpt>
      <trkpt lat="43.61706" lon="6.595">
        <ele>653</ele>
        <time>2013-08-17T07:17:07Z</time>
      </trkpt>
      <trkpt lat="43.61706" lon="6.59495">
        <ele>653</ele>
        <time>2013-08-17T07:17:08Z</time>
      </trkpt>
      <trkpt lat="43.61701" lon="6.59453">
        <ele>652</ele>
        <time>2013-08-17T07:17:16Z</time>
      </trkpt>
      <trkpt lat="43.617" lon="6.59446">
        <ele>652</ele>
        <time>2013-08-17T07:17:17Z</time>
      </trkpt>
      <trkpt lat="43.61699" lon="6.5944">
        <ele>651</ele>
        <time>2013-08-17T07:17:18Z</time>
      </trkpt>
      <trkpt lat="43.61697" lon="6.59434">
        <ele>651</ele>
        <time>2013-08-17T07:17:19Z</time>
      </trkpt>
      <trkpt lat="43.61694" lon="6.59427">
        <ele>650</ele>
        <time>2013-08-17T07:17:20Z</time>
      </trkpt>
      <trkpt lat="43.61692" lon="6.59422">
        <ele>649</ele>
        <time>2013-08-17T07:17:21Z</time>
      </trkpt>
      <trkpt lat="43.6168" lon="6.59399">
        <ele>646</ele>
        <time>2013-08-17T07:17:26Z</time>
      </trkpt>
      <trkpt lat="43.61677" lon="6.59395">
        <ele>646</ele>
        <time>2013-08-17T07:17:27Z</time>
      </trkpt>
      <trkpt lat="43.61675" lon="6.5939">
        <ele>646</ele>
        <time>2013-08-17T07:17:28Z</time>
      </trkpt>
      <trkpt lat="43.61672" lon="6.59386">
        <ele>646</ele>
        <time>2013-08-17T07:17:29Z</time>
      </trkpt>
      <trkpt lat="43.6167" lon="6.59382">
        <ele>646</ele>
        <time>2013-08-17T07:17:30Z</time>
      </trkpt>
      <trkpt lat="43.61667" lon="6.59377">
        <ele>646</ele>
        <time>2013-08-17T07:17:31Z</time>
      </trkpt>
      <trkpt lat="43.61633" lon="6.5932">
        <ele>643</ele>
        <time>2013-08-17T07:17:45Z</time>
      </trkpt>
      <trkpt lat="43.61605" lon="6.59271">
        <ele>642</ele>
        <time>2013-08-17T07:17:58Z</time>
      </trkpt>
      <trkpt lat="43.61589" lon="6.59227">
        <ele>643</ele>
        <time>2013-08-17T07:18:09Z</time>
      </trkpt>
      <trkpt lat="43.6156" lon="6.59205">
        <ele>640</ele>
        <time>2013-08-17T07:18:18Z</time>
      </trkpt>
      <trkpt lat="43.61535" lon="6.59199">
        <ele>639</ele>
        <time>2013-08-17T07:18:27Z</time>
      </trkpt>
      <trkpt lat="43.6153" lon="6.59198">
        <ele>639</ele>
        <time>2013-08-17T07:18:51Z</time>
      </trkpt>
      <trkpt lat="43.61528" lon="6.59199">
        <ele>638</ele>
        <time>2013-08-17T07:18:52Z</time>
      </trkpt>
      <trkpt lat="43.61526" lon="6.592">
        <ele>638</ele>
        <time>2013-08-17T07:18:53Z</time>
      </trkpt>
      <trkpt lat="43.61523" lon="6.59201">
        <ele>638</ele>
        <time>2013-08-17T07:18:54Z</time>
      </trkpt>
      <trkpt lat="43.61521" lon="6.59201">
        <ele>638</ele>
        <time>2013-08-17T07:18:55Z</time>
      </trkpt>
      <trkpt lat="43.61519" lon="6.59203">
        <ele>638</ele>
        <time>2013-08-17T07:18:56Z</time>
      </trkpt>
      <trkpt lat="43.6149" lon="6.59194">
        <ele>628</ele>
        <time>2013-08-17T07:19:06Z</time>
      </trkpt>
      <trkpt lat="43.61481" lon="6.59171">
        <ele>630</ele>
        <time>2013-08-17T07:19:11Z</time>
      </trkpt>
      <trkpt lat="43.61479" lon="6.59167">
        <ele>632</ele>
        <time>2013-08-17T07:19:12Z</time>
      </trkpt>
      <trkpt lat="43.61478" lon="6.59163">
        <ele>632</ele>
        <time>2013-08-17T07:19:13Z</time>
      </trkpt>
      <trkpt lat="43.61477" lon="6.5916">
        <ele>632</ele>
        <time>2013-08-17T07:19:14Z</time>
      </trkpt>
      <trkpt lat="43.61477" lon="6.59157">
        <ele>631</ele>
        <time>2013-08-17T07:19:15Z</time>
      </trkpt>
      <trkpt lat="43.61475" lon="6.59153">
        <ele>631</ele>
        <time>2013-08-17T07:19:16Z</time>
      </trkpt>
      <trkpt lat="43.61473" lon="6.59149">
        <ele>631</ele>
        <time>2013-08-17T07:19:17Z</time>
      </trkpt>
      <trkpt lat="43.61471" lon="6.59145">
        <ele>630</ele>
        <time>2013-08-17T07:19:18Z</time>
      </trkpt>
      <trkpt lat="43.61468" lon="6.59141">
        <ele>630</ele>
        <time>2013-08-17T07:19:19Z</time>
      </trkpt>
      <trkpt lat="43.61466" lon="6.59137">
        <ele>629</ele>
        <time>2013-08-17T07:19:20Z</time>
      </trkpt>
      <trkpt lat="43.61442" lon="6.59098">
        <ele>626</ele>
        <time>2013-08-17T07:19:30Z</time>
      </trkpt>
      <trkpt lat="43.61424" lon="6.59068">
        <ele>626</ele>
        <time>2013-08-17T07:19:39Z</time>
      </trkpt>
      <trkpt lat="43.61409" lon="6.59044">
        <ele>613</ele>
        <time>2013-08-17T07:19:44Z</time>
      </trkpt>
      <trkpt lat="43.61407" lon="6.59039">
        <ele>613</ele>
        <time>2013-08-17T07:19:45Z</time>
      </trkpt>
      <trkpt lat="43.61404" lon="6.59034">
        <ele>613</ele>
        <time>2013-08-17T07:19:46Z</time>
      </trkpt>
      <trkpt lat="43.61393" lon="6.59014">
        <ele>614</ele>
        <time>2013-08-17T07:19:51Z</time>
      </trkpt>
      <trkpt lat="43.61377" lon="6.58972">
        <ele>616</ele>
        <time>2013-08-17T07:20:00Z</time>
      </trkpt>
      <trkpt lat="43.61369" lon="6.58954">
        <ele>615</ele>
        <time>2013-08-17T07:20:04Z</time>
      </trkpt>
      <trkpt lat="43.61348" lon="6.58909">
        <ele>614</ele>
        <time>2013-08-17T07:20:15Z</time>
      </trkpt>
      <trkpt lat="43.61338" lon="6.58894">
        <ele>615</ele>
        <time>2013-08-17T07:20:22Z</time>
      </trkpt>
      <trkpt lat="43.61336" lon="6.58892">
        <ele>615</ele>
        <time>2013-08-17T07:20:23Z</time>
      </trkpt>
      <trkpt lat="43.61334" lon="6.58891">
        <ele>615</ele>
        <time>2013-08-17T07:20:24Z</time>
      </trkpt>
      <trkpt lat="43.61314" lon="6.58887">
        <ele>605</ele>
        <time>2013-08-17T07:20:30Z</time>
      </trkpt>
      <trkpt lat="43.6131" lon="6.58888">
        <ele>605</ele>
        <time>2013-08-17T07:20:31Z</time>
      </trkpt>
      <trkpt lat="43.61305" lon="6.58887">
        <ele>605</ele>
        <time>2013-08-17T07:20:32Z</time>
      </trkpt>
      <trkpt lat="43.613" lon="6.58886">
        <ele>604</ele>
        <time>2013-08-17T07:20:33Z</time>
      </trkpt>
      <trkpt lat="43.61295" lon="6.58883">
        <ele>604</ele>
        <time>2013-08-17T07:20:34Z</time>
      </trkpt>
      <trkpt lat="43.6129" lon="6.58879">
        <ele>604</ele>
        <time>2013-08-17T07:20:35Z</time>
      </trkpt>
      <trkpt lat="43.61287" lon="6.58876">
        <ele>604</ele>
        <time>2013-08-17T07:20:36Z</time>
      </trkpt>
      <trkpt lat="43.61265" lon="6.58848">
        <ele>603</ele>
        <time>2013-08-17T07:20:45Z</time>
      </trkpt>
      <trkpt lat="43.61248" lon="6.5883">
        <ele>603</ele>
        <time>2013-08-17T07:20:50Z</time>
      </trkpt>
      <trkpt lat="43.61244" lon="6.58828">
        <ele>603</ele>
        <time>2013-08-17T07:20:51Z</time>
      </trkpt>
      <trkpt lat="43.61221" lon="6.58807">
        <ele>604</ele>
        <time>2013-08-17T07:21:02Z</time>
      </trkpt>
      <trkpt lat="43.61219" lon="6.58807">
        <ele>604</ele>
        <time>2013-08-17T07:21:03Z</time>
      </trkpt>
      <trkpt lat="43.61216" lon="6.58807">
        <ele>604</ele>
        <time>2013-08-17T07:21:04Z</time>
      </trkpt>
      <trkpt lat="43.61214" lon="6.58807">
        <ele>604</ele>
        <time>2013-08-17T07:21:05Z</time>
      </trkpt>
      <trkpt lat="43.61211" lon="6.58808">
        <ele>604</ele>
        <time>2013-08-17T07:21:06Z</time>
      </trkpt>
      <trkpt lat="43.61209" lon="6.58809">
        <ele>604</ele>
        <time>2013-08-17T07:21:07Z</time>
      </trkpt>
      <trkpt lat="43.61198" lon="6.58813">
        <ele>604</ele>
        <time>2013-08-17T07:21:13Z</time>
      </trkpt>
      <trkpt lat="43.61196" lon="6.58812">
        <ele>604</ele>
        <time>2013-08-17T07:21:26Z</time>
      </trkpt>
      <trkpt lat="43.61197" lon="6.58811">
        <ele>604</ele>
        <time>2013-08-17T07:21:46Z</time>
      </trkpt>
      <trkpt lat="43.61196" lon="6.58811">
        <ele>604</ele>
        <time>2013-08-17T07:22:05Z</time>
      </trkpt>
      <trkpt lat="43.61195" lon="6.5881">
        <ele>604</ele>
        <time>2013-08-17T07:22:06Z</time>
      </trkpt>
      <trkpt lat="43.61194" lon="6.58808">
        <ele>604</ele>
        <time>2013-08-17T07:22:07Z</time>
      </trkpt>
      <trkpt lat="43.61193" lon="6.58806">
        <ele>605</ele>
        <time>2013-08-17T07:22:08Z</time>
      </trkpt>
      <trkpt lat="43.61194" lon="6.58804">
        <ele>605</ele>
        <time>2013-08-17T07:22:09Z</time>
      </trkpt>
      <trkpt lat="43.61194" lon="6.58802">
        <ele>605</ele>
        <time>2013-08-17T07:22:10Z</time>
      </trkpt>
      <trkpt lat="43.61193" lon="6.588">
        <ele>605</ele>
        <time>2013-08-17T07:22:11Z</time>
      </trkpt>
      <trkpt lat="43.61193" lon="6.58797">
        <ele>605</ele>
        <time>2013-08-17T07:22:12Z</time>
      </trkpt>
      <trkpt lat="43.61194" lon="6.58775">
        <ele>605</ele>
        <time>2013-08-17T07:22:22Z</time>
      </trkpt>
      <trkpt lat="43.61194" lon="6.58773">
        <ele>605</ele>
        <time>2013-08-17T07:22:23Z</time>
      </trkpt>
      <trkpt lat="43.61197" lon="6.58766">
        <ele>605</ele>
        <time>2013-08-17T07:22:34Z</time>
      </trkpt>
      <trkpt lat="43.61198" lon="6.58765">
        <ele>605</ele>
        <time>2013-08-17T07:22:35Z</time>
      </trkpt>
      <trkpt lat="43.61199" lon="6.58763">
        <ele>605</ele>
        <time>2013-08-17T07:22:36Z</time>
      </trkpt>
      <trkpt lat="43.612" lon="6.58761">
        <ele>605</ele>
        <time>2013-08-17T07:22:37Z</time>
      </trkpt>
      <trkpt lat="43.61202" lon="6.58758">
        <ele>605</ele>
        <time>2013-08-17T07:22:38Z</time>
      </trkpt>
      <trkpt lat="43.61205" lon="6.58754">
        <ele>605</ele>
        <time>2013-08-17T07:22:39Z</time>
      </trkpt>
      <trkpt lat="43.61208" lon="6.58748">
        <ele>605</ele>
        <time>2013-08-17T07:22:40Z</time>
      </trkpt>
      <trkpt lat="43.61218" lon="6.58726">
        <ele>604</ele>
        <time>2013-08-17T07:22:43Z</time>
      </trkpt>
      <trkpt lat="43.61221" lon="6.58717">
        <ele>604</ele>
        <time>2013-08-17T07:22:44Z</time>
      </trkpt>
      <trkpt lat="43.61227" lon="6.58703">
        <ele>603</ele>
        <time>2013-08-17T07:22:46Z</time>
      </trkpt>
      <trkpt lat="43.61229" lon="6.58696">
        <ele>602</ele>
        <time>2013-08-17T07:22:47Z</time>
      </trkpt>
      <trkpt lat="43.6123" lon="6.58689">
        <ele>602</ele>
        <time>2013-08-17T07:22:48Z</time>
      </trkpt>
      <trkpt lat="43.6123" lon="6.58667">
        <ele>600</ele>
        <time>2013-08-17T07:22:51Z</time>
      </trkpt>
      <trkpt lat="43.61233" lon="6.58629">
        <ele>598</ele>
        <time>2013-08-17T07:22:56Z</time>
      </trkpt>
      <trkpt lat="43.61233" lon="6.58621">
        <ele>598</ele>
        <time>2013-08-17T07:22:57Z</time>
      </trkpt>
      <trkpt lat="43.61232" lon="6.58613">
        <ele>597</ele>
        <time>2013-08-17T07:22:58Z</time>
      </trkpt>
      <trkpt lat="43.61232" lon="6.58605">
        <ele>596</ele>
        <time>2013-08-17T07:22:59Z</time>
      </trkpt>
      <trkpt lat="43.61233" lon="6.58597">
        <ele>595</ele>
        <time>2013-08-17T07:23:00Z</time>
      </trkpt>
      <trkpt lat="43.61235" lon="6.5859">
        <ele>594</ele>
        <time>2013-08-17T07:23:01Z</time>
      </trkpt>
      <trkpt lat="43.61236" lon="6.58582">
        <ele>590</ele>
        <time>2013-08-17T07:23:02Z</time>
      </trkpt>
      <trkpt lat="43.61236" lon="6.58573">
        <ele>591</ele>
        <time>2013-08-17T07:23:03Z</time>
      </trkpt>
      <trkpt lat="43.61234" lon="6.58548">
        <ele>592</ele>
        <time>2013-08-17T07:23:06Z</time>
      </trkpt>
      <trkpt lat="43.61232" lon="6.58541">
        <ele>592</ele>
        <time>2013-08-17T07:23:07Z</time>
      </trkpt>
      <trkpt lat="43.61222" lon="6.58485">
        <ele>587</ele>
        <time>2013-08-17T07:23:14Z</time>
      </trkpt>
      <trkpt lat="43.61219" lon="6.58477">
        <ele>588</ele>
        <time>2013-08-17T07:23:15Z</time>
      </trkpt>
      <trkpt lat="43.61216" lon="6.58469">
        <ele>588</ele>
        <time>2013-08-17T07:23:16Z</time>
      </trkpt>
      <trkpt lat="43.61213" lon="6.58461">
        <ele>588</ele>
        <time>2013-08-17T07:23:17Z</time>
      </trkpt>
      <trkpt lat="43.61211" lon="6.58452">
        <ele>588</ele>
        <time>2013-08-17T07:23:18Z</time>
      </trkpt>
      <trkpt lat="43.6121" lon="6.58443">
        <ele>588</ele>
        <time>2013-08-17T07:23:19Z</time>
      </trkpt>
      <trkpt lat="43.61209" lon="6.58433">
        <ele>588</ele>
        <time>2013-08-17T07:23:20Z</time>
      </trkpt>
      <trkpt lat="43.61209" lon="6.58423">
        <ele>588</ele>
        <time>2013-08-17T07:23:21Z</time>
      </trkpt>
      <trkpt lat="43.6121" lon="6.5838">
        <ele>582</ele>
        <time>2013-08-17T07:23:25Z</time>
      </trkpt>
      <trkpt lat="43.61209" lon="6.58362">
        <ele>581</ele>
        <time>2013-08-17T07:23:27Z</time>
      </trkpt>
      <trkpt lat="43.61207" lon="6.58356">
        <ele>581</ele>
        <time>2013-08-17T07:23:28Z</time>
      </trkpt>
      <trkpt lat="43.61205" lon="6.58351">
        <ele>582</ele>
        <time>2013-08-17T07:23:29Z</time>
      </trkpt>
      <trkpt lat="43.61196" lon="6.58326">
        <ele>579</ele>
        <time>2013-08-17T07:23:33Z</time>
      </trkpt>
      <trkpt lat="43.61195" lon="6.58318">
        <ele>579</ele>
        <time>2013-08-17T07:23:34Z</time>
      </trkpt>
      <trkpt lat="43.61194" lon="6.58311">
        <ele>578</ele>
        <time>2013-08-17T07:23:35Z</time>
      </trkpt>
      <trkpt lat="43.61193" lon="6.58296">
        <ele>577</ele>
        <time>2013-08-17T07:23:37Z</time>
      </trkpt>
      <trkpt lat="43.61193" lon="6.58287">
        <ele>577</ele>
        <time>2013-08-17T07:23:38Z</time>
      </trkpt>
      <trkpt lat="43.61194" lon="6.58278">
        <ele>577</ele>
        <time>2013-08-17T07:23:39Z</time>
      </trkpt>
      <trkpt lat="43.61193" lon="6.58259">
        <ele>577</ele>
        <time>2013-08-17T07:23:41Z</time>
      </trkpt>
      <trkpt lat="43.61192" lon="6.5825">
        <ele>572</ele>
        <time>2013-08-17T07:23:42Z</time>
      </trkpt>
      <trkpt lat="43.61192" lon="6.58241">
        <ele>572</ele>
        <time>2013-08-17T07:23:43Z</time>
      </trkpt>
      <trkpt lat="43.61191" lon="6.58233">
        <ele>571</ele>
        <time>2013-08-17T07:23:44Z</time>
      </trkpt>
      <trkpt lat="43.6119" lon="6.58223">
        <ele>570</ele>
        <time>2013-08-17T07:23:45Z</time>
      </trkpt>
      <trkpt lat="43.61187" lon="6.58205">
        <ele>569</ele>
        <time>2013-08-17T07:23:47Z</time>
      </trkpt>
      <trkpt lat="43.61185" lon="6.58196">
        <ele>568</ele>
        <time>2013-08-17T07:23:48Z</time>
      </trkpt>
      <trkpt lat="43.61171" lon="6.58148">
        <ele>563</ele>
        <time>2013-08-17T07:23:53Z</time>
      </trkpt>
      <trkpt lat="43.61169" lon="6.5814">
        <ele>561</ele>
        <time>2013-08-17T07:23:54Z</time>
      </trkpt>
      <trkpt lat="43.61162" lon="6.58111">
        <ele>579</ele>
        <time>2013-08-17T07:23:59Z</time>
      </trkpt>
      <trkpt lat="43.6116" lon="6.58104">
        <ele>576</ele>
        <time>2013-08-17T07:24:00Z</time>
      </trkpt>
      <trkpt lat="43.61159" lon="6.58095">
        <ele>572</ele>
        <time>2013-08-17T07:24:01Z</time>
      </trkpt>
      <trkpt lat="43.61158" lon="6.5806">
        <ele>571</ele>
        <time>2013-08-17T07:24:05Z</time>
      </trkpt>
      <trkpt lat="43.61158" lon="6.58035">
        <ele>570</ele>
        <time>2013-08-17T07:24:08Z</time>
      </trkpt>
      <trkpt lat="43.61159" lon="6.58021">
        <ele>567</ele>
        <time>2013-08-17T07:24:10Z</time>
      </trkpt>
      <trkpt lat="43.6116" lon="6.58002">
        <ele>559</ele>
        <time>2013-08-17T07:24:13Z</time>
      </trkpt>
      <trkpt lat="43.61161" lon="6.57995">
        <ele>559</ele>
        <time>2013-08-17T07:24:14Z</time>
      </trkpt>
      <trkpt lat="43.61161" lon="6.57988">
        <ele>562</ele>
        <time>2013-08-17T07:24:15Z</time>
      </trkpt>
      <trkpt lat="43.61161" lon="6.57979">
        <ele>564</ele>
        <time>2013-08-17T07:24:16Z</time>
      </trkpt>
      <trkpt lat="43.61162" lon="6.57971">
        <ele>566</ele>
        <time>2013-08-17T07:24:17Z</time>
      </trkpt>
      <trkpt lat="43.61167" lon="6.5794">
        <ele>547</ele>
        <time>2013-08-17T07:24:22Z</time>
      </trkpt>
      <trkpt lat="43.61169" lon="6.57931">
        <ele>549</ele>
        <time>2013-08-17T07:24:24Z</time>
      </trkpt>
      <trkpt lat="43.61176" lon="6.57897">
        <ele>547</ele>
        <time>2013-08-17T07:24:34Z</time>
      </trkpt>
      <trkpt lat="43.61174" lon="6.57894">
        <ele>547</ele>
        <time>2013-08-17T07:24:42Z</time>
      </trkpt>
      <trkpt lat="43.61175" lon="6.57891">
        <ele>547</ele>
        <time>2013-08-17T07:24:43Z</time>
      </trkpt>
      <trkpt lat="43.61175" lon="6.57888">
        <ele>546</ele>
        <time>2013-08-17T07:24:44Z</time>
      </trkpt>
      <trkpt lat="43.61176" lon="6.57884">
        <ele>546</ele>
        <time>2013-08-17T07:24:45Z</time>
      </trkpt>
      <trkpt lat="43.61176" lon="6.57879">
        <ele>546</ele>
        <time>2013-08-17T07:24:46Z</time>
      </trkpt>
      <trkpt lat="43.61177" lon="6.57874">
        <ele>546</ele>
        <time>2013-08-17T07:24:47Z</time>
      </trkpt>
      <trkpt lat="43.61177" lon="6.57869">
        <ele>546</ele>
        <time>2013-08-17T07:24:48Z</time>
      </trkpt>
      <trkpt lat="43.61182" lon="6.57833">
        <ele>550</ele>
        <time>2013-08-17T07:24:55Z</time>
      </trkpt>
      <trkpt lat="43.61192" lon="6.57771">
        <ele>546</ele>
        <time>2013-08-17T07:25:06Z</time>
      </trkpt>
      <trkpt lat="43.61199" lon="6.57746">
        <ele>549</ele>
        <time>2013-08-17T07:25:11Z</time>
      </trkpt>
      <trkpt lat="43.612" lon="6.5774">
        <ele>548</ele>
        <time>2013-08-17T07:25:12Z</time>
      </trkpt>
      <trkpt lat="43.61201" lon="6.57734">
        <ele>548</ele>
        <time>2013-08-17T07:25:13Z</time>
      </trkpt>
      <trkpt lat="43.61228" lon="6.57619">
        <ele>551</ele>
        <time>2013-08-17T07:25:28Z</time>
      </trkpt>
      <trkpt lat="43.61234" lon="6.57596">
        <ele>548</ele>
        <time>2013-08-17T07:25:31Z</time>
      </trkpt>
      <trkpt lat="43.61237" lon="6.57582">
        <ele>548</ele>
        <time>2013-08-17T07:25:33Z</time>
      </trkpt>
      <trkpt lat="43.6124" lon="6.57569">
        <ele>550</ele>
        <time>2013-08-17T07:25:35Z</time>
      </trkpt>
      <trkpt lat="43.61247" lon="6.57472">
        <ele>554</ele>
        <time>2013-08-17T07:25:49Z</time>
      </trkpt>
      <trkpt lat="43.61251" lon="6.57426">
        <ele>540</ele>
        <time>2013-08-17T07:25:56Z</time>
      </trkpt>
      <trkpt lat="43.61257" lon="6.57388">
        <ele>536</ele>
        <time>2013-08-17T07:26:02Z</time>
      </trkpt>
      <trkpt lat="43.61256" lon="6.57382">
        <ele>536</ele>
        <time>2013-08-17T07:26:03Z</time>
      </trkpt>
      <trkpt lat="43.61255" lon="6.57375">
        <ele>535</ele>
        <time>2013-08-17T07:26:04Z</time>
      </trkpt>
      <trkpt lat="43.61253" lon="6.57368">
        <ele>536</ele>
        <time>2013-08-17T07:26:05Z</time>
      </trkpt>
      <trkpt lat="43.6125" lon="6.57361">
        <ele>536</ele>
        <time>2013-08-17T07:26:06Z</time>
      </trkpt>
      <trkpt lat="43.61248" lon="6.57355">
        <ele>551</ele>
        <time>2013-08-17T07:26:07Z</time>
      </trkpt>
      <trkpt lat="43.61247" lon="6.57348">
        <ele>550</ele>
        <time>2013-08-17T07:26:08Z</time>
      </trkpt>
      <trkpt lat="43.61245" lon="6.5734">
        <ele>547</ele>
        <time>2013-08-17T07:26:09Z</time>
      </trkpt>
      <trkpt lat="43.6124" lon="6.5731">
        <ele>550</ele>
        <time>2013-08-17T07:26:13Z</time>
      </trkpt>
      <trkpt lat="43.61237" lon="6.57301">
        <ele>551</ele>
        <time>2013-08-17T07:26:14Z</time>
      </trkpt>
      <trkpt lat="43.6122" lon="6.57264">
        <ele>553</ele>
        <time>2013-08-17T07:26:19Z</time>
      </trkpt>
      <trkpt lat="43.61219" lon="6.57256">
        <ele>552</ele>
        <time>2013-08-17T07:26:20Z</time>
      </trkpt>
      <trkpt lat="43.61219" lon="6.57249">
        <ele>552</ele>
        <time>2013-08-17T07:26:21Z</time>
      </trkpt>
      <trkpt lat="43.6122" lon="6.57242">
        <ele>552</ele>
        <time>2013-08-17T07:26:22Z</time>
      </trkpt>
      <trkpt lat="43.61221" lon="6.57235">
        <ele>552</ele>
        <time>2013-08-17T07:26:23Z</time>
      </trkpt>
      <trkpt lat="43.61231" lon="6.57184">
        <ele>551</ele>
        <time>2013-08-17T07:26:34Z</time>
      </trkpt>
      <trkpt lat="43.61232" lon="6.5714">
        <ele>552</ele>
        <time>2013-08-17T07:26:47Z</time>
      </trkpt>
      <trkpt lat="43.6123" lon="6.57138">
        <ele>553</ele>
        <time>2013-08-17T07:26:56Z</time>
      </trkpt>
      <trkpt lat="43.6123" lon="6.57117">
        <ele>552</ele>
        <time>2013-08-17T07:27:13Z</time>
      </trkpt>
      <trkpt lat="43.61227" lon="6.5704">
        <ele>548</ele>
        <time>2013-08-17T07:27:26Z</time>
      </trkpt>
      <trkpt lat="43.61218" lon="6.56975">
        <ele>541</ele>
        <time>2013-08-17T07:27:34Z</time>
      </trkpt>
      <trkpt lat="43.61218" lon="6.56967">
        <ele>541</ele>
        <time>2013-08-17T07:27:35Z</time>
      </trkpt>
      <trkpt lat="43.61217" lon="6.56953">
        <ele>540</ele>
        <time>2013-08-17T07:27:37Z</time>
      </trkpt>
      <trkpt lat="43.61213" lon="6.56919">
        <ele>539</ele>
        <time>2013-08-17T07:27:47Z</time>
      </trkpt>
      <trkpt lat="43.61215" lon="6.56918">
        <ele>538</ele>
        <time>2013-08-17T07:28:00Z</time>
      </trkpt>
      <trkpt lat="43.61216" lon="6.56915">
        <ele>532</ele>
        <time>2013-08-17T07:28:01Z</time>
      </trkpt>
      <trkpt lat="43.61217" lon="6.5691">
        <ele>532</ele>
        <time>2013-08-17T07:28:02Z</time>
      </trkpt>
      <trkpt lat="43.61218" lon="6.56905">
        <ele>532</ele>
        <time>2013-08-17T07:28:03Z</time>
      </trkpt>
      <trkpt lat="43.61218" lon="6.56901">
        <ele>531</ele>
        <time>2013-08-17T07:28:04Z</time>
      </trkpt>
      <trkpt lat="43.61218" lon="6.56896">
        <ele>531</ele>
        <time>2013-08-17T07:28:05Z</time>
      </trkpt>
      <trkpt lat="43.61219" lon="6.56891">
        <ele>531</ele>
        <time>2013-08-17T07:28:06Z</time>
      </trkpt>
      <trkpt lat="43.6122" lon="6.56885">
        <ele>531</ele>
        <time>2013-08-17T07:28:07Z</time>
      </trkpt>
      <trkpt lat="43.61221" lon="6.56878">
        <ele>530</ele>
        <time>2013-08-17T07:28:08Z</time>
      </trkpt>
      <trkpt lat="43.61221" lon="6.56852">
        <ele>528</ele>
        <time>2013-08-17T07:28:11Z</time>
      </trkpt>
      <trkpt lat="43.6122" lon="6.56845">
        <ele>528</ele>
        <time>2013-08-17T07:28:12Z</time>
      </trkpt>
      <trkpt lat="43.61219" lon="6.56823">
        <ele>522</ele>
        <time>2013-08-17T07:28:15Z</time>
      </trkpt>
      <trkpt lat="43.61219" lon="6.56792">
        <ele>522</ele>
        <time>2013-08-17T07:28:19Z</time>
      </trkpt>
      <trkpt lat="43.6122" lon="6.56759">
        <ele>519</ele>
        <time>2013-08-17T07:28:23Z</time>
      </trkpt>
      <trkpt lat="43.61222" lon="6.56734">
        <ele>511</ele>
        <time>2013-08-17T07:28:26Z</time>
      </trkpt>
      <trkpt lat="43.61225" lon="6.5671">
        <ele>509</ele>
        <time>2013-08-17T07:28:29Z</time>
      </trkpt>
      <trkpt lat="43.61227" lon="6.56683">
        <ele>504</ele>
        <time>2013-08-17T07:28:33Z</time>
      </trkpt>
      <trkpt lat="43.61228" lon="6.56663">
        <ele>493</ele>
        <time>2013-08-17T07:28:36Z</time>
      </trkpt>
      <trkpt lat="43.61227" lon="6.56639">
        <ele>493</ele>
        <time>2013-08-17T07:28:40Z</time>
      </trkpt>
      <trkpt lat="43.61224" lon="6.56623">
        <ele>492</ele>
        <time>2013-08-17T07:28:44Z</time>
      </trkpt>
      <trkpt lat="43.61219" lon="6.56608">
        <ele>491</ele>
        <time>2013-08-17T07:28:48Z</time>
      </trkpt>
      <trkpt lat="43.61213" lon="6.56588">
        <ele>491</ele>
        <time>2013-08-17T07:28:53Z</time>
      </trkpt>
      <trkpt lat="43.61212" lon="6.56583">
        <ele>479</ele>
        <time>2013-08-17T07:28:54Z</time>
      </trkpt>
      <trkpt lat="43.61208" lon="6.56562">
        <ele>479</ele>
        <time>2013-08-17T07:28:58Z</time>
      </trkpt>
      <trkpt lat="43.61204" lon="6.56545">
        <ele>478</ele>
        <time>2013-08-17T07:29:02Z</time>
      </trkpt>
      <trkpt lat="43.61202" lon="6.56529">
        <ele>477</ele>
        <time>2013-08-17T07:29:06Z</time>
      </trkpt>
      <trkpt lat="43.612" lon="6.56516">
        <ele>477</ele>
        <time>2013-08-17T07:29:09Z</time>
      </trkpt>
      <trkpt lat="43.61199" lon="6.56498">
        <ele>466</ele>
        <time>2013-08-17T07:29:14Z</time>
      </trkpt>
      <trkpt lat="43.61196" lon="6.56482">
        <ele>465</ele>
        <time>2013-08-17T07:29:18Z</time>
      </trkpt>
      <trkpt lat="43.61192" lon="6.56459">
        <ele>462</ele>
        <time>2013-08-17T07:29:21Z</time>
      </trkpt>
      <trkpt lat="43.61188" lon="6.56434">
        <ele>460</ele>
        <time>2013-08-17T07:29:25Z</time>
      </trkpt>
      <trkpt lat="43.61184" lon="6.56419">
        <ele>460</ele>
        <time>2013-08-17T07:29:28Z</time>
      </trkpt>
      <trkpt lat="43.61182" lon="6.56412">
        <ele>454</ele>
        <time>2013-08-17T07:29:29Z</time>
      </trkpt>
      <trkpt lat="43.61181" lon="6.56405">
        <ele>454</ele>
        <time>2013-08-17T07:29:30Z</time>
      </trkpt>
      <trkpt lat="43.6118" lon="6.56397">
        <ele>452</ele>
        <time>2013-08-17T07:29:31Z</time>
      </trkpt>
      <trkpt lat="43.61179" lon="6.5639">
        <ele>451</ele>
        <time>2013-08-17T07:29:32Z</time>
      </trkpt>
      <trkpt lat="43.61179" lon="6.56384">
        <ele>450</ele>
        <time>2013-08-17T07:29:33Z</time>
      </trkpt>
      <trkpt lat="43.61179" lon="6.56379">
        <ele>449</ele>
        <time>2013-08-17T07:29:34Z</time>
      </trkpt>
      <trkpt lat="43.61178" lon="6.56349">
        <ele>448</ele>
        <time>2013-08-17T07:29:40Z</time>
      </trkpt>
      <trkpt lat="43.61176" lon="6.56319">
        <ele>443</ele>
        <time>2013-08-17T07:29:44Z</time>
      </trkpt>
      <trkpt lat="43.61176" lon="6.56305">
        <ele>440</ele>
        <time>2013-08-17T07:29:46Z</time>
      </trkpt>
      <trkpt lat="43.61176" lon="6.56298">
        <ele>438</ele>
        <time>2013-08-17T07:29:47Z</time>
      </trkpt>
      <trkpt lat="43.6118" lon="6.56274">
        <ele>436</ele>
        <time>2013-08-17T07:29:51Z</time>
      </trkpt>
      <trkpt lat="43.61179" lon="6.56269">
        <ele>436</ele>
        <time>2013-08-17T07:30:00Z</time>
      </trkpt>
      <trkpt lat="43.61179" lon="6.56267">
        <ele>436</ele>
        <time>2013-08-17T07:30:05Z</time>
      </trkpt>
      <trkpt lat="43.61179" lon="6.56264">
        <ele>436</ele>
        <time>2013-08-17T07:30:06Z</time>
      </trkpt>
      <trkpt lat="43.6118" lon="6.5626">
        <ele>436</ele>
        <time>2013-08-17T07:30:07Z</time>
      </trkpt>
      <trkpt lat="43.61181" lon="6.56255">
        <ele>436</ele>
        <time>2013-08-17T07:30:08Z</time>
      </trkpt>
      <trkpt lat="43.61181" lon="6.56251">
        <ele>436</ele>
        <time>2013-08-17T07:30:09Z</time>
      </trkpt>
      <trkpt lat="43.61181" lon="6.56247">
        <ele>430</ele>
        <time>2013-08-17T07:30:10Z</time>
      </trkpt>
      <trkpt lat="43.61179" lon="6.56228">
        <ele>427</ele>
        <time>2013-08-17T07:30:14Z</time>
      </trkpt>
      <trkpt lat="43.61177" lon="6.56208">
        <ele>423</ele>
        <time>2013-08-17T07:30:18Z</time>
      </trkpt>
      <trkpt lat="43.61176" lon="6.56201">
        <ele>422</ele>
        <time>2013-08-17T07:30:19Z</time>
      </trkpt>
      <trkpt lat="43.61173" lon="6.56179">
        <ele>421</ele>
        <time>2013-08-17T07:30:23Z</time>
      </trkpt>
      <trkpt lat="43.61173" lon="6.5616">
        <ele>416</ele>
        <time>2013-08-17T07:30:27Z</time>
      </trkpt>
      <trkpt lat="43.61175" lon="6.56143">
        <ele>410</ele>
        <time>2013-08-17T07:30:31Z</time>
      </trkpt>
      <trkpt lat="43.61174" lon="6.56124">
        <ele>406</ele>
        <time>2013-08-17T07:30:34Z</time>
      </trkpt>
      <trkpt lat="43.61174" lon="6.56117">
        <ele>405</ele>
        <time>2013-08-17T07:30:35Z</time>
      </trkpt>
      <trkpt lat="43.61174" lon="6.56111">
        <ele>404</ele>
        <time>2013-08-17T07:30:36Z</time>
      </trkpt>
      <trkpt lat="43.61173" lon="6.56091">
        <ele>403</ele>
        <time>2013-08-17T07:30:40Z</time>
      </trkpt>
      <trkpt lat="43.61168" lon="6.5607">
        <ele>396</ele>
        <time>2013-08-17T07:30:44Z</time>
      </trkpt>
      <trkpt lat="43.6116" lon="6.56046">
        <ele>398</ele>
        <time>2013-08-17T07:30:49Z</time>
      </trkpt>
      <trkpt lat="43.61157" lon="6.56042">
        <ele>397</ele>
        <time>2013-08-17T07:30:50Z</time>
      </trkpt>
      <trkpt lat="43.61153" lon="6.56039">
        <ele>396</ele>
        <time>2013-08-17T07:30:51Z</time>
      </trkpt>
      <trkpt lat="43.61148" lon="6.56036">
        <ele>396</ele>
        <time>2013-08-17T07:30:52Z</time>
      </trkpt>
      <trkpt lat="43.61138" lon="6.56034">
        <ele>396</ele>
        <time>2013-08-17T07:30:54Z</time>
      </trkpt>
      <trkpt lat="43.61118" lon="6.56029">
        <ele>397</ele>
        <time>2013-08-17T07:30:58Z</time>
      </trkpt>
      <trkpt lat="43.61113" lon="6.56026">
        <ele>396</ele>
        <time>2013-08-17T07:30:59Z</time>
      </trkpt>
      <trkpt lat="43.61108" lon="6.56021">
        <ele>396</ele>
        <time>2013-08-17T07:31:00Z</time>
      </trkpt>
      <trkpt lat="43.6108" lon="6.55998">
        <ele>388</ele>
        <time>2013-08-17T07:31:07Z</time>
      </trkpt>
      <trkpt lat="43.61078" lon="6.55994">
        <ele>387</ele>
        <time>2013-08-17T07:31:08Z</time>
      </trkpt>
      <trkpt lat="43.61089" lon="6.55988">
        <ele>382</ele>
        <time>2013-08-17T07:31:15Z</time>
      </trkpt>
      <trkpt lat="43.61096" lon="6.55989">
        <ele>381</ele>
        <time>2013-08-17T07:31:17Z</time>
      </trkpt>
      <trkpt lat="43.611" lon="6.55991">
        <ele>381</ele>
        <time>2013-08-17T07:31:18Z</time>
      </trkpt>
      <trkpt lat="43.61105" lon="6.55992">
        <ele>380</ele>
        <time>2013-08-17T07:31:19Z</time>
      </trkpt>
      <trkpt lat="43.61109" lon="6.55994">
        <ele>379</ele>
        <time>2013-08-17T07:31:20Z</time>
      </trkpt>
      <trkpt lat="43.61114" lon="6.55996">
        <ele>379</ele>
        <time>2013-08-17T07:31:21Z</time>
      </trkpt>
      <trkpt lat="43.61119" lon="6.55997">
        <ele>378</ele>
        <time>2013-08-17T07:31:22Z</time>
      </trkpt>
      <trkpt lat="43.61124" lon="6.55998">
        <ele>378</ele>
        <time>2013-08-17T07:31:23Z</time>
      </trkpt>
      <trkpt lat="43.6118" lon="6.56017">
        <ele>384</ele>
        <time>2013-08-17T07:31:34Z</time>
      </trkpt>
      <trkpt lat="43.61197" lon="6.56024">
        <ele>383</ele>
        <time>2013-08-17T07:31:37Z</time>
      </trkpt>
      <trkpt lat="43.61215" lon="6.56034">
        <ele>382</ele>
        <time>2013-08-17T07:31:40Z</time>
      </trkpt>
      <trkpt lat="43.61291" lon="6.56088">
        <ele>379</ele>
        <time>2013-08-17T07:31:53Z</time>
      </trkpt>
      <trkpt lat="43.61347" lon="6.56137">
        <ele>369</ele>
        <time>2013-08-17T07:32:04Z</time>
      </trkpt>
      <trkpt lat="43.61352" lon="6.56141">
        <ele>369</ele>
        <time>2013-08-17T07:32:05Z</time>
      </trkpt>
      <trkpt lat="43.61356" lon="6.56147">
        <ele>370</ele>
        <time>2013-08-17T07:32:06Z</time>
      </trkpt>
      <trkpt lat="43.6136" lon="6.56154">
        <ele>370</ele>
        <time>2013-08-17T07:32:07Z</time>
      </trkpt>
      <trkpt lat="43.61363" lon="6.56162">
        <ele>370</ele>
        <time>2013-08-17T07:32:08Z</time>
      </trkpt>
      <trkpt lat="43.61366" lon="6.56169">
        <ele>379</ele>
        <time>2013-08-17T07:32:09Z</time>
      </trkpt>
      <trkpt lat="43.61369" lon="6.56177">
        <ele>379</ele>
        <time>2013-08-17T07:32:10Z</time>
      </trkpt>
      <trkpt lat="43.61373" lon="6.56184">
        <ele>379</ele>
        <time>2013-08-17T07:32:11Z</time>
      </trkpt>
      <trkpt lat="43.61382" lon="6.562">
        <ele>379</ele>
        <time>2013-08-17T07:32:13Z</time>
      </trkpt>
      <trkpt lat="43.61387" lon="6.56208">
        <ele>379</ele>
        <time>2013-08-17T07:32:14Z</time>
      </trkpt>
      <trkpt lat="43.6146" lon="6.56333">
        <ele>369</ele>
        <time>2013-08-17T07:32:29Z</time>
      </trkpt>
      <trkpt lat="43.61494" lon="6.56442">
        <ele>374</ele>
        <time>2013-08-17T07:32:41Z</time>
      </trkpt>
      <trkpt lat="43.61497" lon="6.56451">
        <ele>375</ele>
        <time>2013-08-17T07:32:42Z</time>
      </trkpt>
      <trkpt lat="43.61499" lon="6.56461">
        <ele>375</ele>
        <time>2013-08-17T07:32:43Z</time>
      </trkpt>
      <trkpt lat="43.61506" lon="6.56503">
        <ele>363</ele>
        <time>2013-08-17T07:32:47Z</time>
      </trkpt>
      <trkpt lat="43.6153" lon="6.56624">
        <ele>365</ele>
        <time>2013-08-17T07:32:59Z</time>
      </trkpt>
      <trkpt lat="43.61533" lon="6.56633">
        <ele>365</ele>
        <time>2013-08-17T07:33:00Z</time>
      </trkpt>
      <trkpt lat="43.61584" lon="6.56717">
        <ele>357</ele>
        <time>2013-08-17T07:33:11Z</time>
      </trkpt>
      <trkpt lat="43.6159" lon="6.56721">
        <ele>357</ele>
        <time>2013-08-17T07:33:12Z</time>
      </trkpt>
      <trkpt lat="43.61597" lon="6.56726">
        <ele>357</ele>
        <time>2013-08-17T07:33:13Z</time>
      </trkpt>
      <trkpt lat="43.61604" lon="6.5673">
        <ele>357</ele>
        <time>2013-08-17T07:33:14Z</time>
      </trkpt>
      <trkpt lat="43.61611" lon="6.56733">
        <ele>356</ele>
        <time>2013-08-17T07:33:15Z</time>
      </trkpt>
      <trkpt lat="43.61619" lon="6.56735">
        <ele>355</ele>
        <time>2013-08-17T07:33:16Z</time>
      </trkpt>
      <trkpt lat="43.61654" lon="6.56742">
        <ele>352</ele>
        <time>2013-08-17T07:33:21Z</time>
      </trkpt>
      <trkpt lat="43.61675" lon="6.56743">
        <ele>349</ele>
        <time>2013-08-17T07:33:24Z</time>
      </trkpt>
      <trkpt lat="43.61682" lon="6.56742">
        <ele>348</ele>
        <time>2013-08-17T07:33:25Z</time>
      </trkpt>
      <trkpt lat="43.61689" lon="6.5674">
        <ele>348</ele>
        <time>2013-08-17T07:33:26Z</time>
      </trkpt>
      <trkpt lat="43.61696" lon="6.56737">
        <ele>348</ele>
        <time>2013-08-17T07:33:27Z</time>
      </trkpt>
      <trkpt lat="43.61703" lon="6.56734">
        <ele>347</ele>
        <time>2013-08-17T07:33:28Z</time>
      </trkpt>
      <trkpt lat="43.61755" lon="6.56696">
        <ele>346</ele>
        <time>2013-08-17T07:33:37Z</time>
      </trkpt>
      <trkpt lat="43.6176" lon="6.5669">
        <ele>346</ele>
        <time>2013-08-17T07:33:38Z</time>
      </trkpt>
      <trkpt lat="43.61795" lon="6.56634">
        <ele>345</ele>
        <time>2013-08-17T07:33:47Z</time>
      </trkpt>
      <trkpt lat="43.61828" lon="6.5658">
        <ele>346</ele>
        <time>2013-08-17T07:33:58Z</time>
      </trkpt>
      <trkpt lat="43.61831" lon="6.56577">
        <ele>346</ele>
        <time>2013-08-17T07:33:59Z</time>
      </trkpt>
      <trkpt lat="43.61835" lon="6.56577">
        <ele>348</ele>
        <time>2013-08-17T07:34:00Z</time>
      </trkpt>
      <trkpt lat="43.61839" lon="6.56581">
        <ele>348</ele>
        <time>2013-08-17T07:34:01Z</time>
      </trkpt>
      <trkpt lat="43.61842" lon="6.56587">
        <ele>349</ele>
        <time>2013-08-17T07:34:02Z</time>
      </trkpt>
      <trkpt lat="43.61845" lon="6.56595">
        <ele>350</ele>
        <time>2013-08-17T07:34:03Z</time>
      </trkpt>
      <trkpt lat="43.61848" lon="6.56604">
        <ele>350</ele>
        <time>2013-08-17T07:34:04Z</time>
      </trkpt>
      <trkpt lat="43.61864" lon="6.56645">
        <ele>351</ele>
        <time>2013-08-17T07:34:08Z</time>
      </trkpt>
      <trkpt lat="43.619" lon="6.56713">
        <ele>350</ele>
        <time>2013-08-17T07:34:18Z</time>
      </trkpt>
      <trkpt lat="43.61904" lon="6.56718">
        <ele>350</ele>
        <time>2013-08-17T07:34:19Z</time>
      </trkpt>
      <trkpt lat="43.61934" lon="6.56776">
        <ele>351</ele>
        <time>2013-08-17T07:34:31Z</time>
      </trkpt>
      <trkpt lat="43.61953" lon="6.56798">
        <ele>351</ele>
        <time>2013-08-17T07:34:39Z</time>
      </trkpt>
      <trkpt lat="43.61956" lon="6.56799">
        <ele>351</ele>
        <time>2013-08-17T07:34:41Z</time>
      </trkpt>
      <trkpt lat="43.61958" lon="6.56799">
        <ele>351</ele>
        <time>2013-08-17T07:34:42Z</time>
      </trkpt>
      <trkpt lat="43.6196" lon="6.56799">
        <ele>351</ele>
        <time>2013-08-17T07:34:43Z</time>
      </trkpt>
      <trkpt lat="43.61962" lon="6.56798">
        <ele>351</ele>
        <time>2013-08-17T07:34:44Z</time>
      </trkpt>
      <trkpt lat="43.61965" lon="6.56796">
        <ele>352</ele>
        <time>2013-08-17T07:34:45Z</time>
      </trkpt>
      <trkpt lat="43.61968" lon="6.56794">
        <ele>352</ele>
        <time>2013-08-17T07:34:46Z</time>
      </trkpt>
      <trkpt lat="43.6197" lon="6.56792">
        <ele>352</ele>
        <time>2013-08-17T07:34:47Z</time>
      </trkpt>
      <trkpt lat="43.61972" lon="6.56789">
        <ele>352</ele>
        <time>2013-08-17T07:34:48Z</time>
      </trkpt>
      <trkpt lat="43.61974" lon="6.56787">
        <ele>352</ele>
        <time>2013-08-17T07:34:49Z</time>
      </trkpt>
      <trkpt lat="43.61987" lon="6.56764">
        <ele>353</ele>
        <time>2013-08-17T07:35:00Z</time>
      </trkpt>
      <trkpt lat="43.61999" lon="6.56742">
        <ele>357</ele>
        <time>2013-08-17T07:35:09Z</time>
      </trkpt>
      <trkpt lat="43.62017" lon="6.56721">
        <ele>363</ele>
        <time>2013-08-17T07:35:20Z</time>
      </trkpt>
      <trkpt lat="43.62037" lon="6.56706">
        <ele>365</ele>
        <time>2013-08-17T07:35:30Z</time>
      </trkpt>
      <trkpt lat="43.62058" lon="6.56703">
        <ele>365</ele>
        <time>2013-08-17T07:35:40Z</time>
      </trkpt>
      <trkpt lat="43.6206" lon="6.56704">
        <ele>365</ele>
        <time>2013-08-17T07:35:41Z</time>
      </trkpt>
      <trkpt lat="43.62091" lon="6.56702">
        <ele>368</ele>
        <time>2013-08-17T07:35:54Z</time>
      </trkpt>
      <trkpt lat="43.62111" lon="6.56707">
        <ele>368</ele>
        <time>2013-08-17T07:36:04Z</time>
      </trkpt>
      <trkpt lat="43.62114" lon="6.56708">
        <ele>368</ele>
        <time>2013-08-17T07:36:05Z</time>
      </trkpt>
      <trkpt lat="43.62115" lon="6.56709">
        <ele>368</ele>
        <time>2013-08-17T07:36:06Z</time>
      </trkpt>
      <trkpt lat="43.62117" lon="6.56712">
        <ele>368</ele>
        <time>2013-08-17T07:36:07Z</time>
      </trkpt>
      <trkpt lat="43.62119" lon="6.56714">
        <ele>367</ele>
        <time>2013-08-17T07:36:08Z</time>
      </trkpt>
      <trkpt lat="43.62121" lon="6.56716">
        <ele>367</ele>
        <time>2013-08-17T07:36:09Z</time>
      </trkpt>
      <trkpt lat="43.62122" lon="6.56719">
        <ele>367</ele>
        <time>2013-08-17T07:36:10Z</time>
      </trkpt>
      <trkpt lat="43.62123" lon="6.56721">
        <ele>367</ele>
        <time>2013-08-17T07:36:11Z</time>
      </trkpt>
      <trkpt lat="43.6213" lon="6.56749">
        <ele>367</ele>
        <time>2013-08-17T07:36:23Z</time>
      </trkpt>
      <trkpt lat="43.62138" lon="6.56766">
        <ele>363</ele>
        <time>2013-08-17T07:36:32Z</time>
      </trkpt>
      <trkpt lat="43.62143" lon="6.56768">
        <ele>364</ele>
        <time>2013-08-17T07:36:35Z</time>
      </trkpt>
      <trkpt lat="43.62148" lon="6.5677">
        <ele>364</ele>
        <time>2013-08-17T07:36:48Z</time>
      </trkpt>
      <trkpt lat="43.62181" lon="6.56779">
        <ele>372</ele>
        <time>2013-08-17T07:36:58Z</time>
      </trkpt>
      <trkpt lat="43.62201" lon="6.56796">
        <ele>373</ele>
        <time>2013-08-17T07:37:06Z</time>
      </trkpt>
      <trkpt lat="43.62201" lon="6.56799">
        <ele>373</ele>
        <time>2013-08-17T07:37:07Z</time>
      </trkpt>
      <trkpt lat="43.62201" lon="6.56803">
        <ele>373</ele>
        <time>2013-08-17T07:37:08Z</time>
      </trkpt>
      <trkpt lat="43.62198" lon="6.56844">
        <ele>369</ele>
        <time>2013-08-17T07:37:17Z</time>
      </trkpt>
      <trkpt lat="43.622" lon="6.56856">
        <ele>370</ele>
        <time>2013-08-17T07:37:19Z</time>
      </trkpt>
      <trkpt lat="43.62202" lon="6.56869">
        <ele>370</ele>
        <time>2013-08-17T07:37:21Z</time>
      </trkpt>
      <trkpt lat="43.62204" lon="6.56895">
        <ele>369</ele>
        <time>2013-08-17T07:37:25Z</time>
      </trkpt>
      <trkpt lat="43.62204" lon="6.56908">
        <ele>369</ele>
        <time>2013-08-17T07:37:27Z</time>
      </trkpt>
      <trkpt lat="43.62207" lon="6.56921">
        <ele>367</ele>
        <time>2013-08-17T07:37:29Z</time>
      </trkpt>
      <trkpt lat="43.6221" lon="6.56927">
        <ele>367</ele>
        <time>2013-08-17T07:37:30Z</time>
      </trkpt>
      <trkpt lat="43.62216" lon="6.56936">
        <ele>367</ele>
        <time>2013-08-17T07:37:32Z</time>
      </trkpt>
      <trkpt lat="43.6222" lon="6.5694">
        <ele>368</ele>
        <time>2013-08-17T07:37:33Z</time>
      </trkpt>
      <trkpt lat="43.62224" lon="6.56943">
        <ele>368</ele>
        <time>2013-08-17T07:37:34Z</time>
      </trkpt>
      <trkpt lat="43.62228" lon="6.56944">
        <ele>368</ele>
        <time>2013-08-17T07:37:35Z</time>
      </trkpt>
      <trkpt lat="43.62231" lon="6.56946">
        <ele>368</ele>
        <time>2013-08-17T07:37:36Z</time>
      </trkpt>
      <trkpt lat="43.62235" lon="6.56948">
        <ele>368</ele>
        <time>2013-08-17T07:37:37Z</time>
      </trkpt>
      <trkpt lat="43.62238" lon="6.5695">
        <ele>369</ele>
        <time>2013-08-17T07:37:38Z</time>
      </trkpt>
      <trkpt lat="43.62241" lon="6.56951">
        <ele>369</ele>
        <time>2013-08-17T07:37:39Z</time>
      </trkpt>
      <trkpt lat="43.62271" lon="6.56967">
        <ele>374</ele>
        <time>2013-08-17T07:37:49Z</time>
      </trkpt>
      <trkpt lat="43.62309" lon="6.56985">
        <ele>375</ele>
        <time>2013-08-17T07:38:00Z</time>
      </trkpt>
      <trkpt lat="43.62329" lon="6.56991">
        <ele>375</ele>
        <time>2013-08-17T07:38:08Z</time>
      </trkpt>
      <trkpt lat="43.6233" lon="6.56993">
        <ele>375</ele>
        <time>2013-08-17T07:38:09Z</time>
      </trkpt>
      <trkpt lat="43.62332" lon="6.56994">
        <ele>375</ele>
        <time>2013-08-17T07:38:10Z</time>
      </trkpt>
      <trkpt lat="43.62334" lon="6.56995">
        <ele>376</ele>
        <time>2013-08-17T07:38:11Z</time>
      </trkpt>
      <trkpt lat="43.62335" lon="6.56996">
        <ele>376</ele>
        <time>2013-08-17T07:38:12Z</time>
      </trkpt>
      <trkpt lat="43.62337" lon="6.56996">
        <ele>376</ele>
        <time>2013-08-17T07:38:13Z</time>
      </trkpt>
      <trkpt lat="43.62339" lon="6.56997">
        <ele>377</ele>
        <time>2013-08-17T07:38:14Z</time>
      </trkpt>
      <trkpt lat="43.62342" lon="6.56997">
        <ele>377</ele>
        <time>2013-08-17T07:38:16Z</time>
      </trkpt>
      <trkpt lat="43.62359" lon="6.56999">
        <ele>379</ele>
        <time>2013-08-17T07:38:26Z</time>
      </trkpt>
      <trkpt lat="43.62361" lon="6.57002">
        <ele>377</ele>
        <time>2013-08-17T07:38:29Z</time>
      </trkpt>
      <trkpt lat="43.62361" lon="6.57003">
        <ele>377</ele>
        <time>2013-08-17T07:38:30Z</time>
      </trkpt>
      <trkpt lat="43.62364" lon="6.57005">
        <ele>377</ele>
        <time>2013-08-17T07:38:34Z</time>
      </trkpt>
      <trkpt lat="43.62365" lon="6.57007">
        <ele>377</ele>
        <time>2013-08-17T07:38:35Z</time>
      </trkpt>
      <trkpt lat="43.62366" lon="6.57009">
        <ele>378</ele>
        <time>2013-08-17T07:38:36Z</time>
      </trkpt>
      <trkpt lat="43.6237" lon="6.57011">
        <ele>378</ele>
        <time>2013-08-17T07:38:39Z</time>
      </trkpt>
      <trkpt lat="43.62372" lon="6.57012">
        <ele>378</ele>
        <time>2013-08-17T07:38:40Z</time>
      </trkpt>
      <trkpt lat="43.62395" lon="6.57016">
        <ele>379</ele>
        <time>2013-08-17T07:38:48Z</time>
      </trkpt>
      <trkpt lat="43.62397" lon="6.57017">
        <ele>379</ele>
        <time>2013-08-17T07:38:49Z</time>
      </trkpt>
      <trkpt lat="43.62399" lon="6.57018">
        <ele>379</ele>
        <time>2013-08-17T07:38:50Z</time>
      </trkpt>
      <trkpt lat="43.62401" lon="6.57019">
        <ele>379</ele>
        <time>2013-08-17T07:38:51Z</time>
      </trkpt>
      <trkpt lat="43.62402" lon="6.5702">
        <ele>379</ele>
        <time>2013-08-17T07:38:52Z</time>
      </trkpt>
      <trkpt lat="43.6241" lon="6.57032">
        <ele>379</ele>
        <time>2013-08-17T07:38:57Z</time>
      </trkpt>
      <trkpt lat="43.62412" lon="6.57035">
        <ele>379</ele>
        <time>2013-08-17T07:38:58Z</time>
      </trkpt>
      <trkpt lat="43.62414" lon="6.57037">
        <ele>379</ele>
        <time>2013-08-17T07:38:59Z</time>
      </trkpt>
      <trkpt lat="43.62416" lon="6.57039">
        <ele>379</ele>
        <time>2013-08-17T07:39:00Z</time>
      </trkpt>
      <trkpt lat="43.62417" lon="6.5704">
        <ele>386</ele>
        <time>2013-08-17T07:39:01Z</time>
      </trkpt>
      <trkpt lat="43.62443" lon="6.57057">
        <ele>388</ele>
        <time>2013-08-17T07:39:12Z</time>
      </trkpt>
      <trkpt lat="43.62459" lon="6.57065">
        <ele>389</ele>
        <time>2013-08-17T07:39:19Z</time>
      </trkpt>
      <trkpt lat="43.62482" lon="6.57068">
        <ele>392</ele>
        <time>2013-08-17T07:39:28Z</time>
      </trkpt>
      <trkpt lat="43.62493" lon="6.57078">
        <ele>394</ele>
        <time>2013-08-17T07:39:35Z</time>
      </trkpt>
      <trkpt lat="43.62495" lon="6.5708">
        <ele>394</ele>
        <time>2013-08-17T07:39:36Z</time>
      </trkpt>
      <trkpt lat="43.62508" lon="6.57087">
        <ele>399</ele>
        <time>2013-08-17T07:39:45Z</time>
      </trkpt>
      <trkpt lat="43.62517" lon="6.5709">
        <ele>401</ele>
        <time>2013-08-17T07:39:49Z</time>
      </trkpt>
      <trkpt lat="43.62533" lon="6.571">
        <ele>404</ele>
        <time>2013-08-17T07:39:59Z</time>
      </trkpt>
      <trkpt lat="43.62535" lon="6.57098">
        <ele>404</ele>
        <time>2013-08-17T07:40:00Z</time>
      </trkpt>
      <trkpt lat="43.62537" lon="6.57095">
        <ele>405</ele>
        <time>2013-08-17T07:40:02Z</time>
      </trkpt>
      <trkpt lat="43.62536" lon="6.5706">
        <ele>407</ele>
        <time>2013-08-17T07:40:14Z</time>
      </trkpt>
      <trkpt lat="43.62535" lon="6.57039">
        <ele>407</ele>
        <time>2013-08-17T07:40:23Z</time>
      </trkpt>
      <trkpt lat="43.62535" lon="6.57036">
        <ele>407</ele>
        <time>2013-08-17T07:40:24Z</time>
      </trkpt>
      <trkpt lat="43.62535" lon="6.57035">
        <ele>407</ele>
        <time>2013-08-17T07:40:25Z</time>
      </trkpt>
      <trkpt lat="43.62532" lon="6.57022">
        <ele>407</ele>
        <time>2013-08-17T07:40:31Z</time>
      </trkpt>
      <trkpt lat="43.62533" lon="6.57021">
        <ele>407</ele>
        <time>2013-08-17T07:40:32Z</time>
      </trkpt>
      <trkpt lat="43.62533" lon="6.5702">
        <ele>407</ele>
        <time>2013-08-17T07:40:33Z</time>
      </trkpt>
      <trkpt lat="43.62534" lon="6.57018">
        <ele>407</ele>
        <time>2013-08-17T07:40:34Z</time>
      </trkpt>
      <trkpt lat="43.62534" lon="6.57016">
        <ele>407</ele>
        <time>2013-08-17T07:40:35Z</time>
      </trkpt>
      <trkpt lat="43.62536" lon="6.57012">
        <ele>407</ele>
        <time>2013-08-17T07:40:37Z</time>
      </trkpt>
      <trkpt lat="43.62536" lon="6.57009">
        <ele>407</ele>
        <time>2013-08-17T07:40:38Z</time>
      </trkpt>
      <trkpt lat="43.62537" lon="6.57008">
        <ele>407</ele>
        <time>2013-08-17T07:40:39Z</time>
      </trkpt>
      <trkpt lat="43.62538" lon="6.57007">
        <ele>408</ele>
        <time>2013-08-17T07:40:40Z</time>
      </trkpt>
      <trkpt lat="43.6254" lon="6.57006">
        <ele>408</ele>
        <time>2013-08-17T07:40:41Z</time>
      </trkpt>
      <trkpt lat="43.62541" lon="6.57006">
        <ele>408</ele>
        <time>2013-08-17T07:40:42Z</time>
      </trkpt>
      <trkpt lat="43.62542" lon="6.57006">
        <ele>408</ele>
        <time>2013-08-17T07:40:43Z</time>
      </trkpt>
      <trkpt lat="43.62546" lon="6.57008">
        <ele>409</ele>
        <time>2013-08-17T07:40:46Z</time>
      </trkpt>
      <trkpt lat="43.62547" lon="6.57009">
        <ele>409</ele>
        <time>2013-08-17T07:40:47Z</time>
      </trkpt>
      <trkpt lat="43.62549" lon="6.5701">
        <ele>410</ele>
        <time>2013-08-17T07:40:48Z</time>
      </trkpt>
      <trkpt lat="43.62555" lon="6.57016">
        <ele>411</ele>
        <time>2013-08-17T07:40:53Z</time>
      </trkpt>
      <trkpt lat="43.62556" lon="6.57017">
        <ele>411</ele>
        <time>2013-08-17T07:40:54Z</time>
      </trkpt>
      <trkpt lat="43.62558" lon="6.57018">
        <ele>411</ele>
        <time>2013-08-17T07:40:55Z</time>
      </trkpt>
      <trkpt lat="43.62561" lon="6.57021">
        <ele>411</ele>
        <time>2013-08-17T07:40:58Z</time>
      </trkpt>
      <trkpt lat="43.62565" lon="6.57022">
        <ele>412</ele>
        <time>2013-08-17T07:41:00Z</time>
      </trkpt>
      <trkpt lat="43.62566" lon="6.57024">
        <ele>412</ele>
        <time>2013-08-17T07:41:01Z</time>
      </trkpt>
      <trkpt lat="43.62568" lon="6.57025">
        <ele>412</ele>
        <time>2013-08-17T07:41:02Z</time>
      </trkpt>
      <trkpt lat="43.62581" lon="6.5703">
        <ele>412</ele>
        <time>2013-08-17T07:41:08Z</time>
      </trkpt>
      <trkpt lat="43.62591" lon="6.57029">
        <ele>426</ele>
        <time>2013-08-17T07:41:12Z</time>
      </trkpt>
      <trkpt lat="43.62592" lon="6.5703">
        <ele>426</ele>
        <time>2013-08-17T07:41:13Z</time>
      </trkpt>
      <trkpt lat="43.62594" lon="6.57029">
        <ele>426</ele>
        <time>2013-08-17T07:41:14Z</time>
      </trkpt>
      <trkpt lat="43.62597" lon="6.57028">
        <ele>426</ele>
        <time>2013-08-17T07:41:15Z</time>
      </trkpt>
      <trkpt lat="43.62598" lon="6.57027">
        <ele>427</ele>
        <time>2013-08-17T07:41:16Z</time>
      </trkpt>
      <trkpt lat="43.62596" lon="6.57004">
        <ele>424</ele>
        <time>2013-08-17T07:41:26Z</time>
      </trkpt>
      <trkpt lat="43.62593" lon="6.5699">
        <ele>430</ele>
        <time>2013-08-17T07:41:31Z</time>
      </trkpt>
      <trkpt lat="43.62579" lon="6.56965">
        <ele>418</ele>
        <time>2013-08-17T07:41:40Z</time>
      </trkpt>
      <trkpt lat="43.62551" lon="6.56942">
        <ele>417</ele>
        <time>2013-08-17T07:41:50Z</time>
      </trkpt>
      <trkpt lat="43.62528" lon="6.56927">
        <ele>413</ele>
        <time>2013-08-17T07:42:00Z</time>
      </trkpt>
      <trkpt lat="43.62526" lon="6.56926">
        <ele>413</ele>
        <time>2013-08-17T07:42:01Z</time>
      </trkpt>
      <trkpt lat="43.62524" lon="6.56925">
        <ele>412</ele>
        <time>2013-08-17T07:42:02Z</time>
      </trkpt>
      <trkpt lat="43.62521" lon="6.56925">
        <ele>412</ele>
        <time>2013-08-17T07:42:03Z</time>
      </trkpt>
      <trkpt lat="43.62519" lon="6.56924">
        <ele>411</ele>
        <time>2013-08-17T07:42:04Z</time>
      </trkpt>
      <trkpt lat="43.62517" lon="6.56924">
        <ele>410</ele>
        <time>2013-08-17T07:42:05Z</time>
      </trkpt>
      <trkpt lat="43.62514" lon="6.56924">
        <ele>410</ele>
        <time>2013-08-17T07:42:06Z</time>
      </trkpt>
      <trkpt lat="43.62512" lon="6.56923">
        <ele>409</ele>
        <time>2013-08-17T07:42:07Z</time>
      </trkpt>
      <trkpt lat="43.6251" lon="6.56922">
        <ele>409</ele>
        <time>2013-08-17T07:42:08Z</time>
      </trkpt>
      <trkpt lat="43.62508" lon="6.56921">
        <ele>408</ele>
        <time>2013-08-17T07:42:09Z</time>
      </trkpt>
      <trkpt lat="43.62505" lon="6.5692">
        <ele>407</ele>
        <time>2013-08-17T07:42:10Z</time>
      </trkpt>
      <trkpt lat="43.62503" lon="6.56918">
        <ele>406</ele>
        <time>2013-08-17T07:42:11Z</time>
      </trkpt>
      <trkpt lat="43.625" lon="6.56916">
        <ele>405</ele>
        <time>2013-08-17T07:42:12Z</time>
      </trkpt>
      <trkpt lat="43.62497" lon="6.56914">
        <ele>405</ele>
        <time>2013-08-17T07:42:13Z</time>
      </trkpt>
      <trkpt lat="43.62494" lon="6.56913">
        <ele>405</ele>
        <time>2013-08-17T07:42:14Z</time>
      </trkpt>
      <trkpt lat="43.62491" lon="6.56913">
        <ele>404</ele>
        <time>2013-08-17T07:42:15Z</time>
      </trkpt>
      <trkpt lat="43.62488" lon="6.56912">
        <ele>404</ele>
        <time>2013-08-17T07:42:16Z</time>
      </trkpt>
      <trkpt lat="43.62486" lon="6.5691">
        <ele>404</ele>
        <time>2013-08-17T07:42:17Z</time>
      </trkpt>
      <trkpt lat="43.62465" lon="6.56891">
        <ele>403</ele>
        <time>2013-08-17T07:42:26Z</time>
      </trkpt>
      <trkpt lat="43.6245" lon="6.56868">
        <ele>403</ele>
        <time>2013-08-17T07:42:38Z</time>
      </trkpt>
      <trkpt lat="43.62449" lon="6.56866">
        <ele>403</ele>
        <time>2013-08-17T07:42:52Z</time>
      </trkpt>
      <trkpt lat="43.62452" lon="6.56867">
        <ele>403</ele>
        <time>2013-08-17T07:43:24Z</time>
      </trkpt>
      <trkpt lat="43.62451" lon="6.56866">
        <ele>403</ele>
        <time>2013-08-17T07:43:53Z</time>
      </trkpt>
      <trkpt lat="43.62451" lon="6.56865">
        <ele>403</ele>
        <time>2013-08-17T07:44:21Z</time>
      </trkpt>
      <trkpt lat="43.62451" lon="6.56863">
        <ele>403</ele>
        <time>2013-08-17T07:44:52Z</time>
      </trkpt>
      <trkpt lat="43.62451" lon="6.56863">
        <ele>403</ele>
        <time>2013-08-17T07:45:24Z</time>
      </trkpt>
      <trkpt lat="43.62453" lon="6.56865">
        <ele>403</ele>
        <time>2013-08-17T07:46:02Z</time>
      </trkpt>
      <trkpt lat="43.62453" lon="6.56865">
        <ele>403</ele>
        <time>2013-08-17T07:46:36Z</time>
      </trkpt>
      <trkpt lat="43.62452" lon="6.56864">
        <ele>403</ele>
        <time>2013-08-17T07:47:06Z</time>
      </trkpt>
      <trkpt lat="43.62452" lon="6.56865">
        <ele>403</ele>
        <time>2013-08-17T07:47:39Z</time>
      </trkpt>
      <trkpt lat="43.62451" lon="6.56863">
        <ele>403</ele>
        <time>2013-08-17T07:48:12Z</time>
      </trkpt>
      <trkpt lat="43.62452" lon="6.56864">
        <ele>403</ele>
        <time>2013-08-17T07:48:47Z</time>
      </trkpt>
      <trkpt lat="43.62451" lon="6.56864">
        <ele>403</ele>
        <time>2013-08-17T07:49:12Z</time>
      </trkpt>
      <trkpt lat="43.62452" lon="6.56865">
        <ele>403</ele>
        <time>2013-08-17T07:49:38Z</time>
      </trkpt>
      <trkpt lat="43.62451" lon="6.56864">
        <ele>403</ele>
        <time>2013-08-17T07:50:07Z</time>
      </trkpt>
      <trkpt lat="43.62451" lon="6.56865">
        <ele>403</ele>
        <time>2013-08-17T07:50:42Z</time>
      </trkpt>
      <trkpt lat="43.6245" lon="6.56863">
        <ele>403</ele>
        <time>2013-08-17T07:51:21Z</time>
      </trkpt>
      <trkpt lat="43.6245" lon="6.56864">
        <ele>403</ele>
        <time>2013-08-17T07:51:59Z</time>
      </trkpt>
      <trkpt lat="43.62451" lon="6.56865">
        <ele>403</ele>
        <time>2013-08-17T07:52:37Z</time>
      </trkpt>
      <trkpt lat="43.62452" lon="6.56866">
        <ele>403</ele>
        <time>2013-08-17T07:53:20Z</time>
      </trkpt>
      <trkpt lat="43.62451" lon="6.56866">
        <ele>403</ele>
        <time>2013-08-17T07:54:02Z</time>
      </trkpt>
      <trkpt lat="43.62451" lon="6.56867">
        <ele>403</ele>
        <time>2013-08-17T07:54:44Z</time>
      </trkpt>
      <trkpt lat="43.6245" lon="6.56866">
        <ele>403</ele>
        <time>2013-08-17T07:55:25Z</time>
      </trkpt>
      <trkpt lat="43.62451" lon="6.56867">
        <ele>403</ele>
        <time>2013-08-17T07:56:02Z</time>
      </trkpt>
      <trkpt lat="43.62453" lon="6.56866">
        <ele>403</ele>
        <time>2013-08-17T07:56:42Z</time>
      </trkpt>
      <trkpt lat="43.62451" lon="6.56863">
        <ele>403</ele>
        <time>2013-08-17T07:57:19Z</time>
      </trkpt>
      <trkpt lat="43.62451" lon="6.56864">
        <ele>403</ele>
        <time>2013-08-17T07:57:49Z</time>
      </trkpt>
      <trkpt lat="43.6245" lon="6.56866">
        <ele>403</ele>
        <time>2013-08-17T07:58:07Z</time>
      </trkpt>
      <trkpt lat="43.62451" lon="6.56869">
        <ele>403</ele>
        <time>2013-08-17T07:58:10Z</time>
      </trkpt>
      <trkpt lat="43.62466" lon="6.56892">
        <ele>403</ele>
        <time>2013-08-17T07:58:19Z</time>
      </trkpt>
      <trkpt lat="43.62493" lon="6.56915">
        <ele>405</ele>
        <time>2013-08-17T07:58:32Z</time>
      </trkpt>
      <trkpt lat="43.62512" lon="6.56928">
        <ele>410</ele>
        <time>2013-08-17T07:58:43Z</time>
      </trkpt>
      <trkpt lat="43.62512" lon="6.56931">
        <ele>410</ele>
        <time>2013-08-17T07:58:46Z</time>
      </trkpt>
      <trkpt lat="43.6251" lon="6.56955">
        <ele>411</ele>
        <time>2013-08-17T07:58:56Z</time>
      </trkpt>
      <trkpt lat="43.62509" lon="6.56953">
        <ele>411</ele>
        <time>2013-08-17T07:58:57Z</time>
      </trkpt>
      <trkpt lat="43.62511" lon="6.5695">
        <ele>411</ele>
        <time>2013-08-17T07:58:58Z</time>
      </trkpt>
      <trkpt lat="43.6253" lon="6.56934">
        <ele>413</ele>
        <time>2013-08-17T07:58:59Z</time>
      </trkpt>
      <trkpt lat="43.62525" lon="6.56913">
        <ele>420</ele>
        <time>2013-08-17T07:59:08Z</time>
      </trkpt>
      <trkpt lat="43.62524" lon="6.56909">
        <ele>420</ele>
        <time>2013-08-17T07:59:10Z</time>
      </trkpt>
      <trkpt lat="43.62523" lon="6.56907">
        <ele>420</ele>
        <time>2013-08-17T07:59:11Z</time>
      </trkpt>
      <trkpt lat="43.62522" lon="6.56905">
        <ele>420</ele>
        <time>2013-08-17T07:59:12Z</time>
      </trkpt>
      <trkpt lat="43.62521" lon="6.56902">
        <ele>420</ele>
        <time>2013-08-17T07:59:13Z</time>
      </trkpt>
      <trkpt lat="43.6252" lon="6.56899">
        <ele>420</ele>
        <time>2013-08-17T07:59:14Z</time>
      </trkpt>
      <trkpt lat="43.62519" lon="6.56897">
        <ele>420</ele>
        <time>2013-08-17T07:59:15Z</time>
      </trkpt>
      <trkpt lat="43.62518" lon="6.56894">
        <ele>421</ele>
        <time>2013-08-17T07:59:16Z</time>
      </trkpt>
      <trkpt lat="43.62497" lon="6.56859">
        <ele>409</ele>
        <time>2013-08-17T07:59:29Z</time>
      </trkpt>
      <trkpt lat="43.62477" lon="6.56813">
        <ele>416</ele>
        <time>2013-08-17T07:59:45Z</time>
      </trkpt>
      <trkpt lat="43.62461" lon="6.56765">
        <ele>417</ele>
        <time>2013-08-17T07:59:57Z</time>
      </trkpt>
      <trkpt lat="43.62429" lon="6.56733">
        <ele>420</ele>
        <time>2013-08-17T08:00:08Z</time>
      </trkpt>
      <trkpt lat="43.62422" lon="6.56725">
        <ele>421</ele>
        <time>2013-08-17T08:00:10Z</time>
      </trkpt>
      <trkpt lat="43.62418" lon="6.5672">
        <ele>422</ele>
        <time>2013-08-17T08:00:11Z</time>
      </trkpt>
      <trkpt lat="43.62393" lon="6.56688">
        <ele>412</ele>
        <time>2013-08-17T08:00:19Z</time>
      </trkpt>
      <trkpt lat="43.6239" lon="6.56683">
        <ele>412</ele>
        <time>2013-08-17T08:00:20Z</time>
      </trkpt>
      <trkpt lat="43.62388" lon="6.56678">
        <ele>413</ele>
        <time>2013-08-17T08:00:21Z</time>
      </trkpt>
      <trkpt lat="43.62387" lon="6.56673">
        <ele>413</ele>
        <time>2013-08-17T08:00:22Z</time>
      </trkpt>
      <trkpt lat="43.62387" lon="6.56668">
        <ele>413</ele>
        <time>2013-08-17T08:00:23Z</time>
      </trkpt>
      <trkpt lat="43.62387" lon="6.56665">
        <ele>418</ele>
        <time>2013-08-17T08:00:24Z</time>
      </trkpt>
      <trkpt lat="43.62388" lon="6.56662">
        <ele>418</ele>
        <time>2013-08-17T08:00:25Z</time>
      </trkpt>
      <trkpt lat="43.62389" lon="6.5666">
        <ele>418</ele>
        <time>2013-08-17T08:00:26Z</time>
      </trkpt>
      <trkpt lat="43.6239" lon="6.56657">
        <ele>418</ele>
        <time>2013-08-17T08:00:27Z</time>
      </trkpt>
      <trkpt lat="43.62392" lon="6.56655">
        <ele>418</ele>
        <time>2013-08-17T08:00:28Z</time>
      </trkpt>
      <trkpt lat="43.62392" lon="6.56653">
        <ele>418</ele>
        <time>2013-08-17T08:00:29Z</time>
      </trkpt>
      <trkpt lat="43.62393" lon="6.5665">
        <ele>418</ele>
        <time>2013-08-17T08:00:30Z</time>
      </trkpt>
      <trkpt lat="43.62393" lon="6.56648">
        <ele>418</ele>
        <time>2013-08-17T08:00:31Z</time>
      </trkpt>
      <trkpt lat="43.62394" lon="6.56645">
        <ele>418</ele>
        <time>2013-08-17T08:00:32Z</time>
      </trkpt>
      <trkpt lat="43.62394" lon="6.56642">
        <ele>418</ele>
        <time>2013-08-17T08:00:33Z</time>
      </trkpt>
      <trkpt lat="43.62394" lon="6.5664">
        <ele>418</ele>
        <time>2013-08-17T08:00:34Z</time>
      </trkpt>
      <trkpt lat="43.62394" lon="6.56638">
        <ele>418</ele>
        <time>2013-08-17T08:00:35Z</time>
      </trkpt>
      <trkpt lat="43.62395" lon="6.56635">
        <ele>418</ele>
        <time>2013-08-17T08:00:36Z</time>
      </trkpt>
      <trkpt lat="43.62396" lon="6.56633">
        <ele>418</ele>
        <time>2013-08-17T08:00:37Z</time>
      </trkpt>
      <trkpt lat="43.62397" lon="6.5663">
        <ele>419</ele>
        <time>2013-08-17T08:00:38Z</time>
      </trkpt>
      <trkpt lat="43.62398" lon="6.56628">
        <ele>419</ele>
        <time>2013-08-17T08:00:39Z</time>
      </trkpt>
      <trkpt lat="43.62398" lon="6.56625">
        <ele>419</ele>
        <time>2013-08-17T08:00:40Z</time>
      </trkpt>
      <trkpt lat="43.62399" lon="6.56622">
        <ele>419</ele>
        <time>2013-08-17T08:00:41Z</time>
      </trkpt>
      <trkpt lat="43.62399" lon="6.5662">
        <ele>419</ele>
        <time>2013-08-17T08:00:42Z</time>
      </trkpt>
      <trkpt lat="43.62399" lon="6.56618">
        <ele>419</ele>
        <time>2013-08-17T08:00:43Z</time>
      </trkpt>
      <trkpt lat="43.624" lon="6.56616">
        <ele>419</ele>
        <time>2013-08-17T08:00:44Z</time>
      </trkpt>
      <trkpt lat="43.62401" lon="6.56615">
        <ele>419</ele>
        <time>2013-08-17T08:00:45Z</time>
      </trkpt>
      <trkpt lat="43.62402" lon="6.56613">
        <ele>420</ele>
        <time>2013-08-17T08:00:46Z</time>
      </trkpt>
      <trkpt lat="43.62403" lon="6.56613">
        <ele>420</ele>
        <time>2013-08-17T08:00:47Z</time>
      </trkpt>
      <trkpt lat="43.62404" lon="6.56612">
        <ele>420</ele>
        <time>2013-08-17T08:00:48Z</time>
      </trkpt>
      <trkpt lat="43.62405" lon="6.5661">
        <ele>420</ele>
        <time>2013-08-17T08:00:49Z</time>
      </trkpt>
      <trkpt lat="43.62414" lon="6.56599">
        <ele>422</ele>
        <time>2013-08-17T08:00:58Z</time>
      </trkpt>
      <trkpt lat="43.62416" lon="6.56598">
        <ele>423</ele>
        <time>2013-08-17T08:00:59Z</time>
      </trkpt>
      <trkpt lat="43.6242" lon="6.56599">
        <ele>432</ele>
        <time>2013-08-17T08:01:01Z</time>
      </trkpt>
      <trkpt lat="43.62422" lon="6.56598">
        <ele>432</ele>
        <time>2013-08-17T08:01:03Z</time>
      </trkpt>
      <trkpt lat="43.62426" lon="6.56586">
        <ele>431</ele>
        <time>2013-08-17T08:01:12Z</time>
      </trkpt>
      <trkpt lat="43.62428" lon="6.56583">
        <ele>431</ele>
        <time>2013-08-17T08:01:13Z</time>
      </trkpt>
      <trkpt lat="43.6243" lon="6.56581">
        <ele>432</ele>
        <time>2013-08-17T08:01:14Z</time>
      </trkpt>
      <trkpt lat="43.62434" lon="6.56578">
        <ele>433</ele>
        <time>2013-08-17T08:01:16Z</time>
      </trkpt>
      <trkpt lat="43.62447" lon="6.56538">
        <ele>436</ele>
        <time>2013-08-17T08:01:27Z</time>
      </trkpt>
      <trkpt lat="43.62451" lon="6.56481">
        <ele>433</ele>
        <time>2013-08-17T08:01:41Z</time>
      </trkpt>
      <trkpt lat="43.62449" lon="6.56449">
        <ele>433</ele>
        <time>2013-08-17T08:01:52Z</time>
      </trkpt>
      <trkpt lat="43.62457" lon="6.5641">
        <ele>432</ele>
        <time>2013-08-17T08:02:04Z</time>
      </trkpt>
      <trkpt lat="43.62466" lon="6.56367">
        <ele>433</ele>
        <time>2013-08-17T08:02:13Z</time>
      </trkpt>
      <trkpt lat="43.62469" lon="6.5635">
        <ele>434</ele>
        <time>2013-08-17T08:02:18Z</time>
      </trkpt>
      <trkpt lat="43.62483" lon="6.563">
        <ele>433</ele>
        <time>2013-08-17T08:02:30Z</time>
      </trkpt>
      <trkpt lat="43.62511" lon="6.56269">
        <ele>451</ele>
        <time>2013-08-17T08:02:41Z</time>
      </trkpt>
      <trkpt lat="43.62523" lon="6.5625">
        <ele>453</ele>
        <time>2013-08-17T08:02:47Z</time>
      </trkpt>
      <trkpt lat="43.62524" lon="6.56248">
        <ele>451</ele>
        <time>2013-08-17T08:02:48Z</time>
      </trkpt>
      <trkpt lat="43.62525" lon="6.56245">
        <ele>451</ele>
        <time>2013-08-17T08:02:49Z</time>
      </trkpt>
      <trkpt lat="43.62525" lon="6.56243">
        <ele>451</ele>
        <time>2013-08-17T08:02:50Z</time>
      </trkpt>
      <trkpt lat="43.62525" lon="6.5624">
        <ele>452</ele>
        <time>2013-08-17T08:02:51Z</time>
      </trkpt>
      <trkpt lat="43.62526" lon="6.56238">
        <ele>452</ele>
        <time>2013-08-17T08:02:52Z</time>
      </trkpt>
      <trkpt lat="43.62526" lon="6.56235">
        <ele>452</ele>
        <time>2013-08-17T08:02:53Z</time>
      </trkpt>
      <trkpt lat="43.62525" lon="6.56232">
        <ele>452</ele>
        <time>2013-08-17T08:02:54Z</time>
      </trkpt>
      <trkpt lat="43.62525" lon="6.56229">
        <ele>452</ele>
        <time>2013-08-17T08:02:55Z</time>
      </trkpt>
      <trkpt lat="43.62525" lon="6.56227">
        <ele>452</ele>
        <time>2013-08-17T08:02:56Z</time>
      </trkpt>
      <trkpt lat="43.62525" lon="6.56223">
        <ele>453</ele>
        <time>2013-08-17T08:02:57Z</time>
      </trkpt>
      <trkpt lat="43.62525" lon="6.56219">
        <ele>453</ele>
        <time>2013-08-17T08:02:58Z</time>
      </trkpt>
      <trkpt lat="43.62525" lon="6.56216">
        <ele>453</ele>
        <time>2013-08-17T08:02:59Z</time>
      </trkpt>
      <trkpt lat="43.62525" lon="6.56213">
        <ele>453</ele>
        <time>2013-08-17T08:03:00Z</time>
      </trkpt>
      <trkpt lat="43.62526" lon="6.5621">
        <ele>453</ele>
        <time>2013-08-17T08:03:01Z</time>
      </trkpt>
      <trkpt lat="43.62526" lon="6.56206">
        <ele>453</ele>
        <time>2013-08-17T08:03:02Z</time>
      </trkpt>
      <trkpt lat="43.62527" lon="6.56201">
        <ele>453</ele>
        <time>2013-08-17T08:03:03Z</time>
      </trkpt>
      <trkpt lat="43.62526" lon="6.56197">
        <ele>453</ele>
        <time>2013-08-17T08:03:04Z</time>
      </trkpt>
      <trkpt lat="43.62525" lon="6.56193">
        <ele>453</ele>
        <time>2013-08-17T08:03:05Z</time>
      </trkpt>
      <trkpt lat="43.62524" lon="6.56189">
        <ele>452</ele>
        <time>2013-08-17T08:03:06Z</time>
      </trkpt>
      <trkpt lat="43.62522" lon="6.56186">
        <ele>451</ele>
        <time>2013-08-17T08:03:07Z</time>
      </trkpt>
      <trkpt lat="43.62519" lon="6.56182">
        <ele>450</ele>
        <time>2013-08-17T08:03:08Z</time>
      </trkpt>
      <trkpt lat="43.6251" lon="6.56172">
        <ele>446</ele>
        <time>2013-08-17T08:03:11Z</time>
      </trkpt>
      <trkpt lat="43.62497" lon="6.56162">
        <ele>438</ele>
        <time>2013-08-17T08:03:14Z</time>
      </trkpt>
      <trkpt lat="43.62494" lon="6.56159">
        <ele>436</ele>
        <time>2013-08-17T08:03:15Z</time>
      </trkpt>
      <trkpt lat="43.6249" lon="6.56154">
        <ele>435</ele>
        <time>2013-08-17T08:03:16Z</time>
      </trkpt>
      <trkpt lat="43.62489" lon="6.56151">
        <ele>434</ele>
        <time>2013-08-17T08:03:17Z</time>
      </trkpt>
      <trkpt lat="43.62488" lon="6.56146">
        <ele>433</ele>
        <time>2013-08-17T08:03:18Z</time>
      </trkpt>
      <trkpt lat="43.62487" lon="6.56141">
        <ele>433</ele>
        <time>2013-08-17T08:03:19Z</time>
      </trkpt>
      <trkpt lat="43.62486" lon="6.56135">
        <ele>433</ele>
        <time>2013-08-17T08:03:20Z</time>
      </trkpt>
      <trkpt lat="43.62487" lon="6.5613">
        <ele>433</ele>
        <time>2013-08-17T08:03:21Z</time>
      </trkpt>
      <trkpt lat="43.62487" lon="6.56125">
        <ele>433</ele>
        <time>2013-08-17T08:03:22Z</time>
      </trkpt>
      <trkpt lat="43.62488" lon="6.5612">
        <ele>433</ele>
        <time>2013-08-17T08:03:23Z</time>
      </trkpt>
      <trkpt lat="43.62489" lon="6.56115">
        <ele>434</ele>
        <time>2013-08-17T08:03:24Z</time>
      </trkpt>
      <trkpt lat="43.62489" lon="6.56111">
        <ele>434</ele>
        <time>2013-08-17T08:03:25Z</time>
      </trkpt>
      <trkpt lat="43.6249" lon="6.56107">
        <ele>435</ele>
        <time>2013-08-17T08:03:26Z</time>
      </trkpt>
      <trkpt lat="43.62492" lon="6.56105">
        <ele>436</ele>
        <time>2013-08-17T08:03:27Z</time>
      </trkpt>
      <trkpt lat="43.62493" lon="6.56101">
        <ele>437</ele>
        <time>2013-08-17T08:03:28Z</time>
      </trkpt>
      <trkpt lat="43.62494" lon="6.56097">
        <ele>438</ele>
        <time>2013-08-17T08:03:29Z</time>
      </trkpt>
      <trkpt lat="43.62495" lon="6.56092">
        <ele>439</ele>
        <time>2013-08-17T08:03:30Z</time>
      </trkpt>
      <trkpt lat="43.62496" lon="6.56089">
        <ele>441</ele>
        <time>2013-08-17T08:03:31Z</time>
      </trkpt>
      <trkpt lat="43.62497" lon="6.56085">
        <ele>443</ele>
        <time>2013-08-17T08:03:32Z</time>
      </trkpt>
      <trkpt lat="43.62505" lon="6.56065">
        <ele>451</ele>
        <time>2013-08-17T08:03:41Z</time>
      </trkpt>
      <trkpt lat="43.62512" lon="6.56054">
        <ele>453</ele>
        <time>2013-08-17T08:03:48Z</time>
      </trkpt>
      <trkpt lat="43.62525" lon="6.56037">
        <ele>454</ele>
        <time>2013-08-17T08:03:58Z</time>
      </trkpt>
      <trkpt lat="43.62531" lon="6.5602">
        <ele>455</ele>
        <time>2013-08-17T08:04:08Z</time>
      </trkpt>
      <trkpt lat="43.62536" lon="6.56015">
        <ele>456</ele>
        <time>2013-08-17T08:04:11Z</time>
      </trkpt>
      <trkpt lat="43.62538" lon="6.56014">
        <ele>456</ele>
        <time>2013-08-17T08:04:12Z</time>
      </trkpt>
      <trkpt lat="43.6254" lon="6.56012">
        <ele>456</ele>
        <time>2013-08-17T08:04:13Z</time>
      </trkpt>
      <trkpt lat="43.62542" lon="6.5601">
        <ele>457</ele>
        <time>2013-08-17T08:04:14Z</time>
      </trkpt>
      <trkpt lat="43.62544" lon="6.56008">
        <ele>457</ele>
        <time>2013-08-17T08:04:15Z</time>
      </trkpt>
      <trkpt lat="43.62567" lon="6.55984">
        <ele>463</ele>
        <time>2013-08-17T08:04:29Z</time>
      </trkpt>
      <trkpt lat="43.62577" lon="6.55965">
        <ele>464</ele>
        <time>2013-08-17T08:04:37Z</time>
      </trkpt>
      <trkpt lat="43.62576" lon="6.55963">
        <ele>464</ele>
        <time>2013-08-17T08:04:38Z</time>
      </trkpt>
      <trkpt lat="43.62575" lon="6.55962">
        <ele>464</ele>
        <time>2013-08-17T08:04:39Z</time>
      </trkpt>
      <trkpt lat="43.62542" lon="6.55938">
        <ele>461</ele>
        <time>2013-08-17T08:04:52Z</time>
      </trkpt>
      <trkpt lat="43.62519" lon="6.55925">
        <ele>458</ele>
        <time>2013-08-17T08:04:59Z</time>
      </trkpt>
      <trkpt lat="43.62515" lon="6.55925">
        <ele>457</ele>
        <time>2013-08-17T08:05:00Z</time>
      </trkpt>
      <trkpt lat="43.62506" lon="6.55923">
        <ele>456</ele>
        <time>2013-08-17T08:05:02Z</time>
      </trkpt>
      <trkpt lat="43.62503" lon="6.55919">
        <ele>455</ele>
        <time>2013-08-17T08:05:03Z</time>
      </trkpt>
      <trkpt lat="43.625" lon="6.55914">
        <ele>453</ele>
        <time>2013-08-17T08:05:04Z</time>
      </trkpt>
      <trkpt lat="43.62495" lon="6.55902">
        <ele>450</ele>
        <time>2013-08-17T08:05:06Z</time>
      </trkpt>
      <trkpt lat="43.62494" lon="6.55895">
        <ele>450</ele>
        <time>2013-08-17T08:05:07Z</time>
      </trkpt>
      <trkpt lat="43.62491" lon="6.55874">
        <ele>450</ele>
        <time>2013-08-17T08:05:10Z</time>
      </trkpt>
      <trkpt lat="43.62489" lon="6.55869">
        <ele>450</ele>
        <time>2013-08-17T08:05:11Z</time>
      </trkpt>
      <trkpt lat="43.62488" lon="6.55864">
        <ele>450</ele>
        <time>2013-08-17T08:05:12Z</time>
      </trkpt>
      <trkpt lat="43.62486" lon="6.55861">
        <ele>451</ele>
        <time>2013-08-17T08:05:13Z</time>
      </trkpt>
      <trkpt lat="43.62485" lon="6.55857">
        <ele>451</ele>
        <time>2013-08-17T08:05:14Z</time>
      </trkpt>
      <trkpt lat="43.62484" lon="6.55853">
        <ele>452</ele>
        <time>2013-08-17T08:05:15Z</time>
      </trkpt>
      <trkpt lat="43.62484" lon="6.558">
        <ele>453</ele>
        <time>2013-08-17T08:05:27Z</time>
      </trkpt>
      <trkpt lat="43.62484" lon="6.55792">
        <ele>453</ele>
        <time>2013-08-17T08:05:29Z</time>
      </trkpt>
      <trkpt lat="43.62483" lon="6.55788">
        <ele>453</ele>
        <time>2013-08-17T08:05:30Z</time>
      </trkpt>
      <trkpt lat="43.62483" lon="6.55785">
        <ele>453</ele>
        <time>2013-08-17T08:05:31Z</time>
      </trkpt>
      <trkpt lat="43.62481" lon="6.55757">
        <ele>456</ele>
        <time>2013-08-17T08:05:41Z</time>
      </trkpt>
      <trkpt lat="43.62471" lon="6.5572">
        <ele>454</ele>
        <time>2013-08-17T08:05:51Z</time>
      </trkpt>
      <trkpt lat="43.62472" lon="6.55689">
        <ele>455</ele>
        <time>2013-08-17T08:06:02Z</time>
      </trkpt>
      <trkpt lat="43.62474" lon="6.55677">
        <ele>457</ele>
        <time>2013-08-17T08:06:07Z</time>
      </trkpt>
      <trkpt lat="43.62475" lon="6.55674">
        <ele>458</ele>
        <time>2013-08-17T08:06:08Z</time>
      </trkpt>
      <trkpt lat="43.62477" lon="6.55669">
        <ele>459</ele>
        <time>2013-08-17T08:06:11Z</time>
      </trkpt>
      <trkpt lat="43.62478" lon="6.55668">
        <ele>459</ele>
        <time>2013-08-17T08:06:13Z</time>
      </trkpt>
      <trkpt lat="43.62479" lon="6.55667">
        <ele>460</ele>
        <time>2013-08-17T08:06:14Z</time>
      </trkpt>
      <trkpt lat="43.62486" lon="6.55661">
        <ele>463</ele>
        <time>2013-08-17T08:06:19Z</time>
      </trkpt>
      <trkpt lat="43.62487" lon="6.55658">
        <ele>463</ele>
        <time>2013-08-17T08:06:20Z</time>
      </trkpt>
      <trkpt lat="43.62488" lon="6.55656">
        <ele>463</ele>
        <time>2013-08-17T08:06:21Z</time>
      </trkpt>
      <trkpt lat="43.6249" lon="6.55654">
        <ele>463</ele>
        <time>2013-08-17T08:06:22Z</time>
      </trkpt>
      <trkpt lat="43.62491" lon="6.55651">
        <ele>463</ele>
        <time>2013-08-17T08:06:23Z</time>
      </trkpt>
      <trkpt lat="43.62503" lon="6.55627">
        <ele>478</ele>
        <time>2013-08-17T08:06:32Z</time>
      </trkpt>
      <trkpt lat="43.62503" lon="6.55613">
        <ele>477</ele>
        <time>2013-08-17T08:06:36Z</time>
      </trkpt>
      <trkpt lat="43.62502" lon="6.55572">
        <ele>474</ele>
        <time>2013-08-17T08:06:46Z</time>
      </trkpt>
      <trkpt lat="43.62516" lon="6.55536">
        <ele>476</ele>
        <time>2013-08-17T08:06:57Z</time>
      </trkpt>
      <trkpt lat="43.62539" lon="6.55517">
        <ele>478</ele>
        <time>2013-08-17T08:07:08Z</time>
      </trkpt>
      <trkpt lat="43.62561" lon="6.55486">
        <ele>480</ele>
        <time>2013-08-17T08:07:19Z</time>
      </trkpt>
      <trkpt lat="43.6257" lon="6.55459">
        <ele>479</ele>
        <time>2013-08-17T08:07:27Z</time>
      </trkpt>
      <trkpt lat="43.6257" lon="6.55456">
        <ele>479</ele>
        <time>2013-08-17T08:07:28Z</time>
      </trkpt>
      <trkpt lat="43.62576" lon="6.55419">
        <ele>484</ele>
        <time>2013-08-17T08:07:40Z</time>
      </trkpt>
      <trkpt lat="43.62568" lon="6.55397">
        <ele>482</ele>
        <time>2013-08-17T08:07:45Z</time>
      </trkpt>
      <trkpt lat="43.62565" lon="6.55393">
        <ele>482</ele>
        <time>2013-08-17T08:07:46Z</time>
      </trkpt>
      <trkpt lat="43.62562" lon="6.55389">
        <ele>482</ele>
        <time>2013-08-17T08:07:47Z</time>
      </trkpt>
      <trkpt lat="43.6256" lon="6.55383">
        <ele>482</ele>
        <time>2013-08-17T08:07:48Z</time>
      </trkpt>
      <trkpt lat="43.62558" lon="6.55377">
        <ele>482</ele>
        <time>2013-08-17T08:07:49Z</time>
      </trkpt>
      <trkpt lat="43.6255" lon="6.55354">
        <ele>483</ele>
        <time>2013-08-17T08:07:53Z</time>
      </trkpt>
      <trkpt lat="43.62544" lon="6.55328">
        <ele>488</ele>
        <time>2013-08-17T08:07:57Z</time>
      </trkpt>
      <trkpt lat="43.62544" lon="6.55321">
        <ele>488</ele>
        <time>2013-08-17T08:07:58Z</time>
      </trkpt>
      <trkpt lat="43.62542" lon="6.55285">
        <ele>489</ele>
        <time>2013-08-17T08:08:03Z</time>
      </trkpt>
      <trkpt lat="43.6254" lon="6.55278">
        <ele>489</ele>
        <time>2013-08-17T08:08:04Z</time>
      </trkpt>
      <trkpt lat="43.62537" lon="6.55271">
        <ele>488</ele>
        <time>2013-08-17T08:08:05Z</time>
      </trkpt>
      <trkpt lat="43.62532" lon="6.55265">
        <ele>487</ele>
        <time>2013-08-17T08:08:06Z</time>
      </trkpt>
      <trkpt lat="43.62527" lon="6.5526">
        <ele>486</ele>
        <time>2013-08-17T08:08:07Z</time>
      </trkpt>
      <trkpt lat="43.62522" lon="6.55255">
        <ele>485</ele>
        <time>2013-08-17T08:08:08Z</time>
      </trkpt>
      <trkpt lat="43.62517" lon="6.55251">
        <ele>484</ele>
        <time>2013-08-17T08:08:09Z</time>
      </trkpt>
      <trkpt lat="43.62511" lon="6.55248">
        <ele>484</ele>
        <time>2013-08-17T08:08:10Z</time>
      </trkpt>
      <trkpt lat="43.62506" lon="6.55244">
        <ele>483</ele>
        <time>2013-08-17T08:08:11Z</time>
      </trkpt>
      <trkpt lat="43.62501" lon="6.5524">
        <ele>483</ele>
        <time>2013-08-17T08:08:12Z</time>
      </trkpt>
      <trkpt lat="43.62496" lon="6.55234">
        <ele>476</ele>
        <time>2013-08-17T08:08:13Z</time>
      </trkpt>
      <trkpt lat="43.62493" lon="6.55228">
        <ele>476</ele>
        <time>2013-08-17T08:08:14Z</time>
      </trkpt>
      <trkpt lat="43.6249" lon="6.55221">
        <ele>476</ele>
        <time>2013-08-17T08:08:15Z</time>
      </trkpt>
      <trkpt lat="43.62487" lon="6.55214">
        <ele>476</ele>
        <time>2013-08-17T08:08:16Z</time>
      </trkpt>
      <trkpt lat="43.62486" lon="6.55207">
        <ele>476</ele>
        <time>2013-08-17T08:08:17Z</time>
      </trkpt>
      <trkpt lat="43.62486" lon="6.55199">
        <ele>477</ele>
        <time>2013-08-17T08:08:18Z</time>
      </trkpt>
      <trkpt lat="43.62486" lon="6.55191">
        <ele>478</ele>
        <time>2013-08-17T08:08:19Z</time>
      </trkpt>
      <trkpt lat="43.62485" lon="6.55175">
        <ele>479</ele>
        <time>2013-08-17T08:08:21Z</time>
      </trkpt>
      <trkpt lat="43.62486" lon="6.55167">
        <ele>480</ele>
        <time>2013-08-17T08:08:22Z</time>
      </trkpt>
      <trkpt lat="43.62487" lon="6.55159">
        <ele>484</ele>
        <time>2013-08-17T08:08:23Z</time>
      </trkpt>
      <trkpt lat="43.62487" lon="6.55152">
        <ele>484</ele>
        <time>2013-08-17T08:08:24Z</time>
      </trkpt>
      <trkpt lat="43.62486" lon="6.55144">
        <ele>484</ele>
        <time>2013-08-17T08:08:25Z</time>
      </trkpt>
      <trkpt lat="43.62486" lon="6.55136">
        <ele>484</ele>
        <time>2013-08-17T08:08:26Z</time>
      </trkpt>
      <trkpt lat="43.62485" lon="6.55128">
        <ele>484</ele>
        <time>2013-08-17T08:08:27Z</time>
      </trkpt>
      <trkpt lat="43.62486" lon="6.55104">
        <ele>486</ele>
        <time>2013-08-17T08:08:30Z</time>
      </trkpt>
      <trkpt lat="43.62487" lon="6.55096">
        <ele>487</ele>
        <time>2013-08-17T08:08:31Z</time>
      </trkpt>
      <trkpt lat="43.62489" lon="6.5508">
        <ele>493</ele>
        <time>2013-08-17T08:08:33Z</time>
      </trkpt>
      <trkpt lat="43.62488" lon="6.55073">
        <ele>493</ele>
        <time>2013-08-17T08:08:34Z</time>
      </trkpt>
      <trkpt lat="43.62487" lon="6.55065">
        <ele>494</ele>
        <time>2013-08-17T08:08:35Z</time>
      </trkpt>
      <trkpt lat="43.62483" lon="6.55051">
        <ele>496</ele>
        <time>2013-08-17T08:08:37Z</time>
      </trkpt>
      <trkpt lat="43.6248" lon="6.55046">
        <ele>496</ele>
        <time>2013-08-17T08:08:38Z</time>
      </trkpt>
      <trkpt lat="43.62476" lon="6.55043">
        <ele>496</ele>
        <time>2013-08-17T08:08:39Z</time>
      </trkpt>
      <trkpt lat="43.62471" lon="6.55043">
        <ele>496</ele>
        <time>2013-08-17T08:08:40Z</time>
      </trkpt>
      <trkpt lat="43.62465" lon="6.55044">
        <ele>496</ele>
        <time>2013-08-17T08:08:41Z</time>
      </trkpt>
      <trkpt lat="43.6246" lon="6.55046">
        <ele>496</ele>
        <time>2013-08-17T08:08:42Z</time>
      </trkpt>
      <trkpt lat="43.62455" lon="6.55048">
        <ele>495</ele>
        <time>2013-08-17T08:08:43Z</time>
      </trkpt>
      <trkpt lat="43.6243" lon="6.55061">
        <ele>492</ele>
        <time>2013-08-17T08:08:48Z</time>
      </trkpt>
      <trkpt lat="43.62425" lon="6.55064">
        <ele>491</ele>
        <time>2013-08-17T08:08:49Z</time>
      </trkpt>
      <trkpt lat="43.62421" lon="6.55069">
        <ele>490</ele>
        <time>2013-08-17T08:08:50Z</time>
      </trkpt>
      <trkpt lat="43.62418" lon="6.55075">
        <ele>488</ele>
        <time>2013-08-17T08:08:51Z</time>
      </trkpt>
      <trkpt lat="43.62415" lon="6.55081">
        <ele>486</ele>
        <time>2013-08-17T08:08:52Z</time>
      </trkpt>
      <trkpt lat="43.62412" lon="6.55088">
        <ele>485</ele>
        <time>2013-08-17T08:08:53Z</time>
      </trkpt>
      <trkpt lat="43.62409" lon="6.55095">
        <ele>485</ele>
        <time>2013-08-17T08:08:54Z</time>
      </trkpt>
      <trkpt lat="43.62407" lon="6.55102">
        <ele>485</ele>
        <time>2013-08-17T08:08:55Z</time>
      </trkpt>
      <trkpt lat="43.62393" lon="6.55151">
        <ele>482</ele>
        <time>2013-08-17T08:09:02Z</time>
      </trkpt>
      <trkpt lat="43.62387" lon="6.55164">
        <ele>482</ele>
        <time>2013-08-17T08:09:04Z</time>
      </trkpt>
      <trkpt lat="43.62384" lon="6.5517">
        <ele>475</ele>
        <time>2013-08-17T08:09:05Z</time>
      </trkpt>
      <trkpt lat="43.62364" lon="6.55201">
        <ele>476</ele>
        <time>2013-08-17T08:09:10Z</time>
      </trkpt>
      <trkpt lat="43.6236" lon="6.55207">
        <ele>476</ele>
        <time>2013-08-17T08:09:11Z</time>
      </trkpt>
      <trkpt lat="43.62347" lon="6.55222">
        <ele>475</ele>
        <time>2013-08-17T08:09:14Z</time>
      </trkpt>
      <trkpt lat="43.62342" lon="6.55226">
        <ele>475</ele>
        <time>2013-08-17T08:09:15Z</time>
      </trkpt>
      <trkpt lat="43.62303" lon="6.55243">
        <ele>480</ele>
        <time>2013-08-17T08:09:22Z</time>
      </trkpt>
      <trkpt lat="43.62223" lon="6.55252">
        <ele>471</ele>
        <time>2013-08-17T08:09:36Z</time>
      </trkpt>
      <trkpt lat="43.62158" lon="6.5526">
        <ele>472</ele>
        <time>2013-08-17T08:09:47Z</time>
      </trkpt>
      <trkpt lat="43.62146" lon="6.55257">
        <ele>470</ele>
        <time>2013-08-17T08:09:49Z</time>
      </trkpt>
      <trkpt lat="43.62123" lon="6.55247">
        <ele>477</ele>
        <time>2013-08-17T08:09:53Z</time>
      </trkpt>
      <trkpt lat="43.62118" lon="6.55243">
        <ele>477</ele>
        <time>2013-08-17T08:09:54Z</time>
      </trkpt>
      <trkpt lat="43.62106" lon="6.55235">
        <ele>476</ele>
        <time>2013-08-17T08:09:57Z</time>
      </trkpt>
      <trkpt lat="43.62104" lon="6.55236">
        <ele>476</ele>
        <time>2013-08-17T08:09:58Z</time>
      </trkpt>
      <trkpt lat="43.62103" lon="6.55238">
        <ele>476</ele>
        <time>2013-08-17T08:09:59Z</time>
      </trkpt>
      <trkpt lat="43.62101" lon="6.55241">
        <ele>475</ele>
        <time>2013-08-17T08:10:00Z</time>
      </trkpt>
      <trkpt lat="43.62099" lon="6.55245">
        <ele>475</ele>
        <time>2013-08-17T08:10:01Z</time>
      </trkpt>
      <trkpt lat="43.62096" lon="6.55248">
        <ele>474</ele>
        <time>2013-08-17T08:10:02Z</time>
      </trkpt>
      <trkpt lat="43.62092" lon="6.5525">
        <ele>473</ele>
        <time>2013-08-17T08:10:03Z</time>
      </trkpt>
      <trkpt lat="43.62088" lon="6.55252">
        <ele>469</ele>
        <time>2013-08-17T08:10:04Z</time>
      </trkpt>
      <trkpt lat="43.62086" lon="6.55256">
        <ele>469</ele>
        <time>2013-08-17T08:10:05Z</time>
      </trkpt>
      <trkpt lat="43.62083" lon="6.55259">
        <ele>467</ele>
        <time>2013-08-17T08:10:06Z</time>
      </trkpt>
      <trkpt lat="43.62079" lon="6.55261">
        <ele>466</ele>
        <time>2013-08-17T08:10:07Z</time>
      </trkpt>
      <trkpt lat="43.62075" lon="6.55262">
        <ele>465</ele>
        <time>2013-08-17T08:10:08Z</time>
      </trkpt>
      <trkpt lat="43.6207" lon="6.55262">
        <ele>464</ele>
        <time>2013-08-17T08:10:09Z</time>
      </trkpt>
      <trkpt lat="43.62065" lon="6.5526">
        <ele>464</ele>
        <time>2013-08-17T08:10:10Z</time>
      </trkpt>
      <trkpt lat="43.62058" lon="6.55256">
        <ele>463</ele>
        <time>2013-08-17T08:10:11Z</time>
      </trkpt>
      <trkpt lat="43.62046" lon="6.55247">
        <ele>471</ele>
        <time>2013-08-17T08:10:13Z</time>
      </trkpt>
      <trkpt lat="43.62029" lon="6.55236">
        <ele>470</ele>
        <time>2013-08-17T08:10:16Z</time>
      </trkpt>
      <trkpt lat="43.62009" lon="6.5522">
        <ele>470</ele>
        <time>2013-08-17T08:10:20Z</time>
      </trkpt>
      <trkpt lat="43.62005" lon="6.55216">
        <ele>471</ele>
        <time>2013-08-17T08:10:21Z</time>
      </trkpt>
      <trkpt lat="43.6199" lon="6.55208">
        <ele>469</ele>
        <time>2013-08-17T08:10:25Z</time>
      </trkpt>
      <trkpt lat="43.61986" lon="6.55207">
        <ele>469</ele>
        <time>2013-08-17T08:10:26Z</time>
      </trkpt>
      <trkpt lat="43.61983" lon="6.55206">
        <ele>470</ele>
        <time>2013-08-17T08:10:27Z</time>
      </trkpt>
      <trkpt lat="43.6198" lon="6.55205">
        <ele>470</ele>
        <time>2013-08-17T08:10:28Z</time>
      </trkpt>
      <trkpt lat="43.61978" lon="6.55205">
        <ele>470</ele>
        <time>2013-08-17T08:10:29Z</time>
      </trkpt>
      <trkpt lat="43.61976" lon="6.55204">
        <ele>470</ele>
        <time>2013-08-17T08:10:30Z</time>
      </trkpt>
      <trkpt lat="43.61975" lon="6.55203">
        <ele>470</ele>
        <time>2013-08-17T08:10:31Z</time>
      </trkpt>
      <trkpt lat="43.61971" lon="6.55202">
        <ele>470</ele>
        <time>2013-08-17T08:10:32Z</time>
      </trkpt>
      <trkpt lat="43.61966" lon="6.55201">
        <ele>470</ele>
        <time>2013-08-17T08:10:33Z</time>
      </trkpt>
      <trkpt lat="43.61963" lon="6.552">
        <ele>470</ele>
        <time>2013-08-17T08:10:34Z</time>
      </trkpt>
      <trkpt lat="43.61957" lon="6.552">
        <ele>470</ele>
        <time>2013-08-17T08:10:36Z</time>
      </trkpt>
      <trkpt lat="43.61955" lon="6.55201">
        <ele>469</ele>
        <time>2013-08-17T08:10:37Z</time>
      </trkpt>
      <trkpt lat="43.6193" lon="6.55231">
        <ele>467</ele>
        <time>2013-08-17T08:10:49Z</time>
      </trkpt>
      <trkpt lat="43.61922" lon="6.55252">
        <ele>462</ele>
        <time>2013-08-17T08:10:56Z</time>
      </trkpt>
      <trkpt lat="43.61908" lon="6.55271">
        <ele>457</ele>
        <time>2013-08-17T08:11:04Z</time>
      </trkpt>
      <trkpt lat="43.61908" lon="6.55277">
        <ele>456</ele>
        <time>2013-08-17T08:11:05Z</time>
      </trkpt>
      <trkpt lat="43.61908" lon="6.55283">
        <ele>455</ele>
        <time>2013-08-17T08:11:06Z</time>
      </trkpt>
      <trkpt lat="43.6191" lon="6.55289">
        <ele>455</ele>
        <time>2013-08-17T08:11:07Z</time>
      </trkpt>
      <trkpt lat="43.61913" lon="6.55292">
        <ele>454</ele>
        <time>2013-08-17T08:11:08Z</time>
      </trkpt>
      <trkpt lat="43.61917" lon="6.55293">
        <ele>456</ele>
        <time>2013-08-17T08:11:09Z</time>
      </trkpt>
      <trkpt lat="43.61921" lon="6.55293">
        <ele>456</ele>
        <time>2013-08-17T08:11:10Z</time>
      </trkpt>
      <trkpt lat="43.61924" lon="6.55292">
        <ele>456</ele>
        <time>2013-08-17T08:11:11Z</time>
      </trkpt>
      <trkpt lat="43.61939" lon="6.55287">
        <ele>457</ele>
        <time>2013-08-17T08:11:20Z</time>
      </trkpt>
      <trkpt lat="43.61947" lon="6.55285">
        <ele>457</ele>
        <time>2013-08-17T08:11:32Z</time>
      </trkpt>
      <trkpt lat="43.61949" lon="6.55284">
        <ele>457</ele>
        <time>2013-08-17T08:11:41Z</time>
      </trkpt>
      <trkpt lat="43.61949" lon="6.55285">
        <ele>457</ele>
        <time>2013-08-17T08:11:42Z</time>
      </trkpt>
    </trkseg>
  </trk>
</gpx>